Provisional Data: Quittapahilla Creek near Syner, PA


Please select a monitoring station.
Please select start date.
Please select start date.

Toggle Unit: C/F Toggle Unit: C/F
Sample Time Temperature (C) Temperature (F) Specific Conductivity (mS/cm) pH   Turbidity (NTU+) DO (mg/L)
10/22/2021 12:00:00 AM 14.09 57.362 0.663 7.8 1.29 8.77
10/22/2021 12:15:00 AM 14.09 57.362 0.663 7.79 1.89 8.73
10/22/2021 12:30:00 AM 14.09 57.362 0.663 7.79 1.78 8.71
10/22/2021 12:45:00 AM 14.1 57.38 0.663 7.78 1.78 8.68
10/22/2021 1:00:00 AM 14.1 57.38 0.662 7.78 2.5 8.66
10/22/2021 1:15:00 AM 14.11 57.398 0.662 7.75 1.63 8.63
10/22/2021 1:30:00 AM 14.12 57.416 0.662 7.76 1.89 8.59
10/22/2021 1:45:00 AM 14.12 57.416 0.663 7.76 1.47 8.57
10/22/2021 2:00:00 AM 14.13 57.434 0.663 7.75 1.75 8.54
10/22/2021 2:15:00 AM 14.13 57.434 0.664 7.75 1.9 8.52
10/22/2021 2:30:00 AM 14.13 57.434 0.663 7.75 2.09 8.49
10/22/2021 2:45:00 AM 14.13 57.434 0.663 7.74 1.61 8.48
10/22/2021 3:00:00 AM 14.12 57.416 0.663 7.74 1.96 8.48
10/22/2021 3:15:00 AM 14.11 57.398 0.664 7.76 2.21 8.48
10/22/2021 3:30:00 AM 14.1 57.38 0.665 7.73 2.02 8.45
10/22/2021 3:45:00 AM 14.09 57.362 0.665 7.74 2.19 8.47
10/22/2021 4:00:00 AM 14.09 57.362 0.665 7.73 1.58 8.47
10/22/2021 4:15:00 AM 14.08 57.344 0.665 7.72 1.72 8.45
10/22/2021 4:30:00 AM 14.06 57.308 0.665 7.72 1.71 8.46
10/22/2021 4:45:00 AM 14.04 57.272 0.666 7.7 1.65 8.45
10/22/2021 5:00:00 AM 14.03 57.254 0.666 7.7 2.99 8.47
10/22/2021 5:15:00 AM 14.01 57.218 0.665 7.74 1.75 8.46
10/22/2021 5:30:00 AM 13.97 57.146 0.665 7.69 1.68 8.47
10/22/2021 5:45:00 AM 13.94 57.092 0.664 7.69 4.14 8.48
10/22/2021 6:00:00 AM 13.91 57.038 0.664 7.7 1.64 8.49
10/22/2021 6:15:00 AM 13.87 56.966 0.664 7.74 1.67 8.49
10/22/2021 6:30:00 AM 13.83 56.894 0.664 7.75 1.8 8.5
10/22/2021 6:45:00 AM 13.8 56.84 0.664 7.76 2.65 8.5
10/22/2021 7:00:00 AM 13.76 56.768 0.664 7.73 1.86 8.5
10/22/2021 7:15:00 AM 13.73 56.714 0.664 7.71 2.55 8.52
10/22/2021 7:30:00 AM 13.7 56.66 0.664 7.71 1.83 8.51
10/22/2021 7:45:00 AM 13.67 56.606 0.664 7.76 1.95 8.53
10/22/2021 8:00:00 AM 13.65 56.57 0.664 7.76 1.49 8.56
10/22/2021 8:15:00 AM 13.63 56.534 0.664 7.74 1.65 8.61
10/22/2021 8:30:00 AM 13.62 56.516 0.664 7.74 1.54 8.67
10/22/2021 8:45:00 AM 13.61 56.498 0.664 7.75 2.03 8.75
10/22/2021 9:00:00 AM 13.62 56.516 0.665 7.76 1.42 8.88
10/22/2021 9:15:00 AM 13.65 56.57 0.665 7.77 1.62 9.06
10/22/2021 9:30:00 AM 13.69 56.642 0.665 7.78 1.23 9.25
10/22/2021 9:45:00 AM 13.73 56.714 0.665 7.78 1.16 9.43
10/22/2021 10:00:00 AM 13.78 56.804 0.665 7.8 1.18 9.67
10/22/2021 10:15:00 AM 13.83 56.894 0.665 7.81 0.9 9.89
10/22/2021 10:30:00 AM 13.87 56.966 0.664 7.81 1.16 10.13
10/22/2021 10:45:00 AM 13.9 57.02 0.664 7.83 0.98 10.27
10/22/2021 11:00:00 AM 13.94 57.092 0.664 7.85 0.89 10.46
10/22/2021 11:15:00 AM 13.99 57.182 0.663 7.86 1.03 10.68
10/22/2021 11:30:00 AM 14.03 57.254 0.663 7.86 0.89 10.85
10/22/2021 11:45:00 AM 14.05 57.29 0.663 7.87 1.04 10.91
10/22/2021 12:00:00 PM 14.09 57.362 0.663 7.89 0.87 11
10/22/2021 12:15:00 PM 14.12 57.416 0.663 7.88 0.88 11.12
10/22/2021 12:30:00 PM 14.16 57.488 0.663 7.89 1.04 11.24
10/22/2021 12:45:00 PM 14.18 57.524 0.663 7.9 0.98 11.33
10/22/2021 1:00:00 PM 14.19 57.542 0.663 7.91 0.98 11.3
10/22/2021 1:15:00 PM 14.2 57.56 0.663 7.9 1.06 11.28
10/22/2021 1:30:00 PM 14.21 57.578 0.664 7.91 1.13 11.22
10/22/2021 1:45:00 PM 14.23 57.614 0.664 7.93 0.99 11.26
10/22/2021 2:00:00 PM 14.26 57.668 0.664 7.93 0.88 11.36
10/22/2021 2:15:00 PM 14.27 57.686 0.663 7.91 1.51 11.35
10/22/2021 2:30:00 PM 14.28 57.704 0.663 7.91 0.95 11.39
10/22/2021 2:45:00 PM 14.32 57.776 0.663 7.89 1.04 11.5
10/22/2021 3:00:00 PM 14.37 57.866 0.663 7.91 1.1 11.62
10/22/2021 3:15:00 PM 14.42 57.956 0.662 7.92 1.37 11.78
10/22/2021 3:30:00 PM 14.44 57.992 0.662 7.92 0.8 11.85
10/22/2021 3:45:00 PM 14.46 58.028 0.662 7.93 0.97 11.86
10/22/2021 4:00:00 PM 14.5 58.1 0.663 7.93 1.29 11.86
10/22/2021 4:15:00 PM 14.49 58.082 0.662 7.93 1.01 11.79
10/22/2021 4:30:00 PM 14.48 58.064 0.661 7.92 1.12 11.65
10/22/2021 4:45:00 PM 14.48 58.064 0.659 7.92 1.17 11.55
10/22/2021 5:00:00 PM 14.47 58.046 0.658 7.92 1.4 11.43
10/22/2021 5:15:00 PM 14.46 58.028 0.657 7.92 1.33 11.28
10/22/2021 5:30:00 PM 14.44 57.992 0.657 7.91 1.65 11.12
10/22/2021 5:45:00 PM 14.42 57.956 0.657 7.91 1.14 10.94
10/22/2021 6:00:00 PM 14.41 57.938 0.657 7.89 1.26 10.74
10/22/2021 6:15:00 PM 14.38 57.884 0.657 7.89 1.38 10.54
10/22/2021 6:30:00 PM 14.36 57.848 0.657 7.88 1.45 10.35
10/22/2021 6:45:00 PM 14.33 57.794 0.657 7.88 1.37 10.18
10/22/2021 7:00:00 PM 14.3 57.74 0.657 7.86 1.3 10.01
10/22/2021 7:15:00 PM 14.27 57.686 0.657 7.85 1.31 9.89
10/22/2021 7:30:00 PM 14.24 57.632 0.657 7.84 1.34 9.78
10/22/2021 7:45:00 PM 14.21 57.578 0.656 7.83 3.21 9.7
10/22/2021 8:00:00 PM 14.19 57.542 0.656 7.83 1.66 9.62
10/22/2021 8:15:00 PM 14.16 57.488 0.656 7.83 1.62 9.57
10/22/2021 8:30:00 PM 14.12 57.416 0.656 7.81 1.53 9.52
10/22/2021 8:45:00 PM 14.08 57.344 0.656 7.81 1.96 9.47
10/22/2021 9:00:00 PM 14.04 57.272 0.655 7.81 2.16 9.42
10/22/2021 9:15:00 PM 14.02 57.236 0.655 7.81 1.98 9.39
10/22/2021 9:30:00 PM 13.99 57.182 0.655 7.81 1.72 9.35
10/22/2021 9:45:00 PM 13.97 57.146 0.655 7.79 2.05 9.3
10/22/2021 10:00:00 PM 13.96 57.128 0.655 7.79 1.69 9.25
10/22/2021 10:15:00 PM 13.94 57.092 0.655 7.78 1.7 9.24
10/22/2021 10:30:00 PM 13.92 57.056 0.655 7.78 3.26 9.19
10/22/2021 10:45:00 PM 13.9 57.02 0.655 7.78 2.01 9.17
10/22/2021 11:00:00 PM 13.88 56.984 0.655 7.77 1.87 9.14
10/22/2021 11:15:00 PM 13.85 56.93 0.655 7.77 1.93 9.11
10/22/2021 11:30:00 PM 13.82 56.876 0.655 7.77 1.8 9.08
10/22/2021 11:45:00 PM 13.79 56.822 0.655 7.77 1.62 9.06
10/23/2021 12:00:00 AM 13.77 56.786 0.656 7.76 1.88 9.04
10/23/2021 12:15:00 AM 13.75 56.75 0.656 7.75 1.92 9.01
10/23/2021 12:30:00 AM 13.74 56.732 0.657 7.75 2.13 8.98
10/23/2021 12:45:00 AM 13.72 56.696 0.657 7.76 1.98 8.96
10/23/2021 1:00:00 AM 13.71 56.678 0.658 7.75 1.68 8.93
10/23/2021 1:15:00 AM 13.69 56.642 0.658 7.73 1.92 8.9
10/23/2021 1:30:00 AM 13.67 56.606 0.658 7.74 1.79 8.89
10/23/2021 1:45:00 AM 13.65 56.57 0.659 7.73 1.82 8.88
10/23/2021 2:00:00 AM 13.64 56.552 0.659 7.73 2.28 8.87
10/23/2021 2:15:00 AM 13.62 56.516 0.659 7.7 2.18 8.86
10/23/2021 2:30:00 AM 13.61 56.498 0.66 7.7 2.1 8.85
10/23/2021 2:45:00 AM 13.6 56.48 0.66 7.71 1.67 8.84
10/23/2021 3:00:00 AM 13.59 56.462 0.659 7.7 1.65 8.83
10/23/2021 3:15:00 AM 13.58 56.444 0.66 7.7 1.73 8.83
10/23/2021 3:30:00 AM 13.57 56.426 0.66 7.71 1.86 8.82
10/23/2021 3:45:00 AM 13.57 56.426 0.661 7.72 1.88 8.83
10/23/2021 4:00:00 AM 13.55 56.39 0.661 7.71 2.34 8.81
10/23/2021 4:15:00 AM 13.53 56.354 0.663 7.73 2.34 8.79
10/23/2021 4:30:00 AM 13.51 56.318 0.663 7.72 1.99 8.78
10/23/2021 4:45:00 AM 13.49 56.282 0.664 7.72 1.83 8.76
10/23/2021 5:00:00 AM 13.47 56.246 0.664 7.71 1.97 8.76
10/23/2021 5:15:00 AM 13.46 56.228 0.665 7.71 1.94 8.74
10/23/2021 5:30:00 AM 13.45 56.21 0.664 7.7 1.81 8.75
10/23/2021 5:45:00 AM 13.45 56.21 0.665 7.73 2.65 8.74
10/23/2021 6:00:00 AM 13.45 56.21 0.664 7.71 2.06 8.76
10/23/2021 6:15:00 AM 13.46 56.228 0.663 7.72 2.21 8.78
10/23/2021 6:30:00 AM 13.46 56.228 0.661 7.72 2.63 8.8
10/23/2021 6:45:00 AM 13.46 56.228 0.662 7.72 2.01 8.8
10/23/2021 7:00:00 AM 13.45 56.21 0.661 7.72 2.1 8.82
10/23/2021 7:15:00 AM 13.45 56.21 0.662 7.71 2.49 8.81
10/23/2021 7:30:00 AM 13.44 56.192 0.662 7.72 1.92 8.81
10/23/2021 7:45:00 AM 13.43 56.174 0.662 7.71 2.53 8.82
10/23/2021 8:00:00 AM 13.42 56.156 0.662 7.72 1.83 8.84
10/23/2021 8:15:00 AM 13.42 56.156 0.662 7.7 1.88 8.86
10/23/2021 8:30:00 AM 13.42 56.156 0.662 7.72 1.62 8.9
10/23/2021 8:45:00 AM 13.42 56.156 0.662 7.72 1.65 8.96
10/23/2021 9:00:00 AM 13.42 56.156 0.662 7.72 1.85 9.06
10/23/2021 9:15:00 AM 13.43 56.174 0.662 7.71 1.33 9.17
10/23/2021 9:30:00 AM 13.44 56.192 0.662 7.72 1.78 9.33
10/23/2021 9:45:00 AM 13.46 56.228 0.662 7.73 2.26 9.53
10/23/2021 10:00:00 AM 13.48 56.264 0.661 7.74 1.47 9.69
10/23/2021 10:15:00 AM 13.52 56.336 0.661 7.75 1.2 9.96
10/23/2021 10:30:00 AM 13.54 56.372 0.661 7.77 1.33 10.15
10/23/2021 10:45:00 AM 13.55 56.39 0.661 7.78 1.08 10.25
10/23/2021 11:00:00 AM 13.58 56.444 0.66 7.8 1.08 10.41
10/23/2021 11:15:00 AM 13.59 56.462 0.661 7.79 1.18 10.56
10/23/2021 11:30:00 AM 13.59 56.462 0.66 7.8 1.82 10.57
10/23/2021 11:45:00 AM 13.6 56.48 0.66 7.81 1.25 10.59
10/23/2021 12:00:00 PM 13.61 56.498 0.66 7.81 1.12 10.65
10/23/2021 12:15:00 PM 13.62 56.516 0.66 7.82 1.04 10.73
10/23/2021 12:30:00 PM 13.62 56.516 0.66 7.83 1.18 10.72
10/23/2021 12:45:00 PM 13.63 56.534 0.659 7.82 1.51 10.77
10/23/2021 1:00:00 PM 13.67 56.606 0.659 7.83 1.09 10.96
10/23/2021 1:15:00 PM 13.72 56.696 0.659 7.85 0.99 11.2
10/23/2021 1:30:00 PM 13.77 56.786 0.659 7.87 1.01 11.4
10/23/2021 1:45:00 PM 13.81 56.858 0.658 7.86 1.04 11.6
10/23/2021 2:00:00 PM 13.86 56.948 0.658 7.88 1.06 11.75
10/23/2021 2:15:00 PM 13.89 57.002 0.658 7.9 1.15 11.83
10/23/2021 2:30:00 PM 13.9 57.02 0.658 7.89 1.16 11.85
10/23/2021 2:45:00 PM 13.93 57.074 0.658 7.9 1 11.81
10/23/2021 3:00:00 PM 13.94 57.092 0.658 7.92 1.27 11.85
10/23/2021 3:15:00 PM 13.94 57.092 0.658 7.91 1.2 11.8
10/23/2021 3:30:00 PM 13.92 57.056 0.658 7.9 1.07 11.59
10/23/2021 3:45:00 PM 13.92 57.056 0.658 7.9 1.33 11.51
10/23/2021 4:00:00 PM 13.93 57.074 0.658 7.89 1.53 11.52
10/23/2021 4:15:00 PM 13.92 57.056 0.657 7.9 1.04 11.46
10/23/2021 4:30:00 PM 13.94 57.092 0.657 7.91 1.11 11.45
10/23/2021 4:45:00 PM 13.93 57.074 0.657 7.91 1.18 11.4
10/23/2021 5:00:00 PM 13.9 57.02 0.657 7.9 1.76 11.24
10/23/2021 5:15:00 PM 13.89 57.002 0.656 7.89 1.08 11.2
10/23/2021 5:30:00 PM 13.85 56.93 0.656 7.91 1.11 11.03
10/23/2021 5:45:00 PM 13.83 56.894 0.656 7.88 1.28 10.88
10/23/2021 6:00:00 PM 13.81 56.858 0.656 7.87 1.64 10.75
10/23/2021 6:15:00 PM 13.77 56.786 0.657 7.86 1.54 10.57
10/23/2021 6:30:00 PM 13.73 56.714 0.657 7.87 1.29 10.38
10/23/2021 6:45:00 PM 13.69 56.642 0.657 7.85 1.29 10.22
10/23/2021 7:00:00 PM 13.65 56.57 0.657 7.85 1.08 10.07
10/23/2021 7:15:00 PM 13.61 56.498 0.657 7.84 1.49 9.96
10/23/2021 7:30:00 PM 13.58 56.444 0.658 7.82 2.42 9.86
10/23/2021 7:45:00 PM 13.54 56.372 0.657 7.82 1.41 9.81
10/23/2021 8:00:00 PM 13.51 56.318 0.657 7.82 1.56 9.74
10/23/2021 8:15:00 PM 13.48 56.264 0.657 7.8 1.49 9.69
10/23/2021 8:30:00 PM 13.45 56.21 0.658 7.82 2.01 9.66
10/23/2021 8:45:00 PM 13.42 56.156 0.658 7.8 1.77 9.6
10/23/2021 9:00:00 PM 13.39 56.102 0.658 7.82 1.95 9.58
10/23/2021 9:15:00 PM 13.36 56.048 0.658 7.8 1.91 9.52
10/23/2021 9:30:00 PM 13.35 56.03 0.657 7.8 2 9.5
10/23/2021 9:45:00 PM 13.36 56.048 0.658 7.8 2.15 9.47
10/23/2021 10:00:00 PM 13.37 56.066 0.662 7.79 1.83 9.44
10/23/2021 10:15:00 PM 13.37 56.066 0.665 7.78 1.98 9.4
10/23/2021 10:30:00 PM 13.36 56.048 0.667 7.8 2.31 9.37
10/23/2021 10:45:00 PM 13.33 55.994 0.668 7.8 1.94 9.35
10/23/2021 11:00:00 PM 13.3 55.94 0.669 7.78 17.74 9.33
10/23/2021 11:15:00 PM 13.27 55.886 0.669 7.79 1.93 9.31
10/23/2021 11:30:00 PM 13.24 55.832 0.669 7.79 1.71 9.3
10/23/2021 11:45:00 PM 13.21 55.778 0.669 7.77 2.02 9.27
10/24/2021 12:00:00 AM 13.18 55.724 0.669 7.79 1.93 9.25
10/24/2021 12:15:00 AM 13.15 55.67 0.669 7.78 1.85 9.24
10/24/2021 12:30:00 AM 13.12 55.616 0.669 7.78 2.19 9.23
10/24/2021 12:45:00 AM 13.08 55.544 0.669 7.79 1.52 9.21
10/24/2021 1:00:00 AM 13.04 55.472 0.67 7.78 1.75 9.19
10/24/2021 1:15:00 AM 12.99 55.382 0.67 7.76 2.2 9.18
10/24/2021 1:30:00 AM 12.93 55.274 0.67 7.78 1.71 9.15
10/24/2021 1:45:00 AM 12.87 55.166 0.669 7.79 3.16 9.14
10/24/2021 2:00:00 AM 12.81 55.058 0.666 7.77 1.45 9.12
10/24/2021 2:15:00 AM 12.76 54.968 0.664 7.73 1.86 9.12
10/24/2021 2:30:00 AM 12.72 54.896 0.663 7.77 1.91 9.11
10/24/2021 2:45:00 AM 12.69 54.842 0.662 7.77 2.98 9.1
10/24/2021 3:00:00 AM 12.65 54.77 0.662 7.77 2.1 9.11
10/24/2021 3:15:00 AM 12.62 54.716 0.662 7.76 2.23 9.11
10/24/2021 3:30:00 AM 12.6 54.68 0.661 7.75 9.12 9.09
10/24/2021 3:45:00 AM 12.59 54.662 0.661 7.77 2.49 9.14
10/24/2021 4:00:00 AM 12.57 54.626 0.663 7.78 2.03 9.14
10/24/2021 4:15:00 AM 12.54 54.572 0.665 7.74 2.58 9.13
10/24/2021 4:30:00 AM 12.5 54.5 0.666 7.74 2.44 9.13
10/24/2021 4:45:00 AM 12.47 54.446 0.665 7.75 1.82 9.13
10/24/2021 5:00:00 AM 12.44 54.392 0.663 7.73 4.84 9.12
10/24/2021 5:15:00 AM 12.42 54.356 0.662 7.73 2.18 9.14
10/24/2021 5:30:00 AM 12.41 54.338 0.662 7.73 2.19 9.13
10/24/2021 5:45:00 AM 12.4 54.32 0.662 7.74 2.71 9.15
10/24/2021 6:00:00 AM 12.39 54.302 0.661 7.74 2.85 9.14
10/24/2021 6:15:00 AM 12.38 54.284 0.661 7.74 2.13 9.15
10/24/2021 6:30:00 AM 12.36 54.248 0.661 7.75 2.25 9.16
10/24/2021 6:45:00 AM 12.36 54.248 0.661 7.75 2.45 9.16
10/24/2021 7:00:00 AM 12.34 54.212 0.661 7.75 2.04 9.16
10/24/2021 7:15:00 AM 12.33 54.194 0.66 7.76 3.33 9.18
10/24/2021 7:30:00 AM 12.31 54.158 0.66 7.77 3.09 9.17
10/24/2021 7:45:00 AM 12.3 54.14 0.66 7.76 2.18 9.19
10/24/2021 8:00:00 AM 12.29 54.122 0.66 7.76 1.88 9.23
10/24/2021 8:15:00 AM 12.29 54.122 0.66 7.75 2.14 9.3
10/24/2021 8:30:00 AM 12.29 54.122 0.659 7.75 3.38 9.37
10/24/2021 8:45:00 AM 12.3 54.14 0.659 7.75 2.29 9.46
10/24/2021 9:00:00 AM 12.33 54.194 0.658 7.75 1.46 9.55
10/24/2021 9:15:00 AM 12.36 54.248 0.657 7.76 1.65 9.63
10/24/2021 9:30:00 AM 12.37 54.266 0.659 7.76 1.88 9.69
10/24/2021 9:45:00 AM 12.37 54.266 0.661 7.76 1.44 9.74
10/24/2021 10:00:00 AM 12.37 54.266 0.662 7.76 1.27 9.84
10/24/2021 10:15:00 AM 12.37 54.266 0.661 7.77 1.16 9.91
10/24/2021 10:30:00 AM 12.36 54.248 0.66 7.78 1.41 9.97
10/24/2021 10:45:00 AM 12.34 54.212 0.66 7.79 1.21 10.09
10/24/2021 11:00:00 AM 12.31 54.158 0.661 7.8 1.08 10.19
10/24/2021 11:15:00 AM 12.29 54.122 0.662 7.79 1.1 10.28
10/24/2021 11:30:00 AM 12.31 54.158 0.662 7.81 1.08 10.45
10/24/2021 11:45:00 AM 12.32 54.176 0.662 7.82 1.67 10.58
10/24/2021 12:00:00 PM 12.33 54.194 0.663 7.82 0.98 10.7
10/24/2021 12:15:00 PM 12.37 54.266 0.663 7.84 1.16 10.88
10/24/2021 12:30:00 PM 12.41 54.338 0.662 7.86 1.45 11.06
10/24/2021 12:45:00 PM 12.47 54.446 0.663 7.87 1.02 11.24
10/24/2021 1:00:00 PM 12.51 54.518 0.663 7.89 1.1 11.4
10/24/2021 1:15:00 PM 12.54 54.572 0.663 7.88 0.88 11.5
10/24/2021 1:30:00 PM 12.61 54.698 0.663 7.88 0.89 11.71
10/24/2021 1:45:00 PM 12.68 54.824 0.662 7.89 0.86 11.88
10/24/2021 2:00:00 PM 12.75 54.95 0.663 7.91 1.17 12.1
10/24/2021 2:15:00 PM 12.8 55.04 0.663 7.92 1.67 12.21
10/24/2021 2:30:00 PM 12.82 55.076 0.662 7.93 0.92 12.24
10/24/2021 2:45:00 PM 12.89 55.202 0.662 7.93 0.8 12.3
10/24/2021 3:00:00 PM 12.96 55.328 0.662 7.93 1.02 12.44
10/24/2021 3:15:00 PM 13.02 55.436 0.662 7.95 0.89 12.56
10/24/2021 3:30:00 PM 13.05 55.49 0.661 7.95 0.81 12.6
10/24/2021 3:45:00 PM 13.08 55.544 0.661 7.96 0.92 12.58
10/24/2021 4:00:00 PM 13.1 55.58 0.661 7.95 1.08 12.53
10/24/2021 4:15:00 PM 13.13 55.634 0.661 7.95 1 12.49
10/24/2021 4:30:00 PM 13.13 55.634 0.661 7.95 0.9 12.37
10/24/2021 4:45:00 PM 13.13 55.634 0.661 7.95 0.93 12.27
10/24/2021 5:00:00 PM 13.12 55.616 0.661 7.94 1.4 12.08
10/24/2021 5:15:00 PM 13.11 55.598 0.661 7.93 0.98 11.83
10/24/2021 5:30:00 PM 13.1 55.58 0.661 7.93 1.06 11.62
10/24/2021 5:45:00 PM 13.09 55.562 0.661 7.92 1.47 11.37
10/24/2021 6:00:00 PM 13.08 55.544 0.661 7.9 0.95 11.13
10/24/2021 6:15:00 PM 13.06 55.508 0.661 7.9 1.21 10.92
10/24/2021 6:30:00 PM 13.04 55.472 0.661 7.89 1.29 10.74
10/24/2021 6:45:00 PM 13.03 55.454 0.661 7.88 7.42 10.57
10/24/2021 7:00:00 PM 13.02 55.436 0.661 7.87 1.12 10.44
10/24/2021 7:15:00 PM 13.02 55.436 0.661 7.86 1.54 10.32
10/24/2021 7:30:00 PM 13.01 55.418 0.661 7.85 1.3 10.23
10/24/2021 7:45:00 PM 13.01 55.418 0.662 7.84 1.05 10.12
10/24/2021 8:00:00 PM 13.01 55.418 0.662 7.84 1.31 10.06
10/24/2021 8:15:00 PM 13.01 55.418 0.662 7.83 1.21 9.99
10/24/2021 8:30:00 PM 13 55.4 0.662 7.87 1.26 9.94
10/24/2021 8:45:00 PM 13 55.4 0.662 7.83 1.38 9.86
10/24/2021 9:00:00 PM 13 55.4 0.662 7.83 1.98 9.81
10/24/2021 9:15:00 PM 13 55.4 0.662 7.83 1.31 9.76
10/24/2021 9:30:00 PM 12.99 55.382 0.662 7.82 1.47 9.7
10/24/2021 9:45:00 PM 12.99 55.382 0.662 7.82 1.32 9.66
10/24/2021 10:00:00 PM 13 55.4 0.663 7.82 1.28 9.6
10/24/2021 10:15:00 PM 13 55.4 0.663 7.8 1.53 9.56
10/24/2021 10:30:00 PM 13 55.4 0.663 7.8 1.55 9.51
10/24/2021 10:45:00 PM 13.01 55.418 0.663 7.8 1.46 9.48
10/24/2021 11:00:00 PM 13.01 55.418 0.664 7.79 1.73 9.44
10/24/2021 11:15:00 PM 13.01 55.418 0.664 7.79 1.73 9.41
10/24/2021 11:30:00 PM 13.01 55.418 0.665 7.79 1.46 9.36
10/24/2021 11:45:00 PM 13.01 55.418 0.665 7.79 1.94 9.33
10/25/2021 12:00:00 AM 13.01 55.418 0.666 7.79 1.4 9.28
10/25/2021 12:15:00 AM 13.01 55.418 0.667 7.79 1.93 9.24
10/25/2021 12:30:00 AM 13.01 55.418 0.667 7.77 1.6 9.2
10/25/2021 12:45:00 AM 13.02 55.436 0.669 7.76 1.44 9.16
10/25/2021 1:00:00 AM 13.02 55.436 0.669 7.75 5.74 9.14
10/25/2021 1:15:00 AM 13.03 55.454 0.67 7.75 1.54 9.1
10/25/2021 1:30:00 AM 13.03 55.454 0.671 7.75 1.93 9.06
10/25/2021 1:45:00 AM 13.04 55.472 0.672 7.75 2.2 9.04
10/25/2021 2:00:00 AM 13.05 55.49 0.673 7.76 10.07 9.02
10/25/2021 2:15:00 AM 13.05 55.49 0.674 7.74 1.95 9
10/25/2021 2:30:00 AM 13.06 55.508 0.675 7.75 2.19 8.98
10/25/2021 2:45:00 AM 13.06 55.508 0.676 7.75 1.6 8.96
10/25/2021 3:00:00 AM 13.06 55.508 0.677 7.75 1.57 8.93
10/25/2021 3:15:00 AM 13.07 55.526 0.677 7.74 2.06 8.94
10/25/2021 3:30:00 AM 13.06 55.508 0.678 7.75 1.98 8.91
10/25/2021 3:45:00 AM 13.06 55.508 0.679 7.75 1.71 8.91
10/25/2021 4:00:00 AM 13.05 55.49 0.679 7.75 1.72 8.9
10/25/2021 4:15:00 AM 13.04 55.472 0.679 7.74 1.83 8.89
10/25/2021 4:30:00 AM 13.03 55.454 0.68 7.74 2.38 8.86
10/25/2021 4:45:00 AM 13.02 55.436 0.68 7.74 3.09 8.87
10/25/2021 5:00:00 AM 13.01 55.418 0.68 7.74 2.15 8.86
10/25/2021 5:15:00 AM 13 55.4 0.68 7.73 1.67 8.86
10/25/2021 5:30:00 AM 12.98 55.364 0.68 7.74 1.81 8.85
10/25/2021 5:45:00 AM 12.97 55.346 0.68 7.75 1.61 8.85
10/25/2021 6:00:00 AM 12.95 55.31 0.679 7.74 1.8 8.85
10/25/2021 6:15:00 AM 12.94 55.292 0.679 7.73 1.98 8.85
10/25/2021 6:30:00 AM 12.92 55.256 0.68 7.73 1.9 8.85
10/25/2021 6:45:00 AM 12.9 55.22 0.679 7.73 1.99 8.84
10/25/2021 7:00:00 AM 12.89 55.202 0.679 7.74 2.15 8.84
10/25/2021 7:15:00 AM 12.87 55.166 0.68 7.74 3.59 8.84
10/25/2021 7:30:00 AM 12.86 55.148 0.68 7.74 1.77 8.85
10/25/2021 7:45:00 AM 12.84 55.112 0.679 7.74 2.45 8.85
10/25/2021 8:00:00 AM 12.83 55.094 0.68 7.73 1.82 8.86
10/25/2021 8:15:00 AM 12.82 55.076 0.679 7.73 2.24 8.9
10/25/2021 8:30:00 AM 12.82 55.076 0.68 7.73 1.41 8.98
10/25/2021 8:45:00 AM 12.83 55.094 0.679 7.73 1.69 9.09
10/25/2021 9:00:00 AM 12.85 55.13 0.679 7.75 1.47 9.23
10/25/2021 9:15:00 AM 12.86 55.148 0.679 7.75 1.39 9.38
10/25/2021 9:30:00 AM 12.89 55.202 0.678 7.76 1.28 9.55
10/25/2021 9:45:00 AM 12.92 55.256 0.677 7.77 1.25 9.73
10/25/2021 10:00:00 AM 12.95 55.31 0.677 7.76 1.71 9.9
10/25/2021 10:15:00 AM 12.99 55.382 0.676 7.79 1.23 10.06
10/25/2021 10:30:00 AM 13.04 55.472 0.675 7.8 1.01 10.25
10/25/2021 10:45:00 AM 13.13 55.634 0.675 7.81 1.1 10.51
10/25/2021 11:00:00 AM 13.23 55.814 0.674 7.83 0.94 10.73
10/25/2021 11:15:00 AM 13.35 56.03 0.673 7.84 0.89 10.95
10/25/2021 11:30:00 AM 13.47 56.246 0.673 7.85 2.95 11.13
10/25/2021 11:45:00 AM 13.6 56.48 0.672 7.87 0.83 11.26
10/25/2021 12:00:00 PM 13.73 56.714 0.671 7.88 1.26 11.41
10/25/2021 12:15:00 PM 13.85 56.93 0.671 7.88 0.97 11.55
10/25/2021 12:30:00 PM 13.98 57.164 0.671 7.89 0.97 11.69
10/25/2021 12:45:00 PM 14.09 57.362 0.67 7.9 1.06 11.81
10/25/2021 1:00:00 PM 14.2 57.56 0.669 7.91 0.98 11.9
10/25/2021 1:15:00 PM 14.3 57.74 0.669 7.91 0.99 11.96
10/25/2021 1:30:00 PM 14.39 57.902 0.668 7.93 2.13 12.05
10/25/2021 1:45:00 PM 14.47 58.046 0.668 7.93 1 12.11
10/25/2021 2:00:00 PM 14.54 58.172 0.668 7.93 1.83 12.16
10/25/2021 2:15:00 PM 14.61 58.298 0.668 7.94 0.95 12.18
10/25/2021 2:30:00 PM 14.65 58.37 0.667 7.96 0.91 12.19
10/25/2021 2:45:00 PM 14.69 58.442 0.667 7.94 1.18 12.19
10/25/2021 3:00:00 PM 14.72 58.496 0.667 7.94 1.04 12.19
10/25/2021 3:15:00 PM 14.75 58.55 0.666 7.95 0.92 12.23
10/25/2021 3:30:00 PM 14.74 58.532 0.666 7.96 1.69 12.17
10/25/2021 3:45:00 PM 14.72 58.496 0.666 7.96 1.02 12.12
10/25/2021 4:00:00 PM 14.71 58.478 0.666 7.96 1.32 12.07
10/25/2021 4:15:00 PM 14.67 58.406 0.665 7.95 1.27 11.9
10/25/2021 4:30:00 PM 14.63 58.334 0.665 7.94 0.95 11.7
10/25/2021 4:45:00 PM 14.62 58.316 0.665 7.94 1.03 11.58
10/25/2021 5:00:00 PM 14.63 58.334 0.665 7.93 1 11.49
10/25/2021 5:15:00 PM 14.63 58.334 0.665 7.91 0.97 11.37
10/25/2021 5:30:00 PM 14.62 58.316 0.664 7.92 0.96 11.17
10/25/2021 5:45:00 PM 14.63 58.334 0.664 7.9 1.46 10.96
10/25/2021 6:00:00 PM 14.63 58.334 0.664 7.89 1.13 10.73
10/25/2021 6:15:00 PM 14.62 58.316 0.664 7.89 1.04 10.5
10/25/2021 6:30:00 PM 14.61 58.298 0.664 7.87 1.25 10.28
10/25/2021 6:45:00 PM 14.6 58.28 0.664 7.86 1.7 10.08
10/25/2021 7:00:00 PM 14.59 58.262 0.664 7.85 1.18 9.93
10/25/2021 7:15:00 PM 14.57 58.226 0.664 7.84 1.79 9.79
10/25/2021 7:30:00 PM 14.55 58.19 0.664 7.83 1.12 9.68
10/25/2021 7:45:00 PM 14.54 58.172 0.664 7.82 1.33 9.57
10/25/2021 8:00:00 PM 14.52 58.136 0.664 7.82 1.62 9.48
10/25/2021 8:15:00 PM 14.51 58.118 0.663 7.81 1.32 9.39
10/25/2021 8:30:00 PM 14.51 58.118 0.661 7.8 1.34 9.32
10/25/2021 8:45:00 PM 14.51 58.118 0.66 7.81 1.72 9.25
10/25/2021 9:00:00 PM 14.5 58.1 0.659 7.8 1.62 9.19
10/25/2021 9:15:00 PM 14.49 58.082 0.658 7.8 1.8 9.14
10/25/2021 9:30:00 PM 14.48 58.064 0.658 7.81 1.47 9.08
10/25/2021 9:45:00 PM 14.48 58.064 0.658 7.81 2.23 9.02
10/25/2021 10:00:00 PM 14.48 58.064 0.657 7.8 1.89 8.99
10/25/2021 10:15:00 PM 14.48 58.064 0.655 7.79 3.24 8.93
10/25/2021 10:30:00 PM 14.48 58.064 0.654 7.8 2 8.9
10/25/2021 10:45:00 PM 14.48 58.064 0.652 7.8 2.48 8.85
10/25/2021 11:00:00 PM 14.49 58.082 0.65 7.79 2.35 8.83
10/25/2021 11:15:00 PM 14.49 58.082 0.649 7.78 2.93 8.79
10/25/2021 11:30:00 PM 14.49 58.082 0.648 7.78 3.25 8.74
10/25/2021 11:45:00 PM 14.49 58.082 0.648 7.76 4.46 8.68
10/26/2021 12:00:00 AM 14.5 58.1 0.648 7.76 3.52 8.61
10/26/2021 12:15:00 AM 14.5 58.1 0.649 7.74 6.22 8.56
10/26/2021 12:30:00 AM 14.5 58.1 0.648 7.75 3.64 8.51
10/26/2021 12:45:00 AM 14.5 58.1 0.648 7.74 3.65 8.48
10/26/2021 1:00:00 AM 14.49 58.082 0.648 7.73 4.44 8.44
10/26/2021 1:15:00 AM 14.49 58.082 0.648 7.73 4.33 8.4
10/26/2021 1:30:00 AM 14.49 58.082 0.647 7.73 4.53 8.37
10/26/2021 1:45:00 AM 14.49 58.082 0.647 7.72 3.44 8.35
10/26/2021 2:00:00 AM 14.49 58.082 0.647 7.71 4.9 8.32
10/26/2021 2:15:00 AM 14.49 58.082 0.646 7.71 4.03 8.29
10/26/2021 2:30:00 AM 14.5 58.1 0.645 7.72 4.71 8.27
10/26/2021 2:45:00 AM 14.51 58.118 0.642 7.71 4.57 8.22
10/26/2021 3:00:00 AM 14.53 58.154 0.639 7.71 5.48 8.18
10/26/2021 3:15:00 AM 14.54 58.172 0.636 7.71 6.1 8.16
10/26/2021 3:30:00 AM 14.55 58.19 0.632 7.69 12.72 8.14
10/26/2021 3:45:00 AM 14.56 58.208 0.625 7.69 11.65 8.11
10/26/2021 4:00:00 AM 14.57 58.226 0.62 7.68 7.66 8.12
10/26/2021 4:15:00 AM 14.56 58.208 0.617 7.67 9.62 8.11
10/26/2021 4:30:00 AM 14.56 58.208 0.618 7.67 12.39 8.12
10/26/2021 4:45:00 AM 14.55 58.19 0.625 7.66 19.68 8.12
10/26/2021 5:00:00 AM 14.56 58.208 0.632 7.67 15.01 8.12
10/26/2021 5:15:00 AM 14.58 58.244 0.637 7.66 15.17 8.11
10/26/2021 5:30:00 AM 14.62 58.316 0.638 7.66 11.8 8.1
10/26/2021 5:45:00 AM 14.69 58.442 0.636 7.67 12.48 8.08
10/26/2021 6:00:00 AM 14.75 58.55 0.633 7.67 13.8 8.05
10/26/2021 6:15:00 AM 14.81 58.658 0.632 7.66 8.9 8.02
10/26/2021 6:30:00 AM 14.86 58.748 0.631 7.67 9.14 7.99
10/26/2021 6:45:00 AM 14.89 58.802 0.63 7.66 8.31 7.98
10/26/2021 7:00:00 AM 14.91 58.838 0.626 7.67 9.94 7.95
10/26/2021 7:15:00 AM 14.92 58.856 0.62 7.66 10.35 7.93
10/26/2021 7:30:00 AM 14.92 58.856 0.61 7.65 8.5 7.87
10/26/2021 7:45:00 AM 14.9 58.82 0.597 7.65 7.98 7.86
10/26/2021 8:00:00 AM 14.89 58.802 0.584 7.63 6.89 7.85
10/26/2021 8:15:00 AM 14.88 58.784 0.57 7.62 9.41 7.85
10/26/2021 8:30:00 AM 14.87 58.766 0.558 7.62 7.12 7.86
10/26/2021 8:45:00 AM 14.87 58.766 0.548 7.62 7.49 7.89
10/26/2021 9:00:00 AM 14.87 58.766 0.539 7.61 6.47 7.95
10/26/2021 9:15:00 AM 14.87 58.766 0.532 7.61 6.04 7.99
10/26/2021 9:30:00 AM 14.87 58.766 0.525 7.61 6.25 8.01
10/26/2021 9:45:00 AM 14.88 58.784 0.518 7.61 5.46 8.05
10/26/2021 10:00:00 AM 14.9 58.82 0.512 7.6 5.16 8.12
10/26/2021 10:15:00 AM 14.93 58.874 0.506 7.61 6.81 8.26
10/26/2021 10:30:00 AM 14.94 58.892 0.502 7.61 5.36 8.36
10/26/2021 10:45:00 AM 14.95 58.91 0.499 7.61 4.49 8.47
10/26/2021 11:00:00 AM 14.96 58.928 0.497 7.61 5.54 8.57
10/26/2021 11:15:00 AM 14.99 58.982 0.496 7.62 4.16 8.73
10/26/2021 11:30:00 AM 15 59 0.496 7.62 4.7 8.87
10/26/2021 11:45:00 AM 14.98 58.964 0.497 7.63 4.02 8.86
10/26/2021 12:00:00 PM 14.95 58.91 0.499 7.63 4.32 8.81
10/26/2021 12:15:00 PM 14.93 58.874 0.5 7.62 4.2 8.76
10/26/2021 12:30:00 PM 14.91 58.838 0.503 7.63 3.55 8.77
10/26/2021 12:45:00 PM 14.88 58.784 0.505 7.63 3.5 8.76
10/26/2021 1:00:00 PM 14.86 58.748 0.508 7.63 3.95 8.76
10/26/2021 1:15:00 PM 14.85 58.73 0.511 7.62 4.2 8.85
10/26/2021 1:30:00 PM 14.85 58.73 0.513 7.64 3.15 8.99
10/26/2021 1:45:00 PM 14.83 58.694 0.515 7.61 3.35 9.11
10/26/2021 2:00:00 PM 14.8 58.64 0.519 7.63 3.41 9.16
10/26/2021 2:15:00 PM 14.75 58.55 0.524 7.66 2.99 9.21
10/26/2021 2:30:00 PM 14.71 58.478 0.528 7.65 3.28 9.24
10/26/2021 2:45:00 PM 14.65 58.37 0.532 7.63 5.09 9.24
10/26/2021 3:00:00 PM 14.61 58.298 0.535 7.68 4.05 9.25
10/26/2021 3:15:00 PM 14.57 58.226 0.538 7.67 3.52 9.22
10/26/2021 3:30:00 PM 14.54 58.172 0.54 7.67 3.57 9.22
10/26/2021 3:45:00 PM 14.5 58.1 0.543 7.68 3.64 9.21
10/26/2021 4:00:00 PM 14.45 58.01 0.545 7.66 2.99 9.17
10/26/2021 4:15:00 PM 14.42 57.956 0.547 7.68 5.88 9.14
10/26/2021 4:30:00 PM 14.38 57.884 0.549 7.71 5.39 9.1
10/26/2021 4:45:00 PM 14.34 57.812 0.551 7.72 3.63 9.07
10/26/2021 5:00:00 PM 14.3 57.74 0.554 7.73 3.26 9.06
10/26/2021 5:15:00 PM 14.26 57.668 0.556 7.74 2.92 9
10/26/2021 5:30:00 PM 14.23 57.614 0.558 7.73 3.61 8.97
10/26/2021 5:45:00 PM 14.19 57.542 0.561 7.73 3 8.93
10/26/2021 6:00:00 PM 14.15 57.47 0.563 7.7 3.83 8.89
10/26/2021 6:15:00 PM 14.1 57.38 0.566 7.7 2.98 8.84
10/26/2021 6:30:00 PM 14.06 57.308 0.57 7.7 3.71 8.8
10/26/2021 6:45:00 PM 14.02 57.236 0.573 7.7 3.33 8.77
10/26/2021 7:00:00 PM 13.98 57.164 0.576 7.69 4.55 8.76
10/26/2021 7:15:00 PM 13.93 57.074 0.58 7.67 2.97 8.74
10/26/2021 7:30:00 PM 13.89 57.002 0.583 7.68 5.07 8.72
10/26/2021 7:45:00 PM 13.84 56.912 0.587 7.69 3.6 8.72
10/26/2021 8:00:00 PM 13.8 56.84 0.59 7.69 3.96 8.7
10/26/2021 8:15:00 PM 13.76 56.768 0.592 7.7 3.45 8.7
10/26/2021 8:30:00 PM 13.72 56.696 0.595 7.7 3.4 8.68
10/26/2021 8:45:00 PM 13.68 56.624 0.598 7.68 3.89 8.68
10/26/2021 9:00:00 PM 13.65 56.57 0.601 7.68 3.97 8.66
10/26/2021 9:15:00 PM 13.6 56.48 0.603 7.67 3.79 8.66
10/26/2021 9:30:00 PM 13.56 56.408 0.605 7.68 3.08 8.65
10/26/2021 9:45:00 PM 13.52 56.336 0.606 7.68 2.88 8.65
10/26/2021 10:00:00 PM 13.49 56.282 0.607 7.68 4.08 8.63
10/26/2021 10:15:00 PM 13.46 56.228 0.609 7.68 5.43 8.64
10/26/2021 10:30:00 PM 13.44 56.192 0.61 7.68 3.45 8.63
10/26/2021 10:45:00 PM 13.41 56.138 0.61 7.67 5.94 8.63
10/26/2021 11:00:00 PM 13.39 56.102 0.611 7.68 5.9 8.63
10/26/2021 11:15:00 PM 13.37 56.066 0.612 7.67 3.78 8.62
10/26/2021 11:30:00 PM 13.36 56.048 0.612 7.69 4.88 8.61
10/26/2021 11:45:00 PM 13.34 56.012 0.613 7.68 4.11 8.61
10/27/2021 12:00:00 AM 13.33 55.994 0.613 7.68 3.95 8.62
10/27/2021 12:15:00 AM 13.32 55.976 0.615 7.68 8.12 8.62
10/27/2021 12:30:00 AM 13.31 55.958 0.615 7.68 3.83 8.61
10/27/2021 12:45:00 AM 13.3 55.94 0.616 7.68 3.69 8.62
10/27/2021 1:00:00 AM 13.29 55.922 0.618 7.68 3.3 8.61
10/27/2021 1:15:00 AM 13.29 55.922 0.618 7.67 4.87 8.62
10/27/2021 1:30:00 AM 13.28 55.904 0.619 7.67 5.22 8.62
10/27/2021 1:45:00 AM 13.27 55.886 0.62 7.68 3.61 8.62
10/27/2021 2:00:00 AM 13.27 55.886 0.621 7.68 4.1 8.63
10/27/2021 2:15:00 AM 13.26 55.868 0.621 7.68 3.3 8.63
10/27/2021 2:30:00 AM 13.24 55.832 0.622 7.68 5.07 8.65
10/27/2021 2:45:00 AM 13.23 55.814 0.622 7.66 3.28 8.65
10/27/2021 3:00:00 AM 13.23 55.814 0.623 7.67 4.23 8.65
10/27/2021 3:15:00 AM 13.22 55.796 0.625 7.68 4.1 8.65
10/27/2021 3:30:00 AM 13.22 55.796 0.625 7.68 3.78 8.67
10/27/2021 3:45:00 AM 13.22 55.796 0.626 7.68 3.26 8.66
10/27/2021 4:00:00 AM 13.21 55.778 0.627 7.68 4.82 8.68
10/27/2021 4:15:00 AM 13.2 55.76 0.628 7.68 3.56 8.69
10/27/2021 4:30:00 AM 13.19 55.742 0.629 7.68 3.53 8.69
10/27/2021 4:45:00 AM 13.18 55.724 0.63 7.68 4.76 8.71
10/27/2021 5:00:00 AM 13.17 55.706 0.631 7.68 3.36 8.72
10/27/2021 5:15:00 AM 13.16 55.688 0.632 7.68 3.4 8.73
10/27/2021 5:30:00 AM 13.15 55.67 0.633 7.68 6.04 8.74
10/27/2021 5:45:00 AM 13.15 55.67 0.633 7.68 3.32 8.75
10/27/2021 6:00:00 AM 13.14 55.652 0.634 7.68 3.13 8.75
10/27/2021 6:15:00 AM 13.13 55.634 0.635 7.69 3.5 8.76
10/27/2021 6:30:00 AM 13.12 55.616 0.635 7.68 3.36 8.77
10/27/2021 6:45:00 AM 13.12 55.616 0.635 7.68 4.07 8.76
10/27/2021 7:00:00 AM 13.11 55.598 0.635 7.69 3.64 8.77
10/27/2021 7:15:00 AM 13.11 55.598 0.635 7.69 7.04 8.76
10/27/2021 7:30:00 AM 13.11 55.598 0.635 7.68 2.62 8.77
10/27/2021 7:45:00 AM 13.1 55.58 0.635 7.69 3.22 8.77
10/27/2021 8:00:00 AM 13.1 55.58 0.635 7.69 3.08 8.8
10/27/2021 8:15:00 AM 13.11 55.598 0.635 7.69 2.5 8.83
10/27/2021 8:30:00 AM 13.11 55.598 0.634 7.69 2.84 8.87
10/27/2021 8:45:00 AM 13.12 55.616 0.634 7.69 2.9 8.9
10/27/2021 9:00:00 AM 13.14 55.652 0.635 7.69 2.46 8.99
10/27/2021 9:15:00 AM 13.16 55.688 0.635 7.7 2.08 9.08
10/27/2021 9:30:00 AM 13.17 55.706 0.635 7.69 1.91 9.15
10/27/2021 9:45:00 AM 13.19 55.742 0.635 7.7 2.76 9.23
10/27/2021 10:00:00 AM 13.2 55.76 0.635 7.7 1.94 9.28
10/27/2021 10:15:00 AM 13.21 55.778 0.635 7.71 1.73 9.32
10/27/2021 10:30:00 AM 13.22 55.796 0.635 7.72 1.57 9.41
10/27/2021 10:45:00 AM 13.25 55.85 0.635 7.71 1.74 9.53
10/27/2021 11:00:00 AM 13.27 55.886 0.635 7.72 1.56 9.64
10/27/2021 11:15:00 AM 13.32 55.976 0.635 7.74 3.83 9.81
10/27/2021 11:30:00 AM 13.4 56.12 0.635 7.73 1.94 10.02
10/27/2021 11:45:00 AM 13.52 56.336 0.635 7.75 1.66 10.27
10/27/2021 12:00:00 PM 13.66 56.588 0.632 -0.04 104.6 -99999.99
10/27/2021 12:15:00 PM 13.8 56.84 0.631 -0.45 106.9 -99999.99
10/27/2021 12:30:00 PM 13.94 57.092 0.631 0.37 108.3 -99999.99
10/27/2021 12:45:00 PM 14.07 57.326 0.63 -0.31 109.9 -99999.99
10/27/2021 1:00:00 PM 14.17 57.506 0.63 -0.28 111.2 -99999.99
10/27/2021 1:15:00 PM 14.27 57.686 0.629 -0.26 112 -99999.99
10/27/2021 1:30:00 PM 14.35 57.83 0.629 -0.11 112.6 -99999.99
10/27/2021 1:45:00 PM 14.41 57.938 0.629 -0.02 113.2 -99999.99
10/27/2021 2:00:00 PM 14.45 58.01 0.628 0.02 113.6 -99999.99
10/27/2021 2:15:00 PM 14.48 58.064 0.628 0.99 113.5 -99999.99
10/27/2021 2:30:00 PM 14.51 58.118 0.628 -0.16 113.7 -99999.99
10/27/2021 2:45:00 PM 14.53 58.154 0.628 0.57 113.6 -99999.99
10/27/2021 3:00:00 PM 14.54 58.172 0.629 0 113.3 -99999.99
10/27/2021 3:15:00 PM 14.53 58.154 0.629 -0.09 113 -99999.99
10/27/2021 3:30:00 PM 14.53 58.154 0.63 0.13 112.5 -99999.99
10/27/2021 3:45:00 PM 14.52 58.136 0.63 -0.08 111.8 -99999.99
10/27/2021 4:00:00 PM 14.5 58.1 0.631 -0.12 111.2 -99999.99
10/27/2021 4:15:00 PM 14.49 58.082 0.631 0.31 110.5 -99999.99
10/27/2021 4:30:00 PM 14.47 58.046 0.632 -0.14 109.5 -99999.99
10/27/2021 4:45:00 PM 14.44 57.992 0.633 0.08 108.4 -99999.99
10/27/2021 5:00:00 PM 14.41 57.938 0.633 0.09 107.1 -99999.99
10/27/2021 5:15:00 PM 14.38 57.884 0.634 -0.15 105.8 -99999.99
10/27/2021 5:30:00 PM 14.35 57.83 0.634 -0.13 104.2 -99999.99
10/27/2021 5:45:00 PM 14.31 57.758 0.635 0 102.7 -99999.99
10/27/2021 6:00:00 PM 14.28 57.704 0.637 -0.33 101.1 -99999.99
10/27/2021 6:15:00 PM 14.25 57.65 0.638 -0.33 99.6 -99999.99
10/27/2021 6:30:00 PM 14.22 57.596 0.639 -0.11 98 -99999.99
10/27/2021 6:45:00 PM 14.19 57.542 0.64 -0.29 96.6 -99999.99
10/27/2021 7:00:00 PM 14.16 57.488 0.64 0.02 95.6 -99999.99
10/27/2021 7:15:00 PM 14.13 57.434 0.641 0.16 94.8 -99999.99
10/27/2021 7:30:00 PM 14.1 57.38 0.641 0.15 93.9 -99999.99
10/27/2021 7:45:00 PM 14.06 57.308 0.641 0.11 93.3 -99999.99
10/27/2021 8:00:00 PM 14.02 57.236 0.642 0.4 92.4 -99999.99
10/27/2021 8:15:00 PM 13.97 57.146 0.642 1.32 91.9 -99999.99
10/27/2021 8:30:00 PM 13.93 57.074 0.642 0.09 91.4 -99999.99
10/27/2021 8:45:00 PM 13.89 57.002 0.643 -0.22 90.7 -99999.99
10/27/2021 9:00:00 PM 13.85 56.93 0.643 0.12 90.3 -99999.99
10/27/2021 9:15:00 PM 13.81 56.858 0.643 0.45 90 -99999.99
10/27/2021 9:30:00 PM 13.76 56.768 0.644 0.72 89.6 -99999.99
10/27/2021 9:45:00 PM 13.73 56.714 0.644 0.92 89.2 -99999.99
10/27/2021 10:00:00 PM 13.7 56.66 0.644 -0.01 88.7 -99999.99
10/27/2021 10:15:00 PM 13.67 56.606 0.645 -0.15 88.5 -99999.99
10/27/2021 10:30:00 PM 13.64 56.552 0.645 2.58 88.2 -99999.99
10/27/2021 10:45:00 PM 13.61 56.498 0.646 0.3 87.9 -99999.99
10/27/2021 11:00:00 PM 13.59 56.462 0.646 0.95 87.6 -99999.99
10/27/2021 11:15:00 PM 13.57 56.426 0.646 0.37 87.4 -99999.99
10/27/2021 11:30:00 PM 13.55 56.39 0.647 0.5 87.1 -99999.99
10/27/2021 11:45:00 PM 13.53 56.354 0.647 6.27 87 -99999.99
10/28/2021 12:00:00 AM 13.5 56.3 0.648 0.01 86.8 -99999.99
10/28/2021 12:15:00 AM 13.48 56.264 0.648 0.78 86.6 -99999.99
10/28/2021 12:30:00 AM 13.45 56.21 0.648 0.37 86.5 -99999.99
10/28/2021 12:45:00 AM 13.42 56.156 0.648 1.18 86.2 -99999.99
10/28/2021 1:00:00 AM 13.39 56.102 0.649 0.73 86 -99999.99
10/28/2021 1:15:00 AM 13.37 56.066 0.649 0.25 85.9 -99999.99
10/28/2021 1:30:00 AM 13.34 56.012 0.649 0.02 85.9 -99999.99
10/28/2021 1:45:00 AM 13.31 55.958 0.649 0.41 85.7 -99999.99
10/28/2021 2:00:00 AM 13.28 55.904 0.649 0.05 85.7 -99999.99
10/28/2021 2:15:00 AM 13.26 55.868 0.649 0.48 85.6 -99999.99
10/28/2021 2:30:00 AM 13.23 55.814 0.649 0.33 85.5 -99999.99
10/28/2021 2:45:00 AM 13.21 55.778 0.649 0.17 85.5 -99999.99
10/28/2021 3:00:00 AM 13.18 55.724 0.649 1.03 85.5 -99999.99
10/28/2021 3:15:00 AM 13.15 55.67 0.649 1.12 85.5 -99999.99
10/28/2021 3:30:00 AM 13.12 55.616 0.649 0.06 85.4 -99999.99
10/28/2021 3:45:00 AM 13.09 55.562 0.649 1.18 85.4 -99999.99
10/28/2021 4:00:00 AM 13.05 55.49 0.649 0.14 85.4 -99999.99
10/28/2021 4:15:00 AM 13.01 55.418 0.65 0.39 85.4 -99999.99
10/28/2021 4:30:00 AM 12.97 55.346 0.65 0.58 85.4 -99999.99
10/28/2021 4:45:00 AM 12.94 55.292 0.65 2.81 85.4 -99999.99
10/28/2021 5:00:00 AM 12.9 55.22 0.65 0.64 85.3 -99999.99
10/28/2021 5:15:00 AM 12.86 55.148 0.65 0.28 85.4 -99999.99
10/28/2021 5:30:00 AM 12.83 55.094 0.65 0.86 85.3 -99999.99
10/28/2021 5:45:00 AM 12.79 55.022 0.65 0.84 85.3 -99999.99
10/28/2021 6:00:00 AM 12.75 54.95 0.65 1.51 85.5 -99999.99
10/28/2021 6:15:00 AM 12.72 54.896 0.65 0.34 85.4 -99999.99
10/28/2021 6:30:00 AM 12.69 54.842 0.651 0.36 85.6 -99999.99
10/28/2021 6:45:00 AM 12.66 54.788 0.651 0.43 85.5 -99999.99
10/28/2021 7:00:00 AM 12.63 54.734 0.651 0.39 85.5 -99999.99
10/28/2021 7:15:00 AM 12.59 54.662 0.651 0.17 85.4 -99999.99
10/28/2021 7:30:00 AM 12.56 54.608 0.651 0.04 85.5 -99999.99
10/28/2021 7:45:00 AM 12.53 54.554 0.651 0.1 85.7 -99999.99
10/28/2021 8:00:00 AM 12.5 54.5 0.651 0.26 85.8 -99999.99
10/28/2021 8:15:00 AM 12.47 54.446 0.651 0.38 86 -99999.99
10/28/2021 8:30:00 AM 12.45 54.41 0.651 0.23 86.6 -99999.99
10/28/2021 8:45:00 AM 12.43 54.374 0.651 0.69 87.2 -99999.99
10/28/2021 9:00:00 AM 12.41 54.338 0.651 -0.08 87.9 -99999.99
10/28/2021 9:15:00 AM 12.41 54.338 0.651 -0.21 88.6 -99999.99
10/28/2021 9:30:00 AM 12.42 54.356 0.651 -0.21 89.9 -99999.99
10/28/2021 9:45:00 AM 12.44 54.392 0.65 0.09 91.1 -99999.99
10/28/2021 10:00:00 AM 12.48 54.464 0.65 -0.32 92.7 -99999.99
10/28/2021 10:15:00 AM 12.53 54.554 0.65 -0.4 94.5 -99999.99
10/28/2021 10:30:00 AM 12.59 54.662 0.65 0.13 96.2 -99999.99
10/28/2021 10:45:00 AM 12.65 54.77 0.65 -0.17 98 -99999.99
10/28/2021 11:00:00 AM 12.72 54.896 0.65 -0.45 99.6 -99999.99
10/28/2021 11:15:00 AM 12.81 55.058 0.65 -0.3 101.3 -99999.99
10/28/2021 11:30:00 AM 12.89 55.202 0.649 -0.2 102.9 -99999.99
10/28/2021 11:45:00 AM 12.98 55.364 0.649 -0.42 104.6 -99999.99
10/28/2021 12:00:00 PM 13.08 55.544 0.649 -0.09 106.1 -99999.99
10/28/2021 12:15:00 PM 13.18 55.724 0.649 -0.52 108 -99999.99
10/28/2021 12:30:00 PM 13.26 55.868 0.649 -0.51 109.1 -99999.99
10/28/2021 12:45:00 PM 13.35 56.03 0.649 -0.57 110.5 -99999.99
10/28/2021 1:00:00 PM 13.44 56.192 0.649 -0.32 111.6 -99999.99
10/28/2021 1:15:00 PM 13.51 56.318 0.649 -0.34 112.8 -99999.99
10/28/2021 1:30:00 PM 13.57 56.426 0.649 -0.13 113.5 -99999.99
10/28/2021 1:45:00 PM 13.63 56.534 0.649 -0.53 113.9 -99999.99
10/28/2021 2:00:00 PM 13.67 56.606 0.649 -0.38 114.5 -99999.99
10/28/2021 2:15:00 PM 13.7 56.66 0.649 -0.51 115 -99999.99
10/28/2021 2:30:00 PM 13.71 56.678 0.649 -0.59 115.2 -99999.99
10/28/2021 2:45:00 PM 13.72 56.696 0.649 -0.65 115.6 -99999.99
10/28/2021 3:00:00 PM 13.71 56.678 0.649 -0.59 115.4 -99999.99
10/28/2021 3:15:00 PM 13.71 56.678 0.65 -0.56 115.3 -99999.99
10/28/2021 3:30:00 PM 13.7 56.66 0.65 -0.48 115.1 -99999.99
10/28/2021 3:45:00 PM 13.7 56.66 0.65 -0.62 114.7 -99999.99
10/28/2021 4:00:00 PM 13.67 56.606 0.65 -0.44 114.1 -99999.99
10/28/2021 4:15:00 PM 13.64 56.552 0.65 -0.58 112.8 -99999.99
10/28/2021 4:30:00 PM 13.64 56.552 0.65 -0.7 111.3 -99999.99
10/28/2021 4:45:00 PM 13.63 56.534 0.651 -0.48 110.5 -99999.99
10/28/2021 5:00:00 PM 13.63 56.534 0.651 -0.27 109.1 -99999.99
10/28/2021 5:15:00 PM 13.63 56.534 0.651 -0.57 108.4 -99999.99
10/28/2021 5:30:00 PM 13.64 56.552 0.651 -0.55 107.8 -99999.99
10/28/2021 5:45:00 PM 13.64 56.552 0.652 -0.52 106.8 -99999.99
10/28/2021 6:00:00 PM 13.63 56.534 0.652 -0.56 105.4 -99999.99
10/28/2021 6:15:00 PM 13.62 56.516 0.652 -0.57 104.3 -99999.99
10/28/2021 6:30:00 PM 13.6 56.48 0.653 -0.37 102.7 -99999.99
10/28/2021 6:45:00 PM 13.56 56.408 0.653 -0.47 101.1 -99999.99
10/28/2021 7:00:00 PM 13.53 56.354 0.653 -0.02 99.5 -99999.99
10/28/2021 7:15:00 PM 13.5 56.3 0.653 -0.24 98.2 -99999.99
10/28/2021 7:30:00 PM 13.47 56.246 0.653 0.07 97.3 -99999.99
10/28/2021 7:45:00 PM 13.44 56.192 0.653 -0.35 96.2 -99999.99
10/28/2021 8:00:00 PM 13.41 56.138 0.653 -0.05 95.4 -99999.99
10/28/2021 8:15:00 PM 13.38 56.084 0.654 0.03 94.5 -99999.99
10/28/2021 8:30:00 PM 13.36 56.048 0.654 -0.03 93.9 -99999.99
10/28/2021 8:45:00 PM 13.34 56.012 0.654 -0.01 93.3 -99999.99
10/28/2021 9:00:00 PM 13.33 55.994 0.654 1.09 92.6 -99999.99
10/28/2021 9:15:00 PM 13.32 55.976 0.654 -0.05 92.3 -99999.99
10/28/2021 9:30:00 PM 13.32 55.976 0.654 0.42 91.9 -99999.99
10/28/2021 9:45:00 PM 13.33 55.994 0.654 0.01 91.6 -99999.99
10/28/2021 10:00:00 PM 13.33 55.994 0.654 0.21 91.2 -99999.99
10/28/2021 10:15:00 PM 13.34 56.012 0.654 -0.12 90.8 -99999.99
10/28/2021 10:30:00 PM 13.34 56.012 0.654 -0.06 90.4 -99999.99
10/28/2021 10:45:00 PM 13.35 56.03 0.654 0.17 90 -99999.99
10/28/2021 11:00:00 PM 13.35 56.03 0.654 0.24 89.8 -99999.99
10/28/2021 11:15:00 PM 13.35 56.03 0.654 0.09 89.5 -99999.99
10/28/2021 11:30:00 PM 13.35 56.03 0.655 1.23 89 -99999.99
10/28/2021 11:45:00 PM 13.36 56.048 0.655 0.41 88.8 -99999.99
10/29/2021 12:00:00 AM 13.36 56.048 0.655 0.02 88.4 -99999.99
10/29/2021 12:15:00 AM 13.37 56.066 0.655 0.19 88.3 -99999.99
10/29/2021 12:30:00 AM 13.37 56.066 0.655 0.2 88 -99999.99
10/29/2021 12:45:00 AM 13.37 56.066 0.655 0.06 87.9 -99999.99
10/29/2021 1:00:00 AM 13.37 56.066 0.655 0.2 87.6 -99999.99
10/29/2021 1:15:00 AM 13.37 56.066 0.655 0.06 87.5 -99999.99
10/29/2021 1:30:00 AM 13.37 56.066 0.656 -0.01 87.1 -99999.99
10/29/2021 1:45:00 AM 13.36 56.048 0.656 0.01 86.8 -99999.99
10/29/2021 2:00:00 AM 13.36 56.048 0.656 0.24 86.8 -99999.99
10/29/2021 2:15:00 AM 13.35 56.03 0.656 0.13 86.7 -99999.99
10/29/2021 2:30:00 AM 13.35 56.03 0.656 0.96 86.5 -99999.99
10/29/2021 2:45:00 AM 13.34 56.012 0.656 -0.04 86.5 -99999.99
10/29/2021 3:00:00 AM 13.33 55.994 0.656 0.02 86.3 -99999.99
10/29/2021 3:15:00 AM 13.31 55.958 0.657 0.32 86.3 -99999.99
10/29/2021 3:30:00 AM 13.3 55.94 0.657 0.03 86.2 -99999.99
10/29/2021 3:45:00 AM 13.29 55.922 0.657 0.29 86.2 -99999.99
10/29/2021 4:00:00 AM 13.27 55.886 0.657 1.17 86.3 -99999.99
10/29/2021 4:15:00 AM 13.26 55.868 0.657 0.36 86.1 -99999.99
10/29/2021 4:30:00 AM 13.24 55.832 0.657 0.25 86.1 -99999.99
10/29/2021 4:45:00 AM 13.23 55.814 0.657 0.54 86.1 -99999.99
10/29/2021 5:00:00 AM 13.21 55.778 0.657 0 86.1 -99999.99
10/29/2021 5:15:00 AM 13.19 55.742 0.657 0.58 85.9 -99999.99
10/29/2021 5:30:00 AM 13.16 55.688 0.657 0.36 85.9 -99999.99
10/29/2021 5:45:00 AM 13.15 55.67 0.658 0.16 85.9 -99999.99
10/29/2021 6:00:00 AM 13.13 55.634 0.658 0.61 85.9 -99999.99
10/29/2021 6:15:00 AM 13.11 55.598 0.657 0.36 85.8 -99999.99
10/29/2021 6:30:00 AM 13.1 55.58 0.657 0.54 85.7 -99999.99
10/29/2021 6:45:00 AM 13.08 55.544 0.657 0.16 85.8 -99999.99
10/29/2021 7:00:00 AM 13.06 55.508 0.656 0.63 85.9 -99999.99
10/29/2021 7:15:00 AM 13.05 55.49 0.656 0.21 85.9 -99999.99
10/29/2021 7:30:00 AM 13.02 55.436 0.656 0.8 85.8 -99999.99
10/29/2021 7:45:00 AM 13 55.4 0.656 0.32 85.7 -99999.99
10/29/2021 8:00:00 AM 12.99 55.382 0.656 0.19 85.6 -99999.99
10/29/2021 8:15:00 AM 12.97 55.346 0.657 0.35 85.9 -99999.99
10/29/2021 8:30:00 AM 12.96 55.328 0.657 -0.07 86.1 -99999.99
10/29/2021 8:45:00 AM 12.96 55.328 0.657 -0.13 86.6 -99999.99
10/29/2021 9:00:00 AM 12.95 55.31 0.657 -0.2 87.3 -99999.99
10/29/2021 9:15:00 AM 12.95 55.31 0.657 -0.06 88.2 -99999.99
10/29/2021 9:30:00 AM 12.95 55.31 0.657 -0.35 89.3 -99999.99
10/29/2021 9:45:00 AM 12.96 55.328 0.657 -0.28 90.9 -99999.99
10/29/2021 10:00:00 AM 12.99 55.382 0.657 -0.26 92.7 -99999.99
10/29/2021 10:15:00 AM 13 55.4 0.657 -0.47 94 -99999.99
10/29/2021 10:30:00 AM 13.01 55.418 0.657 -0.4 95 -99999.99
10/29/2021 10:45:00 AM 13.02 55.436 0.657 -0.51 96.1 -99999.99
10/29/2021 11:00:00 AM 13.02 55.436 0.657 -0.3 96.7 -99999.99
10/29/2021 11:15:00 AM 13.02 55.436 0.657 -0.39 97.6 -99999.99
10/29/2021 11:30:00 AM 13.03 55.454 0.657 -0.25 98.2 -99999.99
10/29/2021 11:45:00 AM 13.04 55.472 0.657 -0.26 99.2 -99999.99
10/29/2021 12:00:00 PM 13.04 55.472 0.657 -0.49 99.8 -99999.99
10/29/2021 12:15:00 PM 13.03 55.454 0.657 -0.54 100 -99999.99
10/29/2021 12:30:00 PM 13.01 55.418 0.657 -0.62 99.9 -99999.99
10/29/2021 12:45:00 PM 12.99 55.382 0.657 -0.53 99.5 -99999.99
10/29/2021 1:00:00 PM 12.99 55.382 0.657 -0.44 99.6 -99999.99
10/29/2021 1:15:00 PM 12.99 55.382 0.657 -0.46 99.5 -99999.99
10/29/2021 1:30:00 PM 13 55.4 0.658 -0.57 100 -99999.99
10/29/2021 1:45:00 PM 13.02 55.436 0.658 -0.63 100.4 -99999.99
10/29/2021 2:00:00 PM 13.03 55.454 0.658 -0.55 100.8 -99999.99
10/29/2021 2:15:00 PM 13.04 55.472 0.659 -0.55 100.7 -99999.99
10/29/2021 2:30:00 PM 13.04 55.472 0.658 -0.5 100.5 -99999.99
10/29/2021 2:45:00 PM 13.04 55.472 0.658 0.1 100.2 -99999.99
10/29/2021 3:00:00 PM 13.04 55.472 0.658 -0.5 100.6 -99999.99
10/29/2021 3:15:00 PM 13.03 55.454 0.657 -0.37 100.4 -99999.99
10/29/2021 3:30:00 PM 13.02 55.436 0.657 -0.48 99.4 -99999.99
10/29/2021 3:45:00 PM 13.01 55.418 0.656 -0.3 99 -99999.99
10/29/2021 4:00:00 PM 12.99 55.382 0.655 -0.39 98.1 -99999.99
10/29/2021 4:15:00 PM 12.97 55.346 0.653 -0.15 97.6 -99999.99
10/29/2021 4:30:00 PM 12.94 55.292 0.65 -0.39 96.8 -99999.99
10/29/2021 4:45:00 PM 12.9 55.22 0.644 -0.06 96.5 -99999.99
10/29/2021 5:00:00 PM 12.87 55.166 0.638 0.68 95.9 -99999.99
10/29/2021 5:15:00 PM 12.85 55.13 0.633 2.19 95.3 -99999.99
10/29/2021 5:30:00 PM 12.84 55.112 0.629 4.66 94.8 -99999.99
10/29/2021 5:45:00 PM 12.83 55.094 0.623 14.05 93.8 -99999.99
10/29/2021 6:00:00 PM 12.82 55.076 0.617 21.55 93.1 -99999.99
10/29/2021 6:15:00 PM 12.8 55.04 0.612 23.38 92.2 -99999.99
10/29/2021 6:30:00 PM 12.78 55.004 0.603 22.92 91.5 -99999.99
10/29/2021 6:45:00 PM 12.76 54.968 0.595 16.69 90.7 -99999.99
10/29/2021 7:00:00 PM 12.76 54.968 0.592 15.9 90.2 -99999.99
10/29/2021 7:15:00 PM 12.76 54.968 0.592 12.86 89.8 -99999.99
10/29/2021 7:30:00 PM 12.76 54.968 0.592 10 89.5 -99999.99
10/29/2021 7:45:00 PM 12.75 54.95 0.59 8.95 89.2 -99999.99
10/29/2021 8:00:00 PM 12.73 54.914 0.588 9.6 88.9 -99999.99
10/29/2021 8:15:00 PM 12.71 54.878 0.587 10.85 88.7 -99999.99
10/29/2021 8:30:00 PM 12.7 54.86 0.587 11.1 88.5 -99999.99
10/29/2021 8:45:00 PM 12.68 54.824 0.587 11.03 88.2 -99999.99
10/29/2021 9:00:00 PM 12.67 54.806 0.587 11.35 87.8 -99999.99
10/29/2021 9:15:00 PM 12.66 54.788 0.583 12.24 87.8 -99999.99
10/29/2021 9:30:00 PM 12.64 54.752 0.575 14.86 87.4 -99999.99
10/29/2021 9:45:00 PM 12.62 54.716 0.558 15.22 87.4 -99999.99
10/29/2021 10:00:00 PM 12.6 54.68 0.537 18.28 87.4 -99999.99
10/29/2021 10:15:00 PM 12.57 54.626 0.524 24.2 87 -99999.99
10/29/2021 10:30:00 PM 12.56 54.608 0.525 33.9 86.9 -99999.99
10/29/2021 10:45:00 PM 12.57 54.626 0.539 32.74 86.6 -99999.99
10/29/2021 11:00:00 PM 12.62 54.716 0.55 50.98 86.3 -99999.99
10/29/2021 11:15:00 PM 12.66 54.788 0.544 36.67 86.2 -99999.99
10/29/2021 11:30:00 PM 12.7 54.86 0.528 41.52 86 -99999.99
10/29/2021 11:45:00 PM 12.74 54.932 0.521 51.33 85.8 -99999.99
10/30/2021 12:00:00 AM 12.77 54.986 0.516 56.85 85.9 -99999.99
10/30/2021 12:15:00 AM 12.76 54.968 0.494 51.02 85.4 -99999.99
10/30/2021 12:30:00 AM 12.72 54.896 0.453 52.32 85 -99999.99
10/30/2021 12:45:00 AM 12.66 54.788 0.412 49.08 84.6 -99999.99
10/30/2021 1:00:00 AM 12.6 54.68 0.378 54.64 84.3 -99999.99
10/30/2021 1:15:00 AM 12.54 54.572 0.354 44.16 84.4 -99999.99
10/30/2021 1:30:00 AM 12.49 54.482 0.337 39.6 84.2 -99999.99
10/30/2021 1:45:00 AM 12.45 54.41 0.327 42.91 84.2 -99999.99
10/30/2021 2:00:00 AM 12.41 54.338 0.322 44.19 84.3 -99999.99
10/30/2021 2:15:00 AM 12.39 54.302 0.321 41.66 84.4 -99999.99
10/30/2021 2:30:00 AM 12.39 54.302 0.323 41.66 84.3 -99999.99
10/30/2021 2:45:00 AM 12.39 54.302 0.326 44.93 84.4 -99999.99
10/30/2021 3:00:00 AM 12.38 54.284 0.329 49.52 84.1 -99999.99
10/30/2021 3:15:00 AM 12.38 54.284 0.332 54.5 84.1 -99999.99
10/30/2021 3:30:00 AM 12.39 54.302 0.336 53.71 83.8 -99999.99
10/30/2021 3:45:00 AM 12.4 54.32 0.34 51.6 83.7 -99999.99
10/30/2021 4:00:00 AM 12.42 54.356 0.343 51.24 83.7 -99999.99
10/30/2021 4:15:00 AM 12.44 54.392 0.345 54.46 83.5 -99999.99
10/30/2021 4:30:00 AM 12.45 54.41 0.346 49.06 83.4 -99999.99
10/30/2021 4:45:00 AM 12.46 54.428 0.346 48.65 83.3 -99999.99
10/30/2021 5:00:00 AM 12.46 54.428 0.346 44.54 82.9 -99999.99
10/30/2021 5:15:00 AM 12.45 54.41 0.346 48.39 82.9 -99999.99
10/30/2021 5:30:00 AM 12.44 54.392 0.346 40.54 82.8 -99999.99
10/30/2021 5:45:00 AM 12.43 54.374 0.346 33.63 82.6 -99999.99
10/30/2021 6:00:00 AM 12.42 54.356 0.348 36.36 82.8 -99999.99
10/30/2021 6:15:00 AM 12.41 54.338 0.352 34.12 82.7 -99999.99
10/30/2021 6:30:00 AM 12.41 54.338 0.357 38 82.6 -99999.99
10/30/2021 6:45:00 AM 12.41 54.338 0.363 30.39 82.6 -99999.99
10/30/2021 7:00:00 AM 12.42 54.356 0.369 30.53 82.6 -99999.99
10/30/2021 7:15:00 AM 12.43 54.374 0.376 32.12 82.6 -99999.99
10/30/2021 7:30:00 AM 12.44 54.392 0.383 28.43 82.6 -99999.99
10/30/2021 7:45:00 AM 12.45 54.41 0.39 28.74 82.5 -99999.99
10/30/2021 8:00:00 AM 12.47 54.446 0.396 30.79 82.4 -99999.99
10/30/2021 8:15:00 AM 12.5 54.5 0.405 26.04 82.5 -99999.99
10/30/2021 8:30:00 AM 12.54 54.572 0.418 25.15 82.8 -99999.99
10/30/2021 8:45:00 AM 12.58 54.644 0.427 28.04 82.9 -99999.99
10/30/2021 9:00:00 AM 12.61 54.698 0.434 23.39 82.9 -99999.99
10/30/2021 9:15:00 AM 12.64 54.752 0.44 20.23 82.9 -99999.99
10/30/2021 9:30:00 AM 12.67 54.806 0.448 26.05 83.3 -99999.99
10/30/2021 9:45:00 AM 12.7 54.86 0.456 24.74 83.8 -99999.99
10/30/2021 10:00:00 AM 12.73 54.914 0.461 22.25 84.1 -99999.99
10/30/2021 10:15:00 AM 12.75 54.95 0.466 25.2 84.3 -99999.99
10/30/2021 10:30:00 AM 12.78 55.004 0.47 20.23 84.5 -99999.99
10/30/2021 10:45:00 AM 12.8 55.04 0.475 21.28 84.5 -99999.99
10/30/2021 11:00:00 AM 12.82 55.076 0.478 21.19 84.9 -99999.99
10/30/2021 11:15:00 AM 12.85 55.13 0.482 21.81 84.9 -99999.99
10/30/2021 11:30:00 AM 12.89 55.202 0.486 19.24 85.2 -99999.99
10/30/2021 11:45:00 AM 12.94 55.292 0.489 18.33 85.4 -99999.99
10/30/2021 12:00:00 PM 12.99 55.382 0.493 18.83 86.1 -99999.99
10/30/2021 12:15:00 PM 13.03 55.454 0.496 18.99 86.4 -99999.99
10/30/2021 12:30:00 PM 13.09 55.562 0.499 18.26 86.7 -99999.99
10/30/2021 12:45:00 PM 13.13 55.634 0.5 16.25 87.2 -99999.99
10/30/2021 1:00:00 PM 13.18 55.724 0.497 14.86 87.7 -99999.99
10/30/2021 1:15:00 PM 13.24 55.832 0.494 18.81 88.2 -99999.99
10/30/2021 1:30:00 PM 13.35 56.03 0.494 16.31 89 -99999.99
10/30/2021 1:45:00 PM 13.44 56.192 0.496 15.26 89.7 -99999.99
10/30/2021 2:00:00 PM 13.47 56.246 0.498 17.38 90 -99999.99
10/30/2021 2:15:00 PM 13.54 56.372 0.501 15.84 90.5 -99999.99
10/30/2021 2:30:00 PM 13.6 56.48 0.503 14.98 90.8 -99999.99
10/30/2021 2:45:00 PM 13.64 56.552 0.505 13.49 91.1 -99999.99
10/30/2021 3:00:00 PM 13.67 56.606 0.507 15.88 91.2 -99999.99
10/30/2021 3:15:00 PM 13.67 56.606 0.508 18.04 91.1 -99999.99
10/30/2021 3:30:00 PM 13.66 56.588 0.509 15.04 90.9 -99999.99
10/30/2021 3:45:00 PM 13.67 56.606 0.511 16.42 90.6 -99999.99
10/30/2021 4:00:00 PM 13.67 56.606 0.513 14.87 90.6 -99999.99
10/30/2021 4:15:00 PM 13.71 56.678 0.515 15.2 90.9 -99999.99
10/30/2021 4:30:00 PM 13.74 56.732 0.517 16.23 91 -99999.99
10/30/2021 4:45:00 PM 13.76 56.768 0.519 12.86 91.1 -99999.99
10/30/2021 5:00:00 PM 13.77 56.786 0.522 18.02 90.9 -99999.99
10/30/2021 5:15:00 PM 13.77 56.786 0.524 21.24 90.5 -99999.99
10/30/2021 5:30:00 PM 13.76 56.768 0.527 13.47 90.3 -99999.99
10/30/2021 5:45:00 PM 13.75 56.75 0.529 12.48 90.1 -99999.99
10/30/2021 6:00:00 PM 13.74 56.732 0.532 11.79 89.6 -99999.99
10/30/2021 6:15:00 PM 13.73 56.714 0.534 11.42 89.3 -99999.99
10/30/2021 6:30:00 PM 13.73 56.714 0.535 14.31 89 -99999.99
10/30/2021 6:45:00 PM 13.73 56.714 0.536 12.28 88.6 -99999.99
10/30/2021 7:00:00 PM 13.72 56.696 0.534 11.91 88.3 -99999.99
10/30/2021 7:15:00 PM 13.71 56.678 0.532 11.56 88 -99999.99
10/30/2021 7:30:00 PM 13.69 56.642 0.53 12.81 87.6 -99999.99
10/30/2021 7:45:00 PM 13.67 56.606 0.527 10.85 87.5 -99999.99
10/30/2021 8:00:00 PM 13.65 56.57 0.525 10.1 87.2 -99999.99
10/30/2021 8:15:00 PM 13.63 56.534 0.524 13.42 87 -99999.99
10/30/2021 8:30:00 PM 13.6 56.48 0.523 10.39 86.6 -99999.99
10/30/2021 8:45:00 PM 13.58 56.444 0.522 11.2 86.4 -99999.99
10/30/2021 9:00:00 PM 13.57 56.426 0.521 12.34 86.4 -99999.99
10/30/2021 9:15:00 PM 13.56 56.408 0.52 11.89 86.2 -99999.99
10/30/2021 9:30:00 PM 13.54 56.372 0.519 10.64 86 -99999.99
10/30/2021 9:45:00 PM 13.53 56.354 0.518 10.06 86 -99999.99
10/30/2021 10:00:00 PM 13.51 56.318 0.518 11.22 85.7 -99999.99
10/30/2021 10:15:00 PM 13.5 56.3 0.519 10.48 85.7 -99999.99
10/30/2021 10:30:00 PM 13.49 56.282 0.52 10.31 85.4 -99999.99
10/30/2021 10:45:00 PM 13.47 56.246 0.523 10.34 85.5 -99999.99
10/30/2021 11:00:00 PM 13.46 56.228 0.525 9.41 85.5 -99999.99
10/30/2021 11:15:00 PM 13.43 56.174 0.529 10.26 85.3 -99999.99
10/30/2021 11:30:00 PM 13.41 56.138 0.532 10.41 85.2 -99999.99
10/30/2021 11:45:00 PM 13.38 56.084 0.536 9.22 85.2 -99999.99
10/31/2021 12:00:00 AM 13.35 56.03 0.54 8.96 85.2 -99999.99
10/31/2021 12:15:00 AM 13.33 55.994 0.543 10.63 85.2 -99999.99
10/31/2021 12:30:00 AM 13.3 55.94 0.547 8.27 85.1 -99999.99
10/31/2021 12:45:00 AM 13.27 55.886 0.55 10.23 85.2 -99999.99
10/31/2021 1:00:00 AM 13.25 55.85 0.553 7.99 85.2 -99999.99
10/31/2021 1:15:00 AM 13.22 55.796 0.556 8.42 85.1 -99999.99
10/31/2021 1:30:00 AM 13.2 55.76 0.558 8.05 85.2 -99999.99
10/31/2021 1:45:00 AM 13.17 55.706 0.561 8.81 85 -99999.99
10/31/2021 2:00:00 AM 13.14 55.652 0.564 12.32 85 -99999.99
10/31/2021 2:15:00 AM 13.1 55.58 0.566 8.76 85.1 -99999.99
10/31/2021 2:30:00 AM 13.07 55.526 0.569 9.12 85.2 -99999.99
10/31/2021 2:45:00 AM 13.03 55.454 0.571 8.28 85.1 -99999.99
10/31/2021 3:00:00 AM 13 55.4 0.573 7.81 85.1 -99999.99
10/31/2021 3:15:00 AM 12.97 55.346 0.575 7.55 85.1 -99999.99
10/31/2021 3:30:00 AM 12.93 55.274 0.577 7.82 85.1 -99999.99
10/31/2021 3:45:00 AM 12.9 55.22 0.579 8.1 85.2 -99999.99
10/31/2021 4:00:00 AM 12.86 55.148 0.581 9.29 85.2 -99999.99
10/31/2021 4:15:00 AM 12.83 55.094 0.583 7.7 85.1 -99999.99
10/31/2021 4:30:00 AM 12.79 55.022 0.584 9.1 85.3 -99999.99
10/31/2021 4:45:00 AM 12.77 54.986 0.585 8.6 85.3 -99999.99
10/31/2021 5:00:00 AM 12.75 54.95 0.587 7.63 85.2 -99999.99
10/31/2021 5:15:00 AM 12.72 54.896 0.588 8.35 85.5 -99999.99
10/31/2021 5:30:00 AM 12.7 54.86 0.589 9.41 85.4 -99999.99
10/31/2021 5:45:00 AM 12.67 54.806 0.589 7.15 85.6 -99999.99
10/31/2021 6:00:00 AM 12.65 54.77 0.59 7.37 85.6 -99999.99
10/31/2021 6:15:00 AM 12.65 54.77 0.591 8.89 85.8 -99999.99
10/31/2021 6:30:00 AM 12.65 54.77 0.593 8.92 86 -99999.99
10/31/2021 6:45:00 AM 12.65 54.77 0.6 6.28 86.2 -99999.99
10/31/2021 7:00:00 AM 12.65 54.77 0.605 8.28 86.3 -99999.99
10/31/2021 7:15:00 AM 12.65 54.77 0.608 6.04 86.2 -99999.99
10/31/2021 7:30:00 AM 12.65 54.77 0.609 6.77 86.3 -99999.99
10/31/2021 7:45:00 AM 12.66 54.788 0.611 6.98 86.5 -99999.99
10/31/2021 8:00:00 AM 12.66 54.788 0.611 5.56 86.6 -99999.99
10/31/2021 8:15:00 AM 12.66 54.788 0.612 5.44 86.8 -99999.99
10/31/2021 8:30:00 AM 12.67 54.806 0.613 7.38 87 -99999.99
10/31/2021 8:45:00 AM 12.68 54.824 0.613 5.59 87.4 -99999.99
10/31/2021 9:00:00 AM 12.69 54.842 0.614 4.61 87.5 -99999.99
10/31/2021 9:15:00 AM 12.71 54.878 0.614 4.67 88.2 -99999.99
10/31/2021 9:30:00 AM 12.71 54.878 0.615 4.44 88.5 -99999.99
10/31/2021 9:45:00 AM 12.73 54.914 0.615 4.49 88.9 -99999.99
10/31/2021 10:00:00 AM 12.73 54.914 0.615 4.13 89.4 -99999.99
10/31/2021 10:15:00 AM 12.75 54.95 0.616 4.23 89.8 -99999.99
10/31/2021 10:30:00 AM 12.78 55.004 0.615 3.26 90.5 -99999.99
10/31/2021 10:45:00 AM 12.79 55.022 0.614 10.39 91.2 -99999.99
10/31/2021 11:00:00 AM 12.81 55.058 0.609 3.27 92.2 -99999.99
10/31/2021 11:15:00 AM 12.84 55.112 0.605 3.24 93.3 -99999.99
10/31/2021 11:30:00 AM 12.86 55.148 0.603 2.98 93.8 -99999.99
10/31/2021 11:45:00 AM 12.9 55.22 0.602 3.44 94.6 -99999.99
10/31/2021 12:00:00 PM 12.94 55.292 0.602 4.14 95.2 -99999.99
10/31/2021 12:15:00 PM 12.99 55.382 0.602 2.94 96 -99999.99
10/31/2021 12:30:00 PM 13.05 55.49 0.602 3.15 96.9 -99999.99
10/31/2021 12:45:00 PM 13.12 55.616 0.603 2.69 97.8 -99999.99
10/31/2021 1:00:00 PM 13.19 55.742 0.603 3.09 98.7 -99999.99
10/31/2021 1:15:00 PM 13.29 55.922 0.604 3.25 99.5 -99999.99
10/31/2021 1:30:00 PM 13.39 56.102 0.604 2.8 100.5 -99999.99
10/31/2021 1:45:00 PM 13.45 56.21 0.604 4.01 101 -99999.99
10/31/2021 2:00:00 PM 13.48 56.264 0.605 2.41 101 -99999.99
10/31/2021 2:15:00 PM 13.53 56.354 0.605 2.68 101.4 -99999.99
10/31/2021 2:30:00 PM 13.56 56.408 0.605 2.76 101.6 -99999.99
10/31/2021 2:45:00 PM 13.57 56.426 0.606 2.78 101.9 -99999.99
10/31/2021 3:00:00 PM 13.59 56.462 0.606 2.74 101.8 -99999.99
10/31/2021 3:15:00 PM 13.58 56.444 0.606 2.65 101.8 -99999.99
10/31/2021 3:30:00 PM 13.59 56.462 0.606 3.03 101.7 -99999.99
10/31/2021 3:45:00 PM 13.6 56.48 0.606 3.69 101.7 -99999.99
10/31/2021 4:00:00 PM 13.6 56.48 0.607 2.53 101.7 -99999.99
10/31/2021 4:15:00 PM 13.59 56.462 0.607 2.88 101.3 -99999.99
10/31/2021 4:30:00 PM 13.58 56.444 0.608 3.02 100.7 -99999.99
10/31/2021 4:45:00 PM 13.59 56.462 0.609 2.35 100.5 -99999.99
10/31/2021 5:00:00 PM 13.58 56.444 0.609 2.39 99.6 -99999.99
10/31/2021 5:15:00 PM 13.56 56.408 0.61 4.19 98.8 -99999.99
10/31/2021 5:30:00 PM 13.54 56.372 0.61 7.18 98.2 -99999.99
10/31/2021 5:45:00 PM 13.51 56.318 0.611 2.84 97.7 -99999.99
10/31/2021 6:00:00 PM 13.48 56.264 0.611 4.43 96.6 -99999.99
10/31/2021 6:15:00 PM 13.46 56.228 0.611 3.26 96 -99999.99
10/31/2021 6:30:00 PM 13.44 56.192 0.612 3.63 95.2 -99999.99
10/31/2021 6:45:00 PM 13.43 56.174 0.612 3.61 94.6 -99999.99
10/31/2021 7:00:00 PM 13.41 56.138 0.612 5.17 94 -99999.99
10/31/2021 7:15:00 PM 13.38 56.084 0.613 3.38 93.6 -99999.99
10/31/2021 7:30:00 PM 13.36 56.048 0.613 3.6 93.1 -99999.99
10/31/2021 7:45:00 PM 13.34 56.012 0.613 3.69 92.7 -99999.99
10/31/2021 8:00:00 PM 13.32 55.976 0.614 8.28 92.4 -99999.99
10/31/2021 8:15:00 PM 13.31 55.958 0.614 3.72 92 -99999.99
10/31/2021 8:30:00 PM 13.29 55.922 0.614 5.44 91.8 -99999.99
10/31/2021 8:45:00 PM 13.27 55.886 0.615 4.1 91.4 -99999.99
10/31/2021 9:00:00 PM 13.26 55.868 0.615 5.47 91.1 -99999.99
10/31/2021 9:15:00 PM 13.24 55.832 0.615 3.95 90.8 -99999.99
10/31/2021 9:30:00 PM 13.22 55.796 0.616 4.85 90.5 -99999.99
10/31/2021 9:45:00 PM 13.21 55.778 0.616 3.89 90.2 -99999.99
10/31/2021 10:00:00 PM 13.2 55.76 0.616 7.54 89.8 -99999.99
10/31/2021 10:15:00 PM 13.18 55.724 0.617 4.95 89.7 -99999.99
10/31/2021 10:30:00 PM 13.16 55.688 0.617 5.12 89.4 -99999.99
10/31/2021 10:45:00 PM 13.15 55.67 0.617 4.41 89.2 -99999.99
10/31/2021 11:00:00 PM 13.13 55.634 0.617 7.26 89 -99999.99
10/31/2021 11:15:00 PM 13.12 55.616 0.618 4.51 88.8 -99999.99
10/31/2021 11:30:00 PM 13.1 55.58 0.618 5.06 88.7 -99999.99
10/31/2021 11:45:00 PM 13.09 55.562 0.618 5.54 88.5 -99999.99
11/1/2021 12:00:00 AM 13.07 55.526 0.618 4.17 88.4 -99999.99
11/1/2021 12:15:00 AM 13.06 55.508 0.618 5.55 88.2 -99999.99
11/1/2021 12:30:00 AM 13.04 55.472 0.619 4.77 88 -99999.99
11/1/2021 12:45:00 AM 13.02 55.436 0.619 3.98 88 -99999.99
11/1/2021 1:00:00 AM 13 55.4 0.619 5.04 87.9 -99999.99
11/1/2021 1:15:00 AM 12.97 55.346 0.619 4.03 87.8 -99999.99
11/1/2021 1:30:00 AM 12.95 55.31 0.619 5.55 87.7 -99999.99
11/1/2021 1:45:00 AM 12.92 55.256 0.62 3.97 87.7 -99999.99
11/1/2021 2:00:00 AM 12.9 55.22 0.62 4.26 87.5 -99999.99
11/1/2021 2:15:00 AM 12.87 55.166 0.62 4.21 87.4 -99999.99
11/1/2021 2:30:00 AM 12.85 55.13 0.62 5.16 87.5 -99999.99
11/1/2021 2:45:00 AM 12.83 55.094 0.621 4.85 87.4 -99999.99
11/1/2021 3:00:00 AM 12.8 55.04 0.621 4.73 87.5 -99999.99
11/1/2021 3:15:00 AM 12.77 54.986 0.621 5.76 87.5 -99999.99
11/1/2021 3:30:00 AM 12.74 54.932 0.622 4.35 87.5 -99999.99
11/1/2021 3:45:00 AM 12.72 54.896 0.622 7.24 87.4 -99999.99
11/1/2021 4:00:00 AM 12.69 54.842 0.622 5.25 87.4 -99999.99
11/1/2021 4:15:00 AM 12.66 54.788 0.622 5.96 87.3 -99999.99
11/1/2021 4:30:00 AM 12.63 54.734 0.622 4.69 87.3 -99999.99
11/1/2021 4:45:00 AM 12.6 54.68 0.622 5.25 87.4 -99999.99
11/1/2021 5:00:00 AM 12.57 54.626 0.622 5.46 87.3 -99999.99
11/1/2021 5:15:00 AM 12.54 54.572 0.622 4.99 87.5 -99999.99
11/1/2021 5:30:00 AM 12.52 54.536 0.623 4 87.4 -99999.99
11/1/2021 5:45:00 AM 12.49 54.482 0.623 4.68 87.2 -99999.99
11/1/2021 6:00:00 AM 12.46 54.428 0.624 5.96 87.1 -99999.99
11/1/2021 6:15:00 AM 12.42 54.356 0.624 8.17 86.9 -99999.99
11/1/2021 6:30:00 AM 12.38 54.284 0.624 4.83 86.9 -99999.99
11/1/2021 6:45:00 AM 12.35 54.23 0.624 5.06 87 -99999.99
11/1/2021 7:00:00 AM 12.31 54.158 0.624 6.39 87.1 -99999.99
11/1/2021 7:15:00 AM 12.29 54.122 0.624 5.93 87.2 -99999.99
11/1/2021 7:30:00 AM 12.27 54.086 0.624 5.46 87.2 -99999.99
11/1/2021 7:45:00 AM 12.25 54.05 0.624 4.1 87.6 -99999.99
11/1/2021 8:00:00 AM 12.24 54.032 0.624 3.49 87.8 -99999.99
11/1/2021 8:15:00 AM 12.21 53.978 0.624 4.9 88.1 -99999.99
11/1/2021 8:30:00 AM 12.2 53.96 0.624 5.02 88.5 -99999.99
11/1/2021 8:45:00 AM 12.18 53.924 0.624 3.27 88.8 -99999.99
11/1/2021 9:00:00 AM 12.17 53.906 0.624 3.82 89.2 -99999.99
11/1/2021 9:15:00 AM 12.15 53.87 0.625 3.7 89.7 -99999.99
11/1/2021 9:30:00 AM 12.14 53.852 0.625 2.92 90.3 -99999.99
11/1/2021 9:45:00 AM 12.13 53.834 0.625 2.96 91.1 -99999.99
11/1/2021 10:00:00 AM 12.14 53.852 0.625 2.77 92.1 -99999.99
11/1/2021 10:15:00 AM 12.16 53.888 0.625 2.43 92.9 -99999.99
11/1/2021 10:30:00 AM 12.19 53.942 0.625 3.22 93.8 -99999.99
11/1/2021 10:45:00 AM 12.23 54.014 0.625 3.51 94.7 -99999.99
11/1/2021 11:00:00 AM 12.26 54.068 0.625 2.23 95.7 -99999.99
11/1/2021 11:15:00 AM 12.31 54.158 0.626 2.47 96.7 -99999.99
11/1/2021 11:30:00 AM 12.37 54.266 0.626 2.64 97.6 -99999.99
11/1/2021 11:45:00 AM 12.43 54.374 0.626 2.2 98.5 -99999.99
11/1/2021 12:00:00 PM 12.49 54.482 0.626 2.14 99.4 -99999.99
11/1/2021 12:15:00 PM 12.56 54.608 0.626 2.12 100.2 -99999.99
11/1/2021 12:30:00 PM 12.61 54.698 0.626 2.29 101 -99999.99
11/1/2021 12:45:00 PM 12.66 54.788 0.626 2.13 101.8 -99999.99
11/1/2021 1:00:00 PM 12.71 54.878 0.627 2.16 102.5 -99999.99
11/1/2021 1:15:00 PM 12.77 54.986 0.627 1.94 103.1 -99999.99
11/1/2021 1:30:00 PM 12.81 55.058 0.627 2.03 103.7 -99999.99
11/1/2021 1:45:00 PM 12.85 55.13 0.627 2.33 104 -99999.99
11/1/2021 2:00:00 PM 12.87 55.166 0.627 2.09 104.4 -99999.99
11/1/2021 2:15:00 PM 12.88 55.184 0.627 2.56 104.5 -99999.99
11/1/2021 2:30:00 PM 12.9 55.22 0.628 2.44 104.8 -99999.99
11/1/2021 2:45:00 PM 12.9 55.22 0.628 2.93 104.8 -99999.99
11/1/2021 3:00:00 PM 12.9 55.22 0.628 2.19 104.9 -99999.99
11/1/2021 3:15:00 PM 12.9 55.22 0.628 2.03 104.8 -99999.99
11/1/2021 3:30:00 PM 12.87 55.166 0.629 2.23 104.7 -99999.99
11/1/2021 3:45:00 PM 12.88 55.184 0.629 2.38 104.6 -99999.99
11/1/2021 4:00:00 PM 12.87 55.166 0.629 1.98 104.4 -99999.99
11/1/2021 4:15:00 PM 12.86 55.148 0.629 3.61 104.1 -99999.99
11/1/2021 4:30:00 PM 12.84 55.112 0.63 2.16 103.7 -99999.99
11/1/2021 4:45:00 PM 12.83 55.094 0.63 2.17 103 -99999.99
11/1/2021 5:00:00 PM 12.8 55.04 0.63 3.42 102.3 -99999.99
11/1/2021 5:15:00 PM 12.77 54.986 0.63 2.42 101.5 -99999.99
11/1/2021 5:30:00 PM 12.75 54.95 0.63 2.02 100.7 -99999.99
11/1/2021 5:45:00 PM 12.73 54.914 0.631 2.55 99.7 -99999.99
11/1/2021 6:00:00 PM 12.7 54.86 0.631 3.5 98.9 -99999.99
11/1/2021 6:15:00 PM 12.67 54.806 0.631 2.03 98 -99999.99
11/1/2021 6:30:00 PM 12.63 54.734 0.631 3.35 97.2 -99999.99
11/1/2021 6:45:00 PM 12.6 54.68 0.632 3.55 96.4 -99999.99
11/1/2021 7:00:00 PM 12.55 54.59 0.633 2.49 95.7 -99999.99
11/1/2021 7:15:00 PM 12.51 54.518 0.634 4.21 94.9 -99999.99
11/1/2021 7:30:00 PM 12.48 54.464 0.635 2.43 94.5 -99999.99
11/1/2021 7:45:00 PM 12.44 54.392 0.635 3.36 93.8 -99999.99
11/1/2021 8:00:00 PM 12.41 54.338 0.636 2.82 93.4 -99999.99
11/1/2021 8:15:00 PM 12.38 54.284 0.636 3.25 92.9 -99999.99
11/1/2021 8:30:00 PM 12.35 54.23 0.636 2.79 92.6 -99999.99
11/1/2021 8:45:00 PM 12.31 54.158 0.637 3.36 92 -99999.99
11/1/2021 9:00:00 PM 12.28 54.104 0.637 4.42 91.8 -99999.99
11/1/2021 9:15:00 PM 12.25 54.05 0.637 5.14 91.6 -99999.99
11/1/2021 9:30:00 PM 12.23 54.014 0.637 9.82 91.3 -99999.99
11/1/2021 9:45:00 PM 12.21 53.978 0.638 3.41 91.2 -99999.99
11/1/2021 10:00:00 PM 12.19 53.942 0.638 3.4 90.8 -99999.99
11/1/2021 10:15:00 PM 12.17 53.906 0.638 3.31 90.5 -99999.99
11/1/2021 10:30:00 PM 12.14 53.852 0.638 3.18 90.2 -99999.99
11/1/2021 10:45:00 PM 12.12 53.816 0.638 3.57 90.2 -99999.99
11/1/2021 11:00:00 PM 12.09 53.762 0.638 3.24 89.9 -99999.99
11/1/2021 11:15:00 PM 12.06 53.708 0.639 2.72 89.9 -99999.99
11/1/2021 11:30:00 PM 12.03 53.654 0.639 3.55 89.5 -99999.99
11/1/2021 11:45:00 PM 12 53.6 0.639 3.08 89.5 -99999.99
11/2/2021 12:00:00 AM 11.96 53.528 0.639 2.89 89.3 -99999.99
11/2/2021 12:15:00 AM 11.93 53.474 0.639 3.88 89.1 -99999.99
11/2/2021 12:30:00 AM 11.89 53.402 0.64 3.3 89.1 -99999.99
11/2/2021 12:45:00 AM 11.86 53.348 0.64 5.72 88.8 -99999.99
11/2/2021 1:00:00 AM 11.82 53.276 0.64 2.96 88.8 -99999.99
11/2/2021 1:15:00 AM 11.79 53.222 0.64 3.67 88.7 -99999.99
11/2/2021 1:30:00 AM 11.77 53.186 0.64 4.37 88.7 -99999.99
11/2/2021 1:45:00 AM 11.75 53.15 0.64 5.44 88.5 -99999.99
11/2/2021 2:00:00 AM 11.73 53.114 0.64 3.06 88.5 -99999.99
11/2/2021 2:15:00 AM 11.72 53.096 0.641 2.92 88.5 -99999.99
11/2/2021 2:30:00 AM 11.71 53.078 0.64 4.08 88.5 -99999.99
11/2/2021 2:45:00 AM 11.69 53.042 0.641 3.84 88.4 -99999.99
11/2/2021 3:00:00 AM 11.68 53.024 0.641 6.23 88.4 -99999.99
11/2/2021 3:15:00 AM 11.67 53.006 0.641 8.26 88.4 -99999.99
11/2/2021 3:30:00 AM 11.66 52.988 0.641 2.89 88.3 -99999.99
11/2/2021 3:45:00 AM 11.65 52.97 0.641 4.22 88.4 -99999.99
11/2/2021 4:00:00 AM 11.63 52.934 0.641 5.72 88.3 -99999.99
11/2/2021 4:15:00 AM 11.62 52.916 0.642 3.44 88.2 -99999.99
11/2/2021 4:30:00 AM 11.62 52.916 0.642 3.69 88.3 -99999.99
11/2/2021 4:45:00 AM 11.6 52.88 0.641 3.2 88.5 -99999.99
11/2/2021 5:00:00 AM 11.58 52.844 0.641 3.32 88.3 -99999.99
11/2/2021 5:15:00 AM 11.57 52.826 0.641 3.02 88.3 -99999.99
11/2/2021 5:30:00 AM 11.56 52.808 0.641 3.16 88.3 -99999.99
11/2/2021 5:45:00 AM 11.54 52.772 0.641 3.22 88.2 -99999.99
11/2/2021 6:00:00 AM 11.52 52.736 0.641 4.08 88.2 -99999.99
11/2/2021 6:15:00 AM 11.51 52.718 0.641 4.07 88.2 -99999.99
11/2/2021 6:30:00 AM 11.5 52.7 0.641 3.35 88.1 -99999.99
11/2/2021 6:45:00 AM 11.49 52.682 0.641 3.14 88.1 -99999.99
11/2/2021 7:00:00 AM 11.48 52.664 0.641 3.92 88.2 -99999.99
11/2/2021 7:15:00 AM 11.48 52.664 0.641 4.34 88.2 -99999.99
11/2/2021 7:30:00 AM 11.47 52.646 0.641 5.07 87.9 -99999.99
11/2/2021 7:45:00 AM 11.46 52.628 0.641 3.46 88.1 -99999.99
11/2/2021 8:00:00 AM 11.46 52.628 0.641 3.94 88 -99999.99
11/2/2021 8:15:00 AM 11.45 52.61 0.641 4.13 88.1 -99999.99
11/2/2021 8:30:00 AM 11.46 52.628 0.641 3.52 88.5 -99999.99
11/2/2021 8:45:00 AM 11.46 52.628 0.641 4.09 88.6 -99999.99
11/2/2021 9:00:00 AM 11.46 52.628 0.641 3.47 88.9 -99999.99
11/2/2021 9:15:00 AM 11.47 52.646 0.641 2.97 89.4 -99999.99
11/2/2021 9:30:00 AM 11.49 52.682 0.641 2.52 90 -99999.99
11/2/2021 9:45:00 AM 11.5 52.7 0.641 2.61 90.8 -99999.99
11/2/2021 10:00:00 AM 11.52 52.736 0.641 2.3 91.4 -99999.99
11/2/2021 10:15:00 AM 11.54 52.772 0.641 2.51 92.1 -99999.99
11/2/2021 10:30:00 AM 11.55 52.79 0.641 2.55 92.7 -99999.99
11/2/2021 10:45:00 AM 11.57 52.826 0.641 2.16 93.5 -99999.99
11/2/2021 11:00:00 AM 11.59 52.862 0.641 2.47 94.3 -99999.99
11/2/2021 11:15:00 AM 11.61 52.898 0.64 2.04 95.2 -99999.99
11/2/2021 11:30:00 AM 11.62 52.916 0.64 2.15 96 -99999.99
11/2/2021 11:45:00 AM 11.65 52.97 0.64 2.23 96.9 -99999.99
11/2/2021 12:00:00 PM 11.68 53.024 0.64 2.05 98 -99999.99
11/2/2021 12:15:00 PM 11.7 53.06 0.639 1.89 99.1 -99999.99
11/2/2021 12:30:00 PM 11.72 53.096 0.639 1.8 99.9 -99999.99
11/2/2021 12:45:00 PM 11.74 53.132 0.638 1.86 100.7 -99999.99
11/2/2021 1:00:00 PM 11.76 53.168 0.638 1.82 101.5 -99999.99
11/2/2021 1:15:00 PM 11.78 53.204 0.638 1.81 102.2 -99999.99
11/2/2021 1:30:00 PM 11.8 53.24 0.638 1.92 102.8 -99999.99
11/2/2021 1:45:00 PM 11.82 53.276 0.638 1.87 103.3 -99999.99
11/2/2021 2:00:00 PM 11.85 53.33 0.638 2 103.8 -99999.99
11/2/2021 2:15:00 PM 11.86 53.348 0.638 1.82 104.4 -99999.99
11/2/2021 2:30:00 PM 11.87 53.366 0.638 1.88 104.6 -99999.99
11/2/2021 2:45:00 PM 11.87 53.366 0.638 1.86 104.6 -99999.99
11/2/2021 3:00:00 PM 11.87 53.366 0.638 1.74 104.5 -99999.99
11/2/2021 3:15:00 PM 11.87 53.366 0.638 1.83 104.3 -99999.99
11/2/2021 3:30:00 PM 11.86 53.348 0.638 1.81 104.5 -99999.99
11/2/2021 3:45:00 PM 11.87 53.366 0.638 1.82 104.8 -99999.99
11/2/2021 4:00:00 PM 11.87 53.366 0.638 2.39 104.7 -99999.99
11/2/2021 4:15:00 PM 11.88 53.384 0.638 1.73 104.9 -99999.99
11/2/2021 4:30:00 PM 11.88 53.384 0.638 1.87 104.5 -99999.99
11/2/2021 4:45:00 PM 11.87 53.366 0.638 2.88 104 -99999.99
11/2/2021 5:00:00 PM 11.87 53.366 0.638 2.01 103.5 -99999.99
11/2/2021 5:15:00 PM 11.87 53.366 0.638 2.14 102.8 -99999.99
11/2/2021 5:30:00 PM 11.88 53.384 0.637 2.42 102.2 -99999.99
11/2/2021 5:45:00 PM 11.87 53.366 0.637 2.21 101.4 -99999.99
11/2/2021 6:00:00 PM 11.86 53.348 0.637 2.64 100.7 -99999.99
11/2/2021 6:15:00 PM 11.84 53.312 0.637 2.69 100 -99999.99
11/2/2021 6:30:00 PM 11.81 53.258 0.637 2.62 98.9 -99999.99
11/2/2021 6:45:00 PM 11.78 53.204 0.637 4.15 98.1 -99999.99
11/2/2021 7:00:00 PM 11.75 53.15 0.637 2.93 97.5 -99999.99
11/2/2021 7:15:00 PM 11.72 53.096 0.637 3.24 96.8 -99999.99
11/2/2021 7:30:00 PM 11.69 53.042 0.638 4.34 96.4 -99999.99
11/2/2021 7:45:00 PM 11.66 52.988 0.638 3.02 95.9 -99999.99
11/2/2021 8:00:00 PM 11.63 52.934 0.638 3.19 95.3 -99999.99
11/2/2021 8:15:00 PM 11.61 52.898 0.638 3.09 95 -99999.99
11/2/2021 8:30:00 PM 11.59 52.862 0.639 4.62 94.5 -99999.99
11/2/2021 8:45:00 PM 11.56 52.808 0.639 4.49 94.1 -99999.99
11/2/2021 9:00:00 PM 11.55 52.79 0.639 4.3 93.8 -99999.99
11/2/2021 9:15:00 PM 11.52 52.736 0.639 3.41 93.5 -99999.99
11/2/2021 9:30:00 PM 11.5 52.7 0.64 3.49 93 -99999.99
11/2/2021 9:45:00 PM 11.48 52.664 0.64 3.65 92.9 -99999.99
11/2/2021 10:00:00 PM 11.45 52.61 0.64 3.75 92.5 -99999.99
11/2/2021 10:15:00 PM 11.43 52.574 0.641 3.49 92.3 -99999.99
11/2/2021 10:30:00 PM 11.4 52.52 0.641 3.79 92.1 -99999.99
11/2/2021 10:45:00 PM 11.37 52.466 0.641 3.46 92.1 -99999.99
11/2/2021 11:00:00 PM 11.33 52.394 0.641 3.5 91.8 -99999.99
11/2/2021 11:15:00 PM 11.3 52.34 0.642 6.16 91.7 -99999.99
11/2/2021 11:30:00 PM 11.27 52.286 0.642 4.82 91.5 -99999.99
11/2/2021 11:45:00 PM 11.23 52.214 0.642 4.38 91.3 -99999.99
11/3/2021 12:00:00 AM 11.2 52.16 0.643 4.14 91.1 -99999.99
11/3/2021 12:15:00 AM 11.17 52.106 0.643 3.96 91.1 -99999.99
11/3/2021 12:30:00 AM 11.14 52.052 0.643 3.67 90.9 -99999.99
11/3/2021 12:45:00 AM 11.11 51.998 0.644 4.1 90.7 -99999.99
11/3/2021 1:00:00 AM 11.07 51.926 0.644 3.88 90.8 -99999.99
11/3/2021 1:15:00 AM 11.03 51.854 0.644 5.22 90.7 -99999.99
11/3/2021 1:30:00 AM 10.99 51.782 0.644 3.39 90.8 -99999.99
11/3/2021 1:45:00 AM 10.95 51.71 0.644 3.53 90.7 -99999.99
11/3/2021 2:00:00 AM 10.92 51.656 0.645 3.63 90.7 -99999.99
11/3/2021 2:15:00 AM 10.88 51.584 0.645 5.11 90.7 -99999.99
11/3/2021 2:30:00 AM 10.84 51.512 0.645 3.7 90.6 -99999.99
11/3/2021 2:45:00 AM 10.81 51.458 0.645 5.73 90.5 -99999.99
11/3/2021 3:00:00 AM 10.77 51.386 0.646 4.47 90.5 -99999.99
11/3/2021 3:15:00 AM 10.74 51.332 0.646 4.21 90.6 -99999.99
11/3/2021 3:30:00 AM 10.71 51.278 0.646 3.96 90.5 -99999.99
11/3/2021 3:45:00 AM 10.68 51.224 0.647 5.24 90.4 -99999.99
11/3/2021 4:00:00 AM 10.64 51.152 0.647 4.33 90.5 -99999.99
11/3/2021 4:15:00 AM 10.61 51.098 0.648 4.97 90.4 -99999.99
11/3/2021 4:30:00 AM 10.58 51.044 0.648 5.79 90.5 -99999.99
11/3/2021 4:45:00 AM 10.54 50.972 0.648 5.16 90.5 -99999.99
11/3/2021 5:00:00 AM 10.51 50.918 0.648 5 90.5 -99999.99
11/3/2021 5:15:00 AM 10.48 50.864 0.648 4.66 90.5 -99999.99
11/3/2021 5:30:00 AM 10.44 50.792 0.648 3.96 90.6 -99999.99
11/3/2021 5:45:00 AM 10.4 50.72 0.648 4.6 90.5 -99999.99
11/3/2021 6:00:00 AM 10.37 50.666 0.648 4.16 90.5 -99999.99
11/3/2021 6:15:00 AM 10.33 50.594 0.648 4.91 90.5 -99999.99
11/3/2021 6:30:00 AM 10.3 50.54 0.648 3.97 90.6 -99999.99
11/3/2021 6:45:00 AM 10.27 50.486 0.648 3.86 90.5 -99999.99
11/3/2021 7:00:00 AM 10.24 50.432 0.648 4.18 90.5 -99999.99
11/3/2021 7:15:00 AM 10.21 50.378 0.648 4.49 90.6 -99999.99
11/3/2021 7:30:00 AM 10.18 50.324 0.648 3.85 90.7 -99999.99
11/3/2021 7:45:00 AM 10.15 50.27 0.649 3.68 90.6 -99999.99
11/3/2021 8:00:00 AM 10.12 50.216 0.649 4.17 90.7 -99999.99
11/3/2021 8:15:00 AM 10.1 50.18 0.649 4.3 91.1 -99999.99
11/3/2021 8:30:00 AM 10.08 50.144 0.649 4.6 91.4 -99999.99
11/3/2021 8:45:00 AM 10.06 50.108 0.649 4.79 91.8 -99999.99
11/3/2021 9:00:00 AM 10.06 50.108 0.649 3.06 92.4 -99999.99
11/3/2021 9:15:00 AM 10.06 50.108 0.65 3.57 92.8 -99999.99
11/3/2021 9:30:00 AM 10.07 50.126 0.65 3.84 93.5 -99999.99
11/3/2021 9:45:00 AM 10.1 50.18 0.65 3.83 94.4 -99999.99
11/3/2021 10:00:00 AM 10.14 50.252 0.65 3.62 95.4 -99999.99
11/3/2021 10:15:00 AM 10.2 50.36 0.65 3.58 96.3 -99999.99
11/3/2021 10:30:00 AM 10.26 50.468 0.65 3.35 97.1 -99999.99
11/3/2021 10:45:00 AM 10.32 50.576 0.651 3.3 98.2 -99999.99
11/3/2021 11:00:00 AM 10.39 50.702 0.651 3.58 99.1 -99999.99
11/3/2021 11:15:00 AM 10.47 50.846 0.651 3.19 100 -99999.99
11/3/2021 11:30:00 AM 10.55 50.99 0.651 3.53 100.7 -99999.99
11/3/2021 11:45:00 AM 10.63 51.134 0.651 3.01 101.9 -99999.99
11/3/2021 12:00:00 PM 10.72 51.296 0.651 3.36 102.6 -99999.99
11/3/2021 12:15:00 PM 10.81 51.458 0.65 3.28 103.7 -99999.99
11/3/2021 12:30:00 PM 10.89 51.602 0.65 3.47 104.5 -99999.99
11/3/2021 12:45:00 PM 10.97 51.746 0.65 3.14 105.4 -99999.99
11/3/2021 1:00:00 PM 11.04 51.872 0.65 3.2 106 -99999.99
11/3/2021 1:15:00 PM 11.12 52.016 0.649 3.58 106.8 -99999.99
11/3/2021 1:30:00 PM 11.08 51.944 0.65 3.4 106.5 -99999.99
11/3/2021 1:45:00 PM 11.11 51.998 0.649 4.83 106.8 -99999.99
11/3/2021 2:00:00 PM 11.08 51.944 0.649 2.98 106.5 -99999.99
11/3/2021 2:15:00 PM 11.11 51.998 0.649 2.86 107 -99999.99
11/3/2021 2:30:00 PM 11.13 52.034 0.649 3.23 107.7 -99999.99
11/3/2021 2:45:00 PM 11.1 51.98 0.649 3.17 107.5 -99999.99
11/3/2021 3:00:00 PM 11.11 51.998 0.648 3.41 107.5 -99999.99
11/3/2021 3:15:00 PM 11.08 51.944 0.648 3.24 107.2 -99999.99
11/3/2021 3:30:00 PM 11.06 51.908 0.648 4.26 106.9 -99999.99
11/3/2021 3:45:00 PM 11.06 51.908 0.648 3.46 107.3 -99999.99
11/3/2021 4:00:00 PM 11.04 51.872 0.647 3.31 106.9 -99999.99
11/3/2021 4:15:00 PM 11.01 51.818 0.647 3.36 106.1 -99999.99
11/3/2021 4:30:00 PM 10.99 51.782 0.647 3.12 105.6 -99999.99
11/3/2021 4:45:00 PM 10.96 51.728 0.647 2.94 104.6 -99999.99
11/3/2021 5:00:00 PM 10.95 51.71 0.647 2.93 104.1 -99999.99
11/3/2021 5:15:00 PM 10.96 51.728 0.647 3.06 103.9 -99999.99
11/3/2021 5:30:00 PM 10.95 51.71 0.648 2.73 103.1 -99999.99
11/3/2021 5:45:00 PM 10.94 51.692 0.648 6.85 102.2 -99999.99
11/3/2021 6:00:00 PM 10.92 51.656 0.648 3.65 101.6 -99999.99
11/3/2021 6:15:00 PM 10.91 51.638 0.648 3.88 100.7 -99999.99
11/3/2021 6:30:00 PM 10.88 51.584 0.648 3.87 99.7 -99999.99
11/3/2021 6:45:00 PM 10.84 51.512 0.648 3.81 98.9 -99999.99
11/3/2021 7:00:00 PM 10.81 51.458 0.648 3.43 98 -99999.99
11/3/2021 7:15:00 PM 10.78 51.404 0.649 2.94 97.7 -99999.99
11/3/2021 7:30:00 PM 10.75 51.35 0.649 3.13 97 -99999.99
11/3/2021 7:45:00 PM 10.72 51.296 0.649 3.72 96.6 -99999.99
11/3/2021 8:00:00 PM 10.7 51.26 0.649 3.65 96.3 -99999.99
11/3/2021 8:15:00 PM 10.68 51.224 0.649 4.04 95.9 -99999.99
11/3/2021 8:30:00 PM 10.67 51.206 0.649 3.65 95.7 -99999.99
11/3/2021 8:45:00 PM 10.65 51.17 0.649 3.99 95.3 -99999.99
11/3/2021 9:00:00 PM 10.63 51.134 0.649 3.9 95 -99999.99
11/3/2021 9:15:00 PM 10.61 51.098 0.649 3.73 94.6 -99999.99
11/3/2021 9:30:00 PM 10.59 51.062 0.649 3.5 94.2 -99999.99
11/3/2021 9:45:00 PM 10.57 51.026 0.649 3.79 93.9 -99999.99
11/3/2021 10:00:00 PM 10.55 50.99 0.65 4.06 93.9 -99999.99
11/3/2021 10:15:00 PM 10.54 50.972 0.65 3.79 93.6 -99999.99
11/3/2021 10:30:00 PM 10.53 50.954 0.65 3.98 93.5 -99999.99
11/3/2021 10:45:00 PM 10.52 50.936 0.65 4.44 93.2 -99999.99
11/3/2021 11:00:00 PM 10.51 50.918 0.651 4.57 93 -99999.99
11/3/2021 11:15:00 PM 10.49 50.882 0.651 4.77 92.6 -99999.99
11/3/2021 11:30:00 PM 10.48 50.864 0.651 4.47 92.5 -99999.99
11/3/2021 11:45:00 PM 10.46 50.828 0.652 3.76 92.4 -99999.99
11/4/2021 12:00:00 AM 10.44 50.792 0.652 4.09 92.2 -99999.99
11/4/2021 12:15:00 AM 10.42 50.756 0.652 4.05 92 -99999.99
11/4/2021 12:30:00 AM 10.39 50.702 0.652 4.54 92 -99999.99
11/4/2021 12:45:00 AM 10.37 50.666 0.652 3.95 91.8 -99999.99
11/4/2021 1:00:00 AM 10.34 50.612 0.652 4.55 91.6 -99999.99
11/4/2021 1:15:00 AM 10.32 50.576 0.653 3.1 91.4 -99999.99
11/4/2021 1:30:00 AM 10.3 50.54 0.653 4.11 91.5 -99999.99
11/4/2021 1:45:00 AM 10.28 50.504 0.653 3.29 91.3 -99999.99
11/4/2021 2:00:00 AM 10.25 50.45 0.653 4.32 91.3 -99999.99
11/4/2021 2:15:00 AM 10.22 50.396 0.653 5.44 91.3 -99999.99
11/4/2021 2:30:00 AM 10.19 50.342 0.653 4.03 91.2 -99999.99
11/4/2021 2:45:00 AM 10.16 50.288 0.653 3.82 91.1 -99999.99
11/4/2021 3:00:00 AM 10.14 50.252 0.653 3.29 91.1 -99999.99
11/4/2021 3:15:00 AM 10.11 50.198 0.654 4.27 91.1 -99999.99
11/4/2021 3:30:00 AM 10.09 50.162 0.654 4.16 91.1 -99999.99
11/4/2021 3:45:00 AM 10.06 50.108 0.654 4.29 91 -99999.99
11/4/2021 4:00:00 AM 10.04 50.072 0.654 3.64 91 -99999.99
11/4/2021 4:15:00 AM 10 50 0.654 3.99 91.1 -99999.99
11/4/2021 4:30:00 AM 9.97 49.946 0.654 3.75 91 -99999.99
11/4/2021 4:45:00 AM 9.94 49.892 0.654 5.6 91 -99999.99
11/4/2021 5:00:00 AM 9.91 49.838 0.653 4.02 91.1 -99999.99
11/4/2021 5:15:00 AM 9.88 49.784 0.653 4.38 91 -99999.99
11/4/2021 5:30:00 AM 9.85 49.73 0.653 3.67 91 -99999.99
11/4/2021 5:45:00 AM 9.81 49.658 0.653 4.28 91.2 -99999.99
11/4/2021 6:00:00 AM 9.78 49.604 0.653 5.19 91.1 -99999.99
11/4/2021 6:15:00 AM 9.75 49.55 0.653 4.52 91 -99999.99
11/4/2021 6:30:00 AM 9.71 49.478 0.654 3.9 91.2 -99999.99
11/4/2021 6:45:00 AM 9.68 49.424 0.653 3.98 91.2 -99999.99
11/4/2021 7:00:00 AM 9.66 49.388 0.654 4.09 91.1 -99999.99
11/4/2021 7:15:00 AM 9.62 49.316 0.654 4.13 91.1 -99999.99
11/4/2021 7:30:00 AM 9.6 49.28 0.654 4.43 91.1 -99999.99
11/4/2021 7:45:00 AM 9.57 49.226 0.653 4.01 91.4 -99999.99
11/4/2021 8:00:00 AM 9.55 49.19 0.653 3.85 91.4 -99999.99
11/4/2021 8:15:00 AM 9.52 49.136 0.653 4.45 91.5 -99999.99
11/4/2021 8:30:00 AM 9.5 49.1 0.653 4.27 91.8 -99999.99
11/4/2021 8:45:00 AM 9.49 49.082 0.653 4.03 92.3 -99999.99
11/4/2021 9:00:00 AM 9.48 49.064 0.653 4.57 92.7 -99999.99
11/4/2021 9:15:00 AM 9.48 49.064 0.653 4.24 93.4 -99999.99
11/4/2021 9:30:00 AM 9.49 49.082 0.653 4.43 94 -99999.99
11/4/2021 9:45:00 AM 9.51 49.118 0.653 5.05 94.9 -99999.99
11/4/2021 10:00:00 AM 9.55 49.19 0.653 4.26 95.8 -99999.99
11/4/2021 10:15:00 AM 9.61 49.298 0.653 4.38 96.8 -99999.99
11/4/2021 10:30:00 AM 9.67 49.406 0.653 4.07 97.9 -99999.99
11/4/2021 10:45:00 AM 9.74 49.532 0.653 3.96 99.1 -99999.99
11/4/2021 11:00:00 AM 9.83 49.694 0.653 3.42 100.1 -99999.99
11/4/2021 11:15:00 AM 9.92 49.856 0.653 3.89 101.1 -99999.99
11/4/2021 11:30:00 AM 10.01 50.018 0.653 3.59 102 -99999.99
11/4/2021 11:45:00 AM 10.09 50.162 0.652 4.38 102.9 -99999.99
11/4/2021 12:00:00 PM 10.2 50.36 0.652 3.62 104.1 -99999.99
11/4/2021 12:15:00 PM 10.3 50.54 0.652 4.03 105 -99999.99
11/4/2021 12:30:00 PM 10.38 50.684 0.652 4.45 106.1 -99999.99
11/4/2021 12:45:00 PM 10.44 50.792 0.651 3.68 106.7 -99999.99
11/4/2021 1:00:00 PM 10.5 50.9 0.651 3.78 107.6 -99999.99
11/4/2021 1:15:00 PM 10.56 51.008 0.651 3.85 108.3 -99999.99
11/4/2021 1:30:00 PM 10.59 51.062 0.651 3.85 108.8 -99999.99
11/4/2021 1:45:00 PM 10.62 51.116 0.65 3.99 109.4 -99999.99
11/4/2021 2:00:00 PM 10.63 51.134 0.65 3.67 109.6 -99999.99
11/4/2021 2:15:00 PM 10.65 51.17 0.649 5.09 109.6 -99999.99
11/4/2021 2:30:00 PM 10.66 51.188 0.649 3.46 109.8 -99999.99
11/4/2021 2:45:00 PM 10.68 51.224 0.649 4.7 109.6 -99999.99
11/4/2021 3:00:00 PM 10.71 51.278 0.649 5.27 110.1 -99999.99
11/4/2021 3:15:00 PM 10.71 51.278 0.649 3.44 110.1 -99999.99
11/4/2021 3:30:00 PM 10.73 51.314 0.649 4.79 110.2 -99999.99
11/4/2021 3:45:00 PM 10.8 51.44 0.649 3.64 110.7 -99999.99
11/4/2021 4:00:00 PM 10.81 51.458 0.649 4.82 111 -99999.99
11/4/2021 4:15:00 PM 10.79 51.422 0.65 3.6 110.8 -99999.99
11/4/2021 4:30:00 PM 10.74 51.332 0.651 3.95 110.2 -99999.99
11/4/2021 4:45:00 PM 10.66 51.188 0.652 3.4 109.2 -99999.99
11/4/2021 5:00:00 PM 10.59 51.062 0.654 3.61 108.3 -99999.99
11/4/2021 5:15:00 PM 10.54 50.972 0.654 3.75 107.1 -99999.99
11/4/2021 5:30:00 PM 10.49 50.882 0.655 4.17 106.1 -99999.99
11/4/2021 5:45:00 PM 10.45 50.81 0.655 4.49 104.8 -99999.99
11/4/2021 6:00:00 PM 10.44 50.792 0.654 3.03 103.5 -99999.99
11/4/2021 6:15:00 PM 10.43 50.774 0.653 3.19 102.4 -99999.99
11/4/2021 6:30:00 PM 10.42 50.756 0.653 4.41 101.5 -99999.99
11/4/2021 6:45:00 PM 10.4 50.72 0.652 3.55 100.3 -99999.99
11/4/2021 7:00:00 PM 10.38 50.684 0.652 3.34 99.5 -99999.99
11/4/2021 7:15:00 PM 10.35 50.63 0.652 3.75 98.9 -99999.99
11/4/2021 7:30:00 PM 10.33 50.594 0.652 5.04 98.1 -99999.99
11/4/2021 7:45:00 PM 10.3 50.54 0.652 4.51 97.8 -99999.99
11/4/2021 8:00:00 PM 10.28 50.504 0.652 4.04 97 -99999.99
11/4/2021 8:15:00 PM 10.25 50.45 0.652 4.49 96.7 -99999.99
11/4/2021 8:30:00 PM 10.23 50.414 0.653 4.16 96.2 -99999.99
11/4/2021 8:45:00 PM 10.21 50.378 0.653 4.55 95.8 -99999.99
11/4/2021 9:00:00 PM 10.18 50.324 0.653 3.77 95.3 -99999.99
11/4/2021 9:15:00 PM 10.16 50.288 0.653 3.6 94.9 -99999.99
11/4/2021 9:30:00 PM 10.13 50.234 0.653 3.73 94.5 -99999.99
11/4/2021 9:45:00 PM 10.11 50.198 0.653 4.25 94 -99999.99
11/4/2021 10:00:00 PM 10.08 50.144 0.654 4.25 93.8 -99999.99
11/4/2021 10:15:00 PM 10.07 50.126 0.654 4.49 93.5 -99999.99
11/4/2021 10:30:00 PM 10.05 50.09 0.654 4.41 93.2 -99999.99
11/4/2021 10:45:00 PM 10.03 50.054 0.654 4.24 92.7 -99999.99
11/4/2021 11:00:00 PM 10.01 50.018 0.654 3.8 92.5 -99999.99
11/4/2021 11:15:00 PM 9.99 49.982 0.655 4.31 92.3 -99999.99
11/4/2021 11:30:00 PM 9.97 49.946 0.655 3.71 92 -99999.99
11/4/2021 11:45:00 PM 9.94 49.892 0.655 4.14 91.8 -99999.99
11/5/2021 12:00:00 AM 9.92 49.856 0.655 4.88 91.5 -99999.99
11/5/2021 12:15:00 AM 9.89 49.802 0.655 7.7 91.3 -99999.99
11/5/2021 12:30:00 AM 9.87 49.766 0.656 5.68 91.2 -99999.99
11/5/2021 12:45:00 AM 9.84 49.712 0.656 4.06 91 -99999.99
11/5/2021 1:00:00 AM 9.81 49.658 0.656 4.17 90.7 -99999.99
11/5/2021 1:15:00 AM 9.78 49.604 0.656 4.39 90.7 -99999.99
11/5/2021 1:30:00 AM 9.75 49.55 0.656 5.01 90.4 -99999.99
11/5/2021 1:45:00 AM 9.71 49.478 0.656 4.48 90.4 -99999.99
11/5/2021 2:00:00 AM 9.69 49.442 0.657 6.12 90.4 -99999.99
11/5/2021 2:15:00 AM 9.66 49.388 0.657 4.78 90.2 -99999.99
11/5/2021 2:30:00 AM 9.63 49.334 0.657 5.46 90.2 -99999.99
11/5/2021 2:45:00 AM 9.6 49.28 0.657 4.97 89.9 -99999.99
11/5/2021 3:00:00 AM 9.57 49.226 0.658 4.53 90 -99999.99
11/5/2021 3:15:00 AM 9.54 49.172 0.658 4.38 89.9 -99999.99
11/5/2021 3:30:00 AM 9.5 49.1 0.658 4.77 89.8 -99999.99
11/5/2021 3:45:00 AM 9.48 49.064 0.658 6.46 89.6 -99999.99
11/5/2021 4:00:00 AM 9.45 49.01 0.658 4.78 89.7 -99999.99
11/5/2021 4:15:00 AM 9.42 48.956 0.659 4.14 89.5 -99999.99
11/5/2021 4:30:00 AM 9.39 48.902 0.659 4.5 89.6 -99999.99
11/5/2021 4:45:00 AM 9.36 48.848 0.659 4.9 89.5 -99999.99
11/5/2021 5:00:00 AM 9.33 48.794 0.659 5.17 89.5 -99999.99
11/5/2021 5:15:00 AM 9.3 48.74 0.659 5.24 89.4 -99999.99
11/5/2021 5:30:00 AM 9.27 48.686 0.659 5.98 89.5 -99999.99
11/5/2021 5:45:00 AM 9.24 48.632 0.659 5.15 89.5 -99999.99
11/5/2021 6:00:00 AM 9.22 48.596 0.659 4.46 89.3 -99999.99
11/5/2021 6:15:00 AM 9.19 48.542 0.659 4.87 89.4 -99999.99
11/5/2021 6:30:00 AM 9.16 48.488 0.659 4.98 89.3 -99999.99
11/5/2021 6:45:00 AM 9.14 48.452 0.659 4.47 89.5 -99999.99
11/5/2021 7:00:00 AM 9.1 48.38 0.659 4.92 89.7 -99999.99
11/5/2021 7:15:00 AM 9.07 48.326 0.659 4.7 89.6 -99999.99
11/5/2021 7:30:00 AM 9.04 48.272 0.658 5.61 89.6 -99999.99
11/5/2021 7:45:00 AM 9 48.2 0.658 4.79 89.8 -99999.99
11/5/2021 8:00:00 AM 8.97 48.146 0.658 6.48 89.9 -99999.99
11/5/2021 8:15:00 AM 8.94 48.092 0.658 4.11 90.1 -99999.99
11/5/2021 8:30:00 AM 8.91 48.038 0.657 4.31 90.6 -99999.99
11/5/2021 8:45:00 AM 8.89 48.002 0.657 4.68 91 -99999.99
11/5/2021 9:00:00 AM 8.87 47.966 0.657 4.77 91.6 -99999.99
11/5/2021 9:15:00 AM 8.87 47.966 0.657 4.1 92.3 -99999.99
11/5/2021 9:30:00 AM 8.87 47.966 0.657 5.03 93.2 -99999.99
11/5/2021 9:45:00 AM 8.89 48.002 0.657 4.3 94 -99999.99
11/5/2021 10:00:00 AM 8.93 48.074 0.656 4.36 95.1 -99999.99
11/5/2021 10:15:00 AM 8.99 48.182 0.656 3.68 96.4 -99999.99
11/5/2021 10:30:00 AM 9.06 48.308 0.656 3.96 97.4 -99999.99
11/5/2021 10:45:00 AM 9.13 48.434 0.656 4.35 98.6 -99999.99
11/5/2021 11:00:00 AM 9.22 48.596 0.656 4.32 99.6 -99999.99
11/5/2021 11:15:00 AM 9.31 48.758 0.656 4.84 100.7 -99999.99
11/5/2021 11:30:00 AM 9.42 48.956 0.656 4.83 101.6 -99999.99
11/5/2021 11:45:00 AM 9.52 49.136 0.656 4.83 102.9 -99999.99
11/5/2021 12:00:00 PM 9.62 49.316 0.656 4.75 103.5 -99999.99
11/5/2021 12:15:00 PM 9.73 49.514 0.656 4.74 104.6 -99999.99
11/5/2021 12:30:00 PM 9.84 49.712 0.656 4.7 105.7 -99999.99
11/5/2021 12:45:00 PM 9.94 49.892 0.656 4.46 106.3 -99999.99
11/5/2021 1:00:00 PM 9.99 49.982 0.656 4.8 106.9 -99999.99
11/5/2021 1:15:00 PM 10.02 50.036 0.656 3.69 106.9 -99999.99
11/5/2021 1:30:00 PM 10.06 50.108 0.655 5.39 107.4 -99999.99
11/5/2021 1:45:00 PM 10.14 50.252 0.655 4.04 108.1 -99999.99
11/5/2021 2:00:00 PM 10.18 50.324 0.655 4.48 109 -99999.99
11/5/2021 2:15:00 PM 10.22 50.396 0.655 3.88 109.4 -99999.99
11/5/2021 2:30:00 PM 10.32 50.576 0.655 4.39 110.2 -99999.99
11/5/2021 2:45:00 PM 10.35 50.63 0.654 4.05 110.3 -99999.99
11/5/2021 3:00:00 PM 10.35 50.63 0.654 3.96 110.3 -99999.99
11/5/2021 3:15:00 PM 10.36 50.648 0.654 3.87 110.2 -99999.99
11/5/2021 3:30:00 PM 10.36 50.648 0.654 4.05 110.3 -99999.99
11/5/2021 3:45:00 PM 10.38 50.684 0.654 3.97 110.1 -99999.99
11/5/2021 4:00:00 PM 10.38 50.684 0.654 3.49 109.9 -99999.99
11/5/2021 4:15:00 PM 10.39 50.702 0.654 3.78 109.5 -99999.99
11/5/2021 4:30:00 PM 10.38 50.684 0.654 3.66 109 -99999.99
11/5/2021 4:45:00 PM 10.37 50.666 0.654 3.96 107.9 -99999.99
11/5/2021 5:00:00 PM 10.34 50.612 0.654 3.81 106.9 -99999.99
11/5/2021 5:15:00 PM 10.33 50.594 0.655 3.94 105.8 -99999.99
11/5/2021 5:30:00 PM 10.36 50.648 0.654 4.16 104.3 -99999.99
11/5/2021 5:45:00 PM 10.42 50.756 0.653 4.25 103.6 -99999.99
11/5/2021 6:00:00 PM 10.46 50.828 0.658 4.84 102.8 -99999.99
11/5/2021 6:15:00 PM 10.48 50.864 0.666 4.53 101.8 -99999.99
11/5/2021 6:30:00 PM 10.47 50.846 0.672 5.07 101 -99999.99
11/5/2021 6:45:00 PM 10.45 50.81 0.675 5 100.1 -99999.99
11/5/2021 7:00:00 PM 10.42 50.756 0.676 4.82 99.4 -99999.99
11/5/2021 7:15:00 PM 10.38 50.684 0.676 4.64 98.9 -99999.99
11/5/2021 7:30:00 PM 10.33 50.594 0.673 4.65 98.3 -99999.99
11/5/2021 7:45:00 PM 10.29 50.522 0.667 5.15 97.7 -99999.99
11/5/2021 8:00:00 PM 10.24 50.432 0.662 6.66 97.2 -99999.99
11/5/2021 8:15:00 PM 10.2 50.36 0.658 4.9 96.6 -99999.99
11/5/2021 8:30:00 PM 10.15 50.27 0.656 5.16 96.3 -99999.99
11/5/2021 8:45:00 PM 10.12 50.216 0.656 5.14 95.7 -99999.99
11/5/2021 9:00:00 PM 10.08 50.144 0.655 5.84 95.5 -99999.99
11/5/2021 9:15:00 PM 10.04 50.072 0.655 5.86 95.1 -99999.99
11/5/2021 9:30:00 PM 10.01 50.018 0.655 4.35 94.9 -99999.99
11/5/2021 9:45:00 PM 9.98 49.964 0.655 6.27 94.6 -99999.99
11/5/2021 10:00:00 PM 9.95 49.91 0.655 8.93 94.3 -99999.99
11/5/2021 10:15:00 PM 9.92 49.856 0.655 5.24 94.3 -99999.99
11/5/2021 10:30:00 PM 9.9 49.82 0.656 3.87 93.9 -99999.99
11/5/2021 10:45:00 PM 9.88 49.784 0.656 3.7 93.7 -99999.99
11/5/2021 11:00:00 PM 9.86 49.748 0.657 3.62 93.4 -99999.99
11/5/2021 11:15:00 PM 9.84 49.712 0.657 4.46 93.1 -99999.99
11/5/2021 11:30:00 PM 9.82 49.676 0.657 3.53 93 -99999.99
11/5/2021 11:45:00 PM 9.8 49.64 0.658 4.15 92.8 -99999.99
11/6/2021 12:00:00 AM 9.78 49.604 0.658 3.46 92.7 -99999.99
11/6/2021 12:15:00 AM 9.75 49.55 0.658 3.87 92.5 -99999.99
11/6/2021 12:30:00 AM 9.74 49.532 0.658 3.48 92.4 -99999.99
11/6/2021 12:45:00 AM 9.72 49.496 0.659 4.29 92.3 -99999.99
11/6/2021 1:00:00 AM 9.7 49.46 0.659 3.83 92.2 -99999.99
11/6/2021 1:15:00 AM 9.68 49.424 0.659 3.87 92 -99999.99
11/6/2021 1:30:00 AM 9.65 49.37 0.659 3.36 91.9 -99999.99
11/6/2021 1:45:00 AM 9.62 49.316 0.659 3.96 91.8 -99999.99
11/6/2021 2:00:00 AM 9.59 49.262 0.659 4.27 91.8 -99999.99
11/6/2021 2:15:00 AM 9.57 49.226 0.659 4 91.7 -99999.99
11/6/2021 2:30:00 AM 9.54 49.172 0.659 4.05 91.5 -99999.99
11/6/2021 2:45:00 AM 9.51 49.118 0.659 4.25 91.7 -99999.99
11/6/2021 3:00:00 AM 9.49 49.082 0.659 3.79 91.5 -99999.99
11/6/2021 3:15:00 AM 9.46 49.028 0.659 4.6 91.6 -99999.99
11/6/2021 3:30:00 AM 9.43 48.974 0.659 4.47 91.2 -99999.99
11/6/2021 3:45:00 AM 9.4 48.92 0.659 3.97 91.4 -99999.99
11/6/2021 4:00:00 AM 9.37 48.866 0.659 4.16 91.4 -99999.99
11/6/2021 4:15:00 AM 9.34 48.812 0.66 4.09 91.4 -99999.99
11/6/2021 4:30:00 AM 9.31 48.758 0.66 4.88 91.3 -99999.99
11/6/2021 4:45:00 AM 9.28 48.704 0.66 3.9 91.4 -99999.99
11/6/2021 5:00:00 AM 9.26 48.668 0.66 4.18 91.2 -99999.99
11/6/2021 5:15:00 AM 9.24 48.632 0.66 4.04 91.1 -99999.99
11/6/2021 5:30:00 AM 9.21 48.578 0.66 5.27 91.2 -99999.99
11/6/2021 5:45:00 AM 9.19 48.542 0.66 5.28 90.9 -99999.99
11/6/2021 6:00:00 AM 9.17 48.506 0.66 5.43 91.1 -99999.99
11/6/2021 6:15:00 AM 9.14 48.452 0.66 4.17 91 -99999.99
11/6/2021 6:30:00 AM 9.12 48.416 0.66 4.97 91.1 -99999.99
11/6/2021 6:45:00 AM 9.09 48.362 0.66 4.89 91.2 -99999.99
11/6/2021 7:00:00 AM 9.06 48.308 0.659 3.84 91.1 -99999.99
11/6/2021 7:15:00 AM 9.03 48.254 0.659 4.74 91.3 -99999.99
11/6/2021 7:30:00 AM 9 48.2 0.659 4.58 91.2 -99999.99
11/6/2021 7:45:00 AM 8.97 48.146 0.659 5.21 91.3 -99999.99
11/6/2021 8:00:00 AM 8.93 48.074 0.658 4.22 91.5 -99999.99
11/6/2021 8:15:00 AM 8.91 48.038 0.658 4.4 91.6 -99999.99
11/6/2021 8:30:00 AM 8.89 48.002 0.658 4.19 92 -99999.99
11/6/2021 8:45:00 AM 8.86 47.948 0.657 5.15 92.4 -99999.99
11/6/2021 9:00:00 AM 8.85 47.93 0.657 5.21 93.3 -99999.99
11/6/2021 9:15:00 AM 8.84 47.912 0.657 4.72 93.9 -99999.99
11/6/2021 9:30:00 AM 8.85 47.93 0.656 4.01 94.6 -99999.99
11/6/2021 9:45:00 AM 8.87 47.966 0.656 4.22 95.5 -99999.99
11/6/2021 10:00:00 AM 8.91 48.038 0.655 4.67 96.7 -99999.99
11/6/2021 10:15:00 AM 8.96 48.128 0.655 3.85 98.1 -99999.99
11/6/2021 10:30:00 AM 9.02 48.236 0.655 4.24 99.2 -99999.99
11/6/2021 10:45:00 AM 9.1 48.38 0.654 4.33 100.3 -99999.99
11/6/2021 11:00:00 AM 9.19 48.542 0.654 4.14 101.3 -99999.99
11/6/2021 11:15:00 AM 9.29 48.722 0.654 4.45 102.6 -99999.99
11/6/2021 11:30:00 AM 9.39 48.902 0.654 3.82 103.5 -99999.99
11/6/2021 11:45:00 AM 9.49 49.082 0.654 3.73 104.7 -99999.99
11/6/2021 12:00:00 PM 9.6 49.28 0.653 4.02 105.7 -99999.99
11/6/2021 12:15:00 PM 9.71 49.478 0.653 4.29 106.7 -99999.99
11/6/2021 12:30:00 PM 9.81 49.658 0.653 4.18 107.3 -99999.99
11/6/2021 12:45:00 PM 9.9 49.82 0.653 4.16 108.3 -99999.99
11/6/2021 1:00:00 PM 9.99 49.982 0.653 3.95 109 -99999.99
11/6/2021 1:15:00 PM 10.07 50.126 0.653 4.1 109.7 -99999.99
11/6/2021 1:30:00 PM 10.15 50.27 0.652 4.56 110.3 -99999.99
11/6/2021 1:45:00 PM 10.22 50.396 0.652 4.19 110.8 -99999.99
11/6/2021 2:00:00 PM 10.27 50.486 0.652 4.28 111 -99999.99
11/6/2021 2:15:00 PM 10.32 50.576 0.652 4.29 111.5 -99999.99
11/6/2021 2:30:00 PM 10.35 50.63 0.652 4.15 111.4 -99999.99
11/6/2021 2:45:00 PM 10.38 50.684 0.651 4.41 111.7 -99999.99
11/6/2021 3:00:00 PM 10.4 50.72 0.651 4.19 111.7 -99999.99
11/6/2021 3:15:00 PM 10.41 50.738 0.651 3.91 111.7 -99999.99
11/6/2021 3:30:00 PM 10.41 50.738 0.651 4.67 111.1 -99999.99
11/6/2021 3:45:00 PM 10.41 50.738 0.651 4.29 111.3 -99999.99
11/6/2021 4:00:00 PM 10.4 50.72 0.65 4.13 110.7 -99999.99
11/6/2021 4:15:00 PM 10.39 50.702 0.65 4.26 110.3 -99999.99
11/6/2021 4:30:00 PM 10.38 50.684 0.651 3.95 109.7 -99999.99
11/6/2021 4:45:00 PM 10.35 50.63 0.651 3.97 108.8 -99999.99
11/6/2021 5:00:00 PM 10.33 50.594 0.651 4.37 107.8 -99999.99
11/6/2021 5:15:00 PM 10.32 50.576 0.651 4.19 106.9 -99999.99
11/6/2021 5:30:00 PM 10.31 50.558 0.651 4.26 105.7 -99999.99
11/6/2021 5:45:00 PM 10.29 50.522 0.651 4.3 104.7 -99999.99
11/6/2021 6:00:00 PM 10.27 50.486 0.652 4.02 103.7 -99999.99
11/6/2021 6:15:00 PM 10.25 50.45 0.652 4.47 102.8 -99999.99
11/6/2021 6:30:00 PM 10.23 50.414 0.652 4.41 101.8 -99999.99
11/6/2021 6:45:00 PM 10.2 50.36 0.652 4.32 100.8 -99999.99
11/6/2021 7:00:00 PM 10.18 50.324 0.652 4.6 100.1 -99999.99
11/6/2021 7:15:00 PM 10.15 50.27 0.652 4.39 99.3 -99999.99
11/6/2021 7:30:00 PM 10.12 50.216 0.652 4.46 99 -99999.99
11/6/2021 7:45:00 PM 10.09 50.162 0.652 4.54 98.3 -99999.99
11/6/2021 8:00:00 PM 10.06 50.108 0.652 5.86 98 -99999.99
11/6/2021 8:15:00 PM 10.03 50.054 0.652 4.86 97.4 -99999.99
11/6/2021 8:30:00 PM 10 50 0.652 5.28 96.9 -99999.99
11/6/2021 8:45:00 PM 9.97 49.946 0.652 4.57 96.5 -99999.99
11/6/2021 9:00:00 PM 9.95 49.91 0.652 4.88 96.3 -99999.99
11/6/2021 9:15:00 PM 9.92 49.856 0.652 4.35 95.8 -99999.99
11/6/2021 9:30:00 PM 9.9 49.82 0.652 4.41 95.5 -99999.99
11/6/2021 9:45:00 PM 9.88 49.784 0.652 5.77 95.3 -99999.99
11/6/2021 10:00:00 PM 9.86 49.748 0.652 5.67 95 -99999.99
11/6/2021 10:15:00 PM 9.84 49.712 0.652 5.29 94.8 -99999.99
11/6/2021 10:30:00 PM 9.82 49.676 0.652 5.23 94.7 -99999.99
11/6/2021 10:45:00 PM 9.8 49.64 0.653 4.95 94.4 -99999.99
11/6/2021 11:00:00 PM 9.78 49.604 0.653 4.82 94.1 -99999.99
11/6/2021 11:15:00 PM 9.76 49.568 0.653 4.03 93.7 -99999.99
11/6/2021 11:30:00 PM 9.75 49.55 0.654 4.63 93.5 -99999.99
11/6/2021 11:45:00 PM 9.73 49.514 0.654 5.56 93.3 -99999.99
11/7/2021 12:00:00 AM 9.71 49.478 0.654 5.72 93.2 -99999.99
11/7/2021 12:15:00 AM 9.69 49.442 0.655 4.61 92.8 -99999.99
11/7/2021 12:30:00 AM 9.68 49.424 0.655 4.86 92.7 -99999.99
11/7/2021 12:45:00 AM 9.66 49.388 0.655 5.24 92.6 -99999.99
11/7/2021 1:00:00 AM 9.64 49.352 0.655 5.49 92.4 -99999.99
11/7/2021 1:15:00 AM 9.63 49.334 0.655 5.37 92.2 -99999.99
11/7/2021 1:30:00 AM 9.61 49.298 0.655 5.66 92.1 -99999.99
11/7/2021 1:45:00 AM 9.58 49.244 0.655 5.69 92 -99999.99
11/7/2021 2:00:00 AM 9.56 49.208 0.655 5.67 91.8 -99999.99
11/7/2021 2:15:00 AM 9.54 49.172 0.655 5.03 91.7 -99999.99
11/7/2021 2:30:00 AM 9.52 49.136 0.655 5.92 91.7 -99999.99
11/7/2021 2:45:00 AM 9.49 49.082 0.655 5.69 91.5 -99999.99
11/7/2021 3:00:00 AM 9.47 49.046 0.655 4.95 91.4 -99999.99
11/7/2021 3:15:00 AM 9.44 48.992 0.655 7.97 91.4 -99999.99
11/7/2021 3:30:00 AM 9.42 48.956 0.654 5.99 91.2 -99999.99
11/7/2021 3:45:00 AM 9.4 48.92 0.654 7.03 91.3 -99999.99
11/7/2021 4:00:00 AM 9.25 48.65 0.655 5.48 91.1 -99999.99
11/7/2021 4:15:00 AM 9.23 48.614 0.655 5.71 91.2 -99999.99
11/7/2021 4:30:00 AM 9.2 48.56 0.654 6.68 91.1 -99999.99
11/7/2021 4:45:00 AM 9.17 48.506 0.654 6.49 91.2 -99999.99
11/7/2021 5:00:00 AM 9.15 48.47 0.654 7.06 91.1 -99999.99
11/7/2021 5:15:00 AM 9.12 48.416 0.654 6.15 91.1 -99999.99
11/7/2021 5:30:00 AM 9.09 48.362 0.654 5.5 91.1 -99999.99
11/7/2021 5:45:00 AM 9.06 48.308 0.654 5.7 91.2 -99999.99
11/7/2021 6:00:00 AM 9.04 48.272 0.654 5.81 91.1 -99999.99
11/7/2021 6:15:00 AM 9.01 48.218 0.654 8.67 91.1 -99999.99
11/7/2021 6:30:00 AM 8.98 48.164 0.654 6.67 91.3 -99999.99
11/7/2021 6:45:00 AM 8.95 48.11 0.654 6.57 91.1 -99999.99
11/7/2021 7:00:00 AM 8.92 48.056 0.655 5.76 91.2 -99999.99
11/7/2021 7:15:00 AM 8.9 48.02 0.655 7.6 91.4 -99999.99
11/7/2021 7:30:00 AM 8.87 47.966 0.655 5.83 91.9 -99999.99
11/7/2021 7:45:00 AM 8.85 47.93 0.655 5.73 92.2 -99999.99
11/7/2021 8:00:00 AM 8.84 47.912 0.655 6.34 92.7 -99999.99
11/7/2021 8:15:00 AM 8.83 47.894 0.655 6.32 93.5 -99999.99
11/7/2021 8:30:00 AM 8.84 47.912 0.654 6.42 94.3 -99999.99
11/7/2021 8:45:00 AM 8.86 47.948 0.654 6.27 95.1 -99999.99
11/7/2021 9:00:00 AM 8.89 48.002 0.654 6.26 96.3 -99999.99
11/7/2021 9:15:00 AM 8.95 48.11 0.654 5.98 97.6 -99999.99
11/7/2021 9:30:00 AM 9.02 48.236 0.654 5.71 99.1 -99999.99
11/7/2021 9:45:00 AM 9.1 48.38 0.654 5.66 100.2 -99999.99
11/7/2021 10:00:00 AM 9.19 48.542 0.654 6.74 101.3 -99999.99
11/7/2021 10:15:00 AM 9.28 48.704 0.654 5.95 102.8 -99999.99
11/7/2021 10:30:00 AM 9.38 48.884 0.654 5.23 103.6 -99999.99
11/7/2021 10:45:00 AM 9.49 49.082 0.654 5.69 104.8 -99999.99
11/7/2021 11:00:00 AM 9.6 49.28 0.654 5.69 105.7 -99999.99
11/7/2021 11:15:00 AM 9.71 49.478 0.654 5.62 106.6 -99999.99
11/7/2021 11:30:00 AM 9.81 49.658 0.654 6.39 107.4 -99999.99
11/7/2021 11:45:00 AM 9.91 49.838 0.654 6.13 108.4 -99999.99
11/7/2021 12:00:00 PM 10 50 0.654 6.15 109.1 -99999.99
11/7/2021 12:15:00 PM 10.09 50.162 0.654 5.54 109.9 -99999.99
11/7/2021 12:30:00 PM 10.16 50.288 0.654 5.62 110.4 -99999.99
11/7/2021 12:45:00 PM 10.23 50.414 0.653 5.85 110.9 -99999.99
11/7/2021 1:00:00 PM 10.29 50.522 0.653 6.2 111.4 -99999.99
11/7/2021 1:15:00 PM 10.34 50.612 0.653 5.92 111.5 -99999.99
11/7/2021 1:30:00 PM 10.38 50.684 0.653 6.71 111.8 -99999.99
11/7/2021 1:45:00 PM 10.42 50.756 0.653 5.91 112 -99999.99
11/7/2021 2:00:00 PM 10.44 50.792 0.652 7.04 112 -99999.99
11/7/2021 2:15:00 PM 10.46 50.828 0.652 6.48 112 -99999.99
11/7/2021 2:30:00 PM 10.47 50.846 0.652 6.33 111.9 -99999.99
11/7/2021 2:45:00 PM 10.47 50.846 0.652 5.78 111.5 -99999.99
11/7/2021 3:00:00 PM 10.46 50.828 0.652 5.73 111.6 -99999.99
11/7/2021 3:15:00 PM 10.46 50.828 0.652 6.27 111.3 -99999.99
11/7/2021 3:30:00 PM 10.42 50.756 0.654 6.74 110.8 -99999.99
11/7/2021 3:45:00 PM 10.36 50.648 0.654 6.05 109.6 -99999.99
11/7/2021 4:00:00 PM 10.31 50.558 0.655 4.78 108.4 -99999.99
11/7/2021 4:15:00 PM 10.29 50.522 0.656 5.73 107.5 -99999.99
11/7/2021 4:30:00 PM 10.26 50.468 0.656 5.24 106.3 -99999.99
11/7/2021 4:45:00 PM 10.24 50.432 0.656 6.04 105.2 -99999.99
11/7/2021 5:00:00 PM 10.23 50.414 0.656 8.27 104.1 -99999.99
11/7/2021 5:15:00 PM 10.21 50.378 0.657 7.14 102.8 -99999.99
11/7/2021 5:30:00 PM 10.2 50.36 0.657 15.71 101.7 -99999.99
11/7/2021 5:45:00 PM 10.19 50.342 0.657 6.12 100.8 -99999.99
11/7/2021 6:00:00 PM 10.17 50.306 0.657 5.96 99.8 -99999.99
11/7/2021 6:15:00 PM 10.14 50.252 0.657 5.75 99.1 -99999.99
11/7/2021 6:30:00 PM 10.12 50.216 0.657 5.59 98.3 -99999.99
11/7/2021 6:45:00 PM 10.09 50.162 0.657 6.45 97.7 -99999.99
11/7/2021 7:00:00 PM 10.06 50.108 0.657 5.42 97.1 -99999.99
11/7/2021 7:15:00 PM 10.04 50.072 0.657 6.38 96.6 -99999.99
11/7/2021 7:30:00 PM 10.02 50.036 0.658 5.72 96 -99999.99
11/7/2021 7:45:00 PM 9.99 49.982 0.658 6.62 95.6 -99999.99
11/7/2021 8:00:00 PM 9.97 49.946 0.658 6.37 95.2 -99999.99
11/7/2021 8:15:00 PM 9.95 49.91 0.658 6.46 94.8 -99999.99
11/7/2021 8:30:00 PM 9.93 49.874 0.658 6.11 94.3 -99999.99
11/7/2021 8:45:00 PM 9.91 49.838 0.658 7.11 94 -99999.99
11/7/2021 9:00:00 PM 9.89 49.802 0.658 5.92 93.6 -99999.99
11/7/2021 9:15:00 PM 9.88 49.784 0.658 6.77 93.4 -99999.99
11/7/2021 9:30:00 PM 9.86 49.748 0.659 6.6 93.2 -99999.99
11/7/2021 9:45:00 PM 9.85 49.73 0.659 6.89 92.8 -99999.99
11/7/2021 10:00:00 PM 9.83 49.694 0.659 6.3 92.6 -99999.99
11/7/2021 10:15:00 PM 9.81 49.658 0.659 6.89 92.3 -99999.99
11/7/2021 10:30:00 PM 9.8 49.64 0.659 7.13 92.1 -99999.99
11/7/2021 10:45:00 PM 9.78 49.604 0.659 5.57 91.8 -99999.99
11/7/2021 11:00:00 PM 9.76 49.568 0.659 6.56 91.6 -99999.99
11/7/2021 11:15:00 PM 9.74 49.532 0.66 7.61 91.3 -99999.99
11/7/2021 11:30:00 PM 9.72 49.496 0.66 6.86 91 -99999.99
11/7/2021 11:45:00 PM 9.7 49.46 0.661 6 90.9 -99999.99
11/8/2021 12:00:00 AM 9.69 49.442 0.662 7.85 90.6 -99999.99
11/8/2021 12:15:00 AM 9.67 49.406 0.662 7.49 90.2 -99999.99
11/8/2021 12:30:00 AM 9.66 49.388 0.663 7.09 90.1 -99999.99
11/8/2021 12:45:00 AM 9.65 49.37 0.663 7.69 89.9 -99999.99
11/8/2021 1:00:00 AM 9.63 49.334 0.664 5.09 89.8 -99999.99
11/8/2021 1:15:00 AM 9.62 49.316 0.664 5.89 89.7 -99999.99
11/8/2021 1:30:00 AM 9.6 49.28 0.665 8.1 89.5 -99999.99
11/8/2021 1:45:00 AM 9.59 49.262 0.665 6.87 89.5 -99999.99
11/8/2021 2:00:00 AM 9.57 49.226 0.665 6.29 89.5 -99999.99
11/8/2021 2:15:00 AM 9.55 49.19 0.665 6.87 89.3 -99999.99
11/8/2021 2:30:00 AM 9.53 49.154 0.665 7.61 89.2 -99999.99
11/8/2021 2:45:00 AM 9.51 49.118 0.665 6.13 89.1 -99999.99
11/8/2021 3:00:00 AM 9.49 49.082 0.665 6.4 89.1 -99999.99
11/8/2021 3:15:00 AM 9.47 49.046 0.665 7.04 89 -99999.99
11/8/2021 3:30:00 AM 9.44 48.992 0.665 7.02 89.1 -99999.99
11/8/2021 3:45:00 AM 9.41 48.938 0.665 7.32 89.1 -99999.99
11/8/2021 4:00:00 AM 9.39 48.902 0.664 6.53 89.1 -99999.99
11/8/2021 4:15:00 AM 9.36 48.848 0.664 6.5 89 -99999.99
11/8/2021 4:30:00 AM 9.33 48.794 0.664 7.07 89.1 -99999.99
11/8/2021 4:45:00 AM 9.31 48.758 0.664 8.32 88.9 -99999.99
11/8/2021 5:00:00 AM 9.28 48.704 0.664 9.97 89 -99999.99
11/8/2021 5:15:00 AM 9.26 48.668 0.664 7.95 89.1 -99999.99
11/8/2021 5:30:00 AM 9.23 48.614 0.664 7.84 89 -99999.99
11/8/2021 5:45:00 AM 9.21 48.578 0.664 5.96 88.9 -99999.99
11/8/2021 6:00:00 AM 9.19 48.542 0.664 7.06 89.1 -99999.99
11/8/2021 6:15:00 AM 9.17 48.506 0.664 8.33 89.1 -99999.99
11/8/2021 6:30:00 AM 9.14 48.452 0.664 8.17 89 -99999.99
11/8/2021 6:45:00 AM 9.13 48.434 0.664 7.2 89 -99999.99
11/8/2021 7:00:00 AM 9.1 48.38 0.664 7.41 89.2 -99999.99
11/8/2021 7:15:00 AM 9.09 48.362 0.663 7.76 89.5 -99999.99
11/8/2021 7:30:00 AM 9.07 48.326 0.663 7.94 89.8 -99999.99
11/8/2021 7:45:00 AM 9.06 48.308 0.663 7.35 90.2 -99999.99
11/8/2021 8:00:00 AM 9.05 48.29 0.663 8.02 90.9 -99999.99
11/8/2021 8:15:00 AM 9.05 48.29 0.663 7.33 91.6 -99999.99
11/8/2021 8:30:00 AM 9.06 48.308 0.663 7.79 92.6 -99999.99
11/8/2021 8:45:00 AM 9.09 48.362 0.662 6.53 93.5 -99999.99
11/8/2021 9:00:00 AM 9.14 48.452 0.662 6.12 94.8 -99999.99
11/8/2021 9:15:00 AM 9.2 48.56 0.662 6.52 96.2 -99999.99
11/8/2021 9:30:00 AM 9.29 48.722 0.661 6.55 97.7 -99999.99
11/8/2021 9:45:00 AM 9.39 48.902 0.661 6.86 99.2 -99999.99
11/8/2021 10:00:00 AM 9.49 49.082 0.66 6.36 100.5 -99999.99
11/8/2021 10:15:00 AM 9.6 49.28 0.66 6.86 102 -99999.99
11/8/2021 10:30:00 AM 9.72 49.496 0.659 6.16 103.4 -99999.99
11/8/2021 10:45:00 AM 9.84 49.712 0.659 6.28 104.9 -99999.99
11/8/2021 11:00:00 AM 9.97 49.946 0.658 5.68 106.2 -99999.99
11/8/2021 11:15:00 AM 10.09 50.162 0.659 7.94 107.4 -99999.99
11/8/2021 11:30:00 AM 10.21 50.378 0.659 7.08 108.4 -99999.99
11/8/2021 11:45:00 AM 10.31 50.558 0.66 7.01 109.3 -99999.99
11/8/2021 12:00:00 PM 10.41 50.738 0.661 6.16 110.1 -99999.99
11/8/2021 12:15:00 PM 10.51 50.918 0.661 7.73 110.9 -99999.99
11/8/2021 12:30:00 PM 10.6 51.08 0.661 6.61 111.5 -99999.99
11/8/2021 12:45:00 PM 10.68 51.224 0.662 7.42 111.9 -99999.99
11/8/2021 1:00:00 PM 10.77 51.386 0.661 6.59 112.4 -99999.99
11/8/2021 1:15:00 PM 10.87 51.566 0.66 8.01 113.1 -99999.99
11/8/2021 1:30:00 PM 10.97 51.746 0.66 6.83 113.2 -99999.99
11/8/2021 1:45:00 PM 11.04 51.872 0.659 7.16 113.3 -99999.99
11/8/2021 2:00:00 PM 11.1 51.98 0.658 7.02 113.7 -99999.99
11/8/2021 2:15:00 PM 11.12 52.016 0.658 8.12 113.4 -99999.99
11/8/2021 2:30:00 PM 11.15 52.07 0.658 7.28 113.1 -99999.99
11/8/2021 2:45:00 PM 11.16 52.088 0.657 8.27 112.9 -99999.99
11/8/2021 3:00:00 PM 11.16 52.088 0.657 7.52 112.2 -99999.99
11/8/2021 3:15:00 PM 11.15 52.07 0.656 7.74 111.6 -99999.99
11/8/2021 3:30:00 PM 11.14 52.052 0.656 7.42 110.8 -99999.99
11/8/2021 3:45:00 PM 11.12 52.016 0.655 6.8 109.8 -99999.99
11/8/2021 4:00:00 PM 11.1 51.98 0.655 7.57 108.6 -99999.99
11/8/2021 4:15:00 PM 11.09 51.962 0.655 7.57 107.3 -99999.99
11/8/2021 4:30:00 PM 11.07 51.926 0.655 7.57 106 -99999.99
11/8/2021 4:45:00 PM 11.06 51.908 0.655 8.26 104.7 -99999.99
11/8/2021 5:00:00 PM 11.04 51.872 0.655 7.28 103.5 -99999.99
11/8/2021 5:15:00 PM 11.03 51.854 0.655 6.32 102.2 -99999.99
11/8/2021 5:30:00 PM 11.01 51.818 0.655 8.15 101.3 -99999.99
11/8/2021 5:45:00 PM 11 51.8 0.655 6.89 100.2 -99999.99
11/8/2021 6:00:00 PM 10.98 51.764 0.655 7.63 99.4 -99999.99
11/8/2021 6:15:00 PM 10.96 51.728 0.655 8.24 98.7 -99999.99
11/8/2021 6:30:00 PM 10.94 51.692 0.655 7.59 98.1 -99999.99
11/8/2021 6:45:00 PM 10.92 51.656 0.655 6.97 97.4 -99999.99
11/8/2021 7:00:00 PM 10.9 51.62 0.655 7.63 96.9 -99999.99
11/8/2021 7:15:00 PM 10.88 51.584 0.655 7.74 96 -99999.99
11/8/2021 7:30:00 PM 10.86 51.548 0.655 8.34 95.7 -99999.99
11/8/2021 7:45:00 PM 10.84 51.512 0.656 7.88 95.2 -99999.99
11/8/2021 8:00:00 PM 10.81 51.458 0.656 7.26 94.8 -99999.99
11/8/2021 8:15:00 PM 10.79 51.422 0.656 8.17 94.4 -99999.99
11/8/2021 8:30:00 PM 10.77 51.386 0.656 7.52 93.9 -99999.99
11/8/2021 8:45:00 PM 10.75 51.35 0.656 7.68 93.6 -99999.99
11/8/2021 9:00:00 PM 10.73 51.314 0.657 7.21 93.2 -99999.99
11/8/2021 9:15:00 PM 10.72 51.296 0.657 8.25 92.9 -99999.99
11/8/2021 9:30:00 PM 10.7 51.26 0.657 8.28 92.6 -99999.99
11/8/2021 9:45:00 PM 10.69 51.242 0.657 7.32 92.3 -99999.99
11/8/2021 10:00:00 PM 10.68 51.224 0.658 7.21 91.9 -99999.99
11/8/2021 10:15:00 PM 10.67 51.206 0.658 7.55 91.6 -99999.99
11/8/2021 10:30:00 PM 10.66 51.188 0.658 6.9 91.3 -99999.99
11/8/2021 10:45:00 PM 10.64 51.152 0.659 7.93 90.9 -99999.99
11/8/2021 11:00:00 PM 10.63 51.134 0.659 7.75 90.6 -99999.99
11/8/2021 11:15:00 PM 10.62 51.116 0.66 7.06 90.3 -99999.99
11/8/2021 11:30:00 PM 10.6 51.08 0.66 7.82 90 -99999.99
11/8/2021 11:45:00 PM 10.59 51.062 0.661 7.34 89.8 -99999.99
11/9/2021 12:00:00 AM 10.58 51.044 0.661 6.23 89.5 -99999.99
11/9/2021 12:15:00 AM 10.56 51.008 0.662 7.22 89.1 -99999.99
11/9/2021 12:30:00 AM 10.55 50.99 0.662 7.96 88.8 -99999.99
11/9/2021 12:45:00 AM 10.53 50.954 0.662 8.2 88.6 -99999.99
11/9/2021 1:00:00 AM 10.52 50.936 0.663 7.02 88.5 -99999.99
11/9/2021 1:15:00 AM 10.51 50.918 0.663 7.61 88.2 -99999.99
11/9/2021 1:30:00 AM 10.49 50.882 0.663 6.72 87.8 -99999.99
11/9/2021 1:45:00 AM 10.48 50.864 0.664 7.42 87.9 -99999.99
11/9/2021 2:00:00 AM 10.46 50.828 0.664 6.97 87.8 -99999.99
11/9/2021 2:15:00 AM 10.44 50.792 0.664 7.15 87.6 -99999.99
11/9/2021 2:30:00 AM 10.42 50.756 0.664 8.45 87.5 -99999.99
11/9/2021 2:45:00 AM 10.39 50.702 0.664 11.3 87.5 -99999.99
11/9/2021 3:00:00 AM 10.37 50.666 0.664 7.27 87.4 -99999.99
11/9/2021 3:15:00 AM 10.34 50.612 0.664 7.96 87.5 -99999.99
11/9/2021 3:30:00 AM 10.31 50.558 0.664 8.26 87.4 -99999.99
11/9/2021 3:45:00 AM 10.27 50.486 0.663 8.27 87.6 -99999.99
11/9/2021 4:00:00 AM 10.24 50.432 0.663 8.81 87.6 -99999.99
11/9/2021 4:15:00 AM 10.2 50.36 0.662 8.21 87.6 -99999.99
11/9/2021 4:30:00 AM 10.17 50.306 0.662 7.27 87.7 -99999.99
11/9/2021 4:45:00 AM 10.14 50.252 0.662 8.22 87.5 -99999.99
11/9/2021 5:00:00 AM 10.1 50.18 0.662 7.94 87.6 -99999.99
11/9/2021 5:15:00 AM 10.07 50.126 0.661 7.63 87.7 -99999.99
11/9/2021 5:30:00 AM 10.04 50.072 0.661 8.65 87.6 -99999.99
11/9/2021 5:45:00 AM 10.01 50.018 0.661 8.6 87.4 -99999.99
11/9/2021 6:00:00 AM 9.98 49.964 0.661 8.74 87.6 -99999.99
11/9/2021 6:15:00 AM 9.96 49.928 0.661 8.11 87.5 -99999.99
11/9/2021 6:30:00 AM 9.93 49.874 0.661 7.84 87.6 -99999.99
11/9/2021 6:45:00 AM 9.91 49.838 0.661 9.03 87.6 -99999.99
11/9/2021 7:00:00 AM 9.89 49.802 0.661 8.77 87.6 -99999.99
11/9/2021 7:15:00 AM 9.87 49.766 0.66 8.08 87.9 -99999.99
11/9/2021 7:30:00 AM 9.86 49.748 0.66 8.9 88.4 -99999.99
11/9/2021 7:45:00 AM 9.86 49.748 0.66 9.55 89 -99999.99
11/9/2021 8:00:00 AM 9.87 49.766 0.659 8.19 90 -99999.99
11/9/2021 8:15:00 AM 9.9 49.82 0.657 8.46 91 -99999.99
11/9/2021 8:30:00 AM 9.93 49.874 0.656 8.56 92.4 -99999.99
11/9/2021 8:45:00 AM 9.97 49.946 0.656 8.56 93.8 -99999.99
11/9/2021 9:00:00 AM 10.02 50.036 0.655 8.33 95.2 -99999.99
11/9/2021 9:15:00 AM 10.09 50.162 0.655 8.48 96.8 -99999.99
11/9/2021 9:30:00 AM 10.17 50.306 0.655 8.71 98.3 -99999.99
11/9/2021 9:45:00 AM 10.27 50.486 0.654 7.51 99.7 -99999.99
11/9/2021 10:00:00 AM 10.37 50.666 0.654 8.86 101.1 -99999.99
11/9/2021 10:15:00 AM 10.47 50.846 0.654 8.79 102.5 -99999.99
11/9/2021 10:30:00 AM 10.58 51.044 0.654 8.89 103.6 -99999.99
11/9/2021 10:45:00 AM 10.69 51.242 0.653 8.95 104.9 -99999.99
11/9/2021 11:00:00 AM 10.8 51.44 0.653 9.23 106.3 -99999.99
11/9/2021 11:15:00 AM 10.92 51.656 0.653 9.02 107.5 -99999.99
11/9/2021 11:30:00 AM 11.03 51.854 0.653 8.38 108.4 -99999.99
11/9/2021 11:45:00 AM 11.13 52.034 0.653 8.23 109.4 -99999.99
11/9/2021 12:00:00 PM 11.23 52.214 0.653 9.39 110.1 -99999.99
11/9/2021 12:15:00 PM 11.32 52.376 0.653 9.1 110.8 -99999.99
11/9/2021 12:30:00 PM 11.41 52.538 0.653 9.41 111.5 -99999.99
11/9/2021 12:45:00 PM 11.49 52.682 0.653 9.21 112 -99999.99
11/9/2021 1:00:00 PM 11.56 52.808 0.653 8.45 112.4 -99999.99
11/9/2021 1:15:00 PM 11.62 52.916 0.653 8.76 112.7 -99999.99
11/9/2021 1:30:00 PM 11.67 53.006 0.653 8.03 113.2 -99999.99
11/9/2021 1:45:00 PM 11.71 53.078 0.653 8.8 113.4 -99999.99
11/9/2021 2:00:00 PM 11.74 53.132 0.652 7.91 113.4 -99999.99
11/9/2021 2:15:00 PM 11.76 53.168 0.652 8.91 113.2 -99999.99
11/9/2021 2:30:00 PM 11.77 53.186 0.652 9.17 112.8 -99999.99
11/9/2021 2:45:00 PM 11.77 53.186 0.652 8.54 112.4 -99999.99
11/9/2021 3:00:00 PM 11.76 53.168 0.652 8.21 112 -99999.99
11/9/2021 3:15:00 PM 11.75 53.15 0.652 8.65 111 -99999.99
11/9/2021 3:30:00 PM 11.73 53.114 0.652 9.16 110.3 -99999.99
11/9/2021 3:45:00 PM 11.71 53.078 0.652 7.47 109.2 -99999.99
11/9/2021 4:00:00 PM 11.69 53.042 0.652 7.47 108.2 -99999.99
11/9/2021 4:15:00 PM 11.66 52.988 0.652 8.19 106.8 -99999.99
11/9/2021 4:30:00 PM 11.64 52.952 0.652 8.12 105.3 -99999.99
11/9/2021 4:45:00 PM 11.62 52.916 0.652 8.3 103.9 -99999.99
11/9/2021 5:00:00 PM 11.61 52.898 0.652 8.92 102.8 -99999.99
11/9/2021 5:15:00 PM 11.6 52.88 0.652 8.65 101.2 -99999.99
11/9/2021 5:30:00 PM 11.59 52.862 0.652 7.84 100.4 -99999.99
11/9/2021 5:45:00 PM 11.59 52.862 0.653 10.45 99.5 -99999.99
11/9/2021 6:00:00 PM 11.58 52.844 0.653 10.63 98.6 -99999.99
11/9/2021 6:15:00 PM 11.58 52.844 0.653 9.33 97.9 -99999.99
11/9/2021 6:30:00 PM 11.57 52.826 0.653 9.38 97.2 -99999.99
11/9/2021 6:45:00 PM 11.56 52.808 0.653 9.65 96.7 -99999.99
11/9/2021 7:00:00 PM 11.56 52.808 0.653 9.1 96.2 -99999.99
11/9/2021 7:15:00 PM 11.55 52.79 0.653 7 95.6 -99999.99
11/9/2021 7:30:00 PM 11.54 52.772 0.653 8.21 95.2 -99999.99
11/9/2021 7:45:00 PM 11.53 52.754 0.653 8.09 94.5 -99999.99
11/9/2021 8:00:00 PM 11.52 52.736 0.653 10.3 94.3 -99999.99
11/9/2021 8:15:00 PM 11.51 52.718 0.653 11.47 93.9 -99999.99
11/9/2021 8:30:00 PM 11.5 52.7 0.653 7.77 93.6 -99999.99
11/9/2021 8:45:00 PM 11.49 52.682 0.653 8.8 93.4 -99999.99
11/9/2021 9:00:00 PM 11.48 52.664 0.654 9.7 93 -99999.99
11/9/2021 9:15:00 PM 11.48 52.664 0.654 9.19 92.5 -99999.99
11/9/2021 9:30:00 PM 11.48 52.664 0.654 8.96 92.3 -99999.99
11/9/2021 9:45:00 PM 11.49 52.682 0.655 9.88 91.9 -99999.99
11/9/2021 10:00:00 PM 11.48 52.664 0.655 8.06 91.8 -99999.99
11/9/2021 10:15:00 PM 11.48 52.664 0.655 8.77 91.5 -99999.99
11/9/2021 10:30:00 PM 11.48 52.664 0.655 9.88 91.1 -99999.99
11/9/2021 10:45:00 PM 11.48 52.664 0.656 7.91 91 -99999.99
11/9/2021 11:00:00 PM 11.47 52.646 0.656 9.48 90.9 -99999.99
11/9/2021 11:15:00 PM 11.47 52.646 0.657 9.08 90.5 -99999.99
11/9/2021 11:30:00 PM 11.47 52.646 0.657 8.93 90.1 -99999.99
11/9/2021 11:45:00 PM 11.47 52.646 0.658 10.89 90 -99999.99
11/10/2021 12:00:00 AM 11.46 52.628 0.658 9.73 89.6 -99999.99
11/10/2021 12:15:00 AM 11.45 52.61 0.658 10.68 89.4 -99999.99
11/10/2021 12:30:00 AM 11.44 52.592 0.659 10.45 89.2 -99999.99
11/10/2021 12:45:00 AM 11.43 52.574 0.659 10.86 89.1 -99999.99
11/10/2021 1:00:00 AM 11.43 52.574 0.659 9.84 88.9 -99999.99
11/10/2021 1:15:00 AM 11.43 52.574 0.659 9.58 88.8 -99999.99
11/10/2021 1:30:00 AM 11.43 52.574 0.659 7.57 88.7 -99999.99
11/10/2021 1:45:00 AM 11.43 52.574 0.66 11.01 88.5 -99999.99
11/10/2021 2:00:00 AM 11.43 52.574 0.66 10.19 88.5 -99999.99
11/10/2021 2:15:00 AM 11.43 52.574 0.66 10.92 88.4 -99999.99
11/10/2021 2:30:00 AM 11.42 52.556 0.66 8.64 88.3 -99999.99
11/10/2021 2:45:00 AM 11.42 52.556 0.66 9.17 88.2 -99999.99
11/10/2021 3:00:00 AM 11.41 52.538 0.66 9.64 88.2 -99999.99
11/10/2021 3:15:00 AM 11.41 52.538 0.66 8.29 88.1 -99999.99
11/10/2021 3:30:00 AM 11.4 52.52 0.66 9.25 87.9 -99999.99
11/10/2021 3:45:00 AM 11.4 52.52 0.659 8.9 88.1 -99999.99
11/10/2021 4:00:00 AM 11.4 52.52 0.659 10.67 87.8 -99999.99
11/10/2021 4:15:00 AM 11.39 52.502 0.659 9.8 87.7 -99999.99
11/10/2021 4:30:00 AM 11.39 52.502 0.659 10.05 87.8 -99999.99
11/10/2021 4:45:00 AM 11.38 52.484 0.659 12.29 87.7 -99999.99
11/10/2021 5:00:00 AM 11.37 52.466 0.659 10.18 87.7 -99999.99
11/10/2021 5:15:00 AM 11.36 52.448 0.659 8.25 87.7 -99999.99
11/10/2021 5:30:00 AM 11.35 52.43 0.659 10.6 87.7 -99999.99
11/10/2021 5:45:00 AM 11.34 52.412 0.659 11.68 87.6 -99999.99
11/10/2021 6:00:00 AM 11.32 52.376 0.659 10.18 87.6 -99999.99
11/10/2021 6:15:00 AM 11.3 52.34 0.659 10.86 87.8 -99999.99
11/10/2021 6:30:00 AM 11.28 52.304 0.658 12.35 87.7 -99999.99
11/10/2021 6:45:00 AM 11.26 52.268 0.658 9.86 87.6 -99999.99
11/10/2021 7:00:00 AM 11.24 52.232 0.658 12.63 87.9 -99999.99
11/10/2021 7:15:00 AM 11.21 52.178 0.657 9.96 88 -99999.99
11/10/2021 7:30:00 AM 11.2 52.16 0.657 9.42 88.4 -99999.99
11/10/2021 7:45:00 AM 11.19 52.142 0.657 10.25 89 -99999.99
11/10/2021 8:00:00 AM 11.18 52.124 0.657 8.27 89.9 -99999.99
11/10/2021 8:15:00 AM 11.18 52.124 0.656 11.5 90.7 -99999.99
11/10/2021 8:30:00 AM 11.2 52.16 0.656 10.67 91.8 -99999.99
11/10/2021 8:45:00 AM 11.23 52.214 0.656 10.18 92.9 -99999.99
11/10/2021 9:00:00 AM 11.28 52.304 0.656 11.01 94.4 -99999.99
11/10/2021 9:15:00 AM 11.34 52.412 0.656 9.22 96.1 -99999.99
11/10/2021 9:30:00 AM 11.39 52.502 0.655 8.35 97.6 -99999.99
11/10/2021 9:45:00 AM 11.43 52.574 0.655 8.33 98.9 -99999.99
11/10/2021 10:00:00 AM 11.48 52.664 0.654 9.48 100.2 -99999.99
11/10/2021 10:15:00 AM 11.54 52.772 0.654 11.01 101.6 -99999.99
11/10/2021 10:30:00 AM 11.63 52.934 0.653 8.81 103.4 -99999.99
11/10/2021 10:45:00 AM 11.71 53.078 0.653 9.82 104.7 -99999.99
11/10/2021 11:00:00 AM 11.83 53.294 0.653 8.88 106.2 -99999.99
11/10/2021 11:15:00 AM 11.95 53.51 0.653 9.56 107.7 -99999.99
11/10/2021 11:30:00 AM 12.07 53.726 0.653 9.42 108.9 -99999.99
11/10/2021 11:45:00 AM 12.18 53.924 0.653 10.08 110.2 -99999.99
11/10/2021 12:00:00 PM 12.28 54.104 0.653 10.16 111.1 -99999.99
11/10/2021 12:15:00 PM 12.36 54.248 0.653 8.75 112.2 -99999.99
11/10/2021 12:30:00 PM 12.43 54.374 0.653 10.59 112.9 -99999.99
11/10/2021 12:45:00 PM 12.49 54.482 0.653 8.73 113.4 -99999.99
11/10/2021 1:00:00 PM 12.55 54.59 0.653 9.19 113.8 -99999.99
11/10/2021 1:15:00 PM 12.59 54.662 0.653 10.54 114.3 -99999.99
11/10/2021 1:30:00 PM 12.61 54.698 0.653 7.3 114.7 -99999.99
11/10/2021 1:45:00 PM 12.64 54.752 0.653 7 114.9 -99999.99
11/10/2021 2:00:00 PM 12.64 54.752 0.653 8.28 114.7 -99999.99
11/10/2021 2:15:00 PM 12.63 54.734 0.653 9.49 114.4 -99999.99
11/10/2021 2:30:00 PM 12.61 54.698 0.653 8.24 114.1 -99999.99
11/10/2021 2:45:00 PM 12.59 54.662 0.653 7.87 113.5 -99999.99
11/10/2021 3:00:00 PM 12.57 54.626 0.654 9.39 112.9 -99999.99
11/10/2021 3:15:00 PM 12.53 54.554 0.654 7.28 112 -99999.99
11/10/2021 3:30:00 PM 12.49 54.482 0.654 9.09 110.7 -99999.99
11/10/2021 3:45:00 PM 12.45 54.41 0.654 10.1 109.7 -99999.99
11/10/2021 4:00:00 PM 12.4 54.32 0.654 8.09 108.2 -99999.99
11/10/2021 4:15:00 PM 12.36 54.248 0.654 9.42 106.8 -99999.99
11/10/2021 4:30:00 PM 12.32 54.176 0.654 9.32 105.4 -99999.99
11/10/2021 4:45:00 PM 12.28 54.104 0.654 4.73 104.1 -99999.99
11/10/2021 5:00:00 PM 12.23 54.014 0.654 10.71 102.6 -99999.99
11/10/2021 5:15:00 PM 12.19 53.942 0.654 8.85 101.3 -99999.99
11/10/2021 5:30:00 PM 12.16 53.888 0.654 8.26 100.3 -99999.99
11/10/2021 5:45:00 PM 12.12 53.816 0.654 7.59 98.9 -99999.99
11/10/2021 6:00:00 PM 12.08 53.744 0.654 8.08 98.4 -99999.99
11/10/2021 6:15:00 PM 12.04 53.672 0.654 8.3 97.8 -99999.99
11/10/2021 6:30:00 PM 12 53.6 0.654 7.63 96.9 -99999.99
11/10/2021 6:45:00 PM 11.96 53.528 0.654 6.32 96.4 -99999.99
11/10/2021 7:00:00 PM 11.91 53.438 0.654 9.06 95.9 -99999.99
11/10/2021 7:15:00 PM 11.87 53.366 0.654 8.52 95.3 -99999.99
11/10/2021 7:30:00 PM 11.83 53.294 0.654 9.52 94.8 -99999.99
11/10/2021 7:45:00 PM 11.79 53.222 0.654 10.04 94.4 -99999.99
11/10/2021 8:00:00 PM 11.75 53.15 0.654 10 94.1 -99999.99
11/10/2021 8:15:00 PM 11.71 53.078 0.654 6.82 93.8 -99999.99
11/10/2021 8:30:00 PM 11.67 53.006 0.654 8.21 93.3 -99999.99
11/10/2021 8:45:00 PM 11.64 52.952 0.655 7.92 93 -99999.99
11/10/2021 9:00:00 PM 11.61 52.898 0.655 9.67 92.8 -99999.99
11/10/2021 9:15:00 PM 11.57 52.826 0.655 7.98 92.6 -99999.99
11/10/2021 9:30:00 PM 11.54 52.772 0.656 8.71 92.3 -99999.99
11/10/2021 9:45:00 PM 11.51 52.718 0.656 9.62 92 -99999.99
11/10/2021 10:00:00 PM 11.47 52.646 0.656 9.25 91.9 -99999.99
11/10/2021 10:15:00 PM 11.44 52.592 0.656 8.13 91.5 -99999.99
11/10/2021 10:30:00 PM 11.41 52.538 0.657 8.27 91.4 -99999.99
11/10/2021 10:45:00 PM 11.38 52.484 0.657 9.18 91.1 -99999.99
11/10/2021 11:00:00 PM 11.35 52.43 0.657 8.91 90.8 -99999.99
11/10/2021 11:15:00 PM 11.32 52.376 0.658 7.53 90.6 -99999.99
11/10/2021 11:30:00 PM 11.3 52.34 0.659 9.49 90.5 -99999.99
11/10/2021 11:45:00 PM 11.28 52.304 0.659 9.12 90.3 -99999.99
11/11/2021 12:00:00 AM 11.25 52.25 0.66 8.22 90.1 -99999.99
11/11/2021 12:15:00 AM 11.23 52.214 0.66 8.28 89.9 -99999.99
11/11/2021 12:30:00 AM 11.21 52.178 0.661 10.4 89.7 -99999.99
11/11/2021 12:45:00 AM 11.19 52.142 0.661 8.05 89.5 -99999.99
11/11/2021 1:00:00 AM 11.18 52.124 0.661 8.31 89.3 -99999.99
11/11/2021 1:15:00 AM 11.18 52.124 0.661 8.21 89.4 -99999.99
11/11/2021 1:30:00 AM 11.18 52.124 0.661 8.41 89.4 -99999.99
11/11/2021 1:45:00 AM 11.18 52.124 0.661 7.5 89.4 -99999.99
11/11/2021 2:00:00 AM 11.17 52.106 0.661 8.12 89.3 -99999.99
11/11/2021 2:15:00 AM 11.17 52.106 0.66 8.86 89.4 -99999.99
11/11/2021 2:30:00 AM 11.16 52.088 0.66 5.41 89.3 -99999.99
11/11/2021 2:45:00 AM 11.16 52.088 0.66 7.91 89.4 -99999.99
11/11/2021 3:00:00 AM 11.15 52.07 0.66 9.03 89.5 -99999.99
11/11/2021 3:15:00 AM 11.14 52.052 0.66 8.2 89.3 -99999.99
11/11/2021 3:30:00 AM 11.11 51.998 0.66 8.2 89.4 -99999.99
11/11/2021 3:45:00 AM 11.08 51.944 0.659 8.64 89.4 -99999.99
11/11/2021 4:00:00 AM 11.04 51.872 0.659 8.18 89.4 -99999.99
11/11/2021 4:15:00 AM 11 51.8 0.659 8.72 89.4 -99999.99
11/11/2021 4:30:00 AM 10.97 51.746 0.658 7.44 89.4 -99999.99
11/11/2021 4:45:00 AM 10.93 51.674 0.658 9.64 89.5 -99999.99
11/11/2021 5:00:00 AM 10.89 51.602 0.658 8.97 89.4 -99999.99
11/11/2021 5:15:00 AM 10.85 51.53 0.658 8.64 89.5 -99999.99
11/11/2021 5:30:00 AM 10.81 51.458 0.658 8.64 89.5 -99999.99
11/11/2021 5:45:00 AM 10.78 51.404 0.658 8.12 89.5 -99999.99
11/11/2021 6:00:00 AM 10.74 51.332 0.657 8.72 89.6 -99999.99
11/11/2021 6:15:00 AM 10.71 51.278 0.657 6.73 89.6 -99999.99
11/11/2021 6:30:00 AM 10.67 51.206 0.657 8.91 89.6 -99999.99
11/11/2021 6:45:00 AM 10.64 51.152 0.657 11.67 89.6 -99999.99
11/11/2021 7:00:00 AM 10.6 51.08 0.657 9.16 89.8 -99999.99
11/11/2021 7:15:00 AM 10.57 51.026 0.656 9.01 90.1 -99999.99
11/11/2021 7:30:00 AM 10.55 50.99 0.656 8.53 90.5 -99999.99
11/11/2021 7:45:00 AM 10.53 50.954 0.656 8.06 90.9 -99999.99
11/11/2021 8:00:00 AM 10.52 50.936 0.656 8.45 91.9 -99999.99
11/11/2021 8:15:00 AM 10.53 50.954 0.656 8.39 92.9 -99999.99
11/11/2021 8:30:00 AM 10.55 50.99 0.656 8.6 94.6 -99999.99
11/11/2021 8:45:00 AM 10.58 51.044 0.655 6.39 95.9 -99999.99
11/11/2021 9:00:00 AM 10.63 51.134 0.655 8.97 97.7 -99999.99
11/11/2021 9:15:00 AM 10.67 51.206 0.655 9.66 99 -99999.99
11/11/2021 9:30:00 AM 10.72 51.296 0.655 7.78 100.3 -99999.99
11/11/2021 9:45:00 AM 10.78 51.404 0.654 7.76 102.1 -99999.99
11/11/2021 10:00:00 AM 10.85 51.53 0.654 19.36 103.7 -99999.99
11/11/2021 10:15:00 AM 10.92 51.656 0.654 18.78 105.4 -99999.99
11/11/2021 10:30:00 AM 11.01 51.818 0.653 11.63 107.3 -99999.99
11/11/2021 10:45:00 AM 11.11 51.998 0.653 11.18 109 -99999.99
11/11/2021 11:00:00 AM 11.18 52.124 0.652 14.26 110.5 -99999.99
11/11/2021 11:15:00 AM 11.24 52.232 0.652 11.73 111.8 -99999.99
11/11/2021 11:30:00 AM 11.3 52.34 0.652 10.61 112.8 -99999.99
11/11/2021 11:45:00 AM 11.37 52.466 0.651 9.98 113.8 -99999.99
11/11/2021 12:00:00 PM 11.43 52.574 0.651 10.94 114.9 -99999.99
11/11/2021 12:15:00 PM 11.51 52.718 0.651 9.25 116.1 -99999.99
11/11/2021 12:30:00 PM 11.58 52.844 0.651 11.42 117.2 -99999.99
11/11/2021 12:45:00 PM 11.65 52.97 0.651 9.99 117.8 -99999.99
11/11/2021 1:00:00 PM 11.68 53.024 0.651 9.51 118.4 -99999.99
11/11/2021 1:15:00 PM 11.75 53.15 0.651 8.51 118.6 -99999.99
11/11/2021 1:30:00 PM 11.82 53.276 0.651 10.21 119.1 -99999.99
11/11/2021 1:45:00 PM 11.82 53.276 0.651 9.87 118.8 -99999.99
11/11/2021 2:00:00 PM 11.83 53.294 0.651 10.6 118.3 -99999.99
11/11/2021 2:15:00 PM 11.87 53.366 0.651 11.05 117.8 -99999.99
11/11/2021 2:30:00 PM 11.88 53.384 0.651 10.96 117.3 -99999.99
11/11/2021 2:45:00 PM 11.89 53.402 0.651 9.3 116.8 -99999.99
11/11/2021 3:00:00 PM 11.89 53.402 0.651 13.74 116.1 -99999.99
11/11/2021 3:15:00 PM 11.9 53.42 0.651 10.25 115.7 -99999.99
11/11/2021 3:30:00 PM 11.92 53.456 0.651 11.38 115.7 -99999.99
11/11/2021 3:45:00 PM 11.9 53.42 0.651 9.02 115.1 -99999.99
11/11/2021 4:00:00 PM 11.9 53.42 0.651 10.17 113.6 -99999.99
11/11/2021 4:15:00 PM 11.91 53.438 0.651 10.6 112.7 -99999.99
11/11/2021 4:30:00 PM 11.89 53.402 0.651 8.79 111.3 -99999.99
11/11/2021 4:45:00 PM 11.87 53.366 0.651 9.73 109.7 -99999.99
11/11/2021 5:00:00 PM 11.85 53.33 0.651 8.73 108 -99999.99
11/11/2021 5:15:00 PM 11.82 53.276 0.651 9.35 106.2 -99999.99
11/11/2021 5:30:00 PM 11.79 53.222 0.651 10.2 104.4 -99999.99
11/11/2021 5:45:00 PM 11.77 53.186 0.651 8.1 102.9 -99999.99
11/11/2021 6:00:00 PM 11.75 53.15 0.652 10.42 101.8 -99999.99
11/11/2021 6:15:00 PM 11.75 53.15 0.653 7.74 100.5 -99999.99
11/11/2021 6:30:00 PM 11.75 53.15 0.655 5.9 99.7 -99999.99
11/11/2021 6:45:00 PM 11.76 53.168 0.655 6.56 98.8 -99999.99
11/11/2021 7:00:00 PM 11.77 53.186 0.656 4.42 98.1 -99999.99
11/11/2021 7:15:00 PM 11.79 53.222 0.656 4.8 97.4 -99999.99
11/11/2021 7:30:00 PM 11.8 53.24 0.656 3.35 96.8 -99999.99
11/11/2021 7:45:00 PM 11.8 53.24 0.656 3.81 96.2 -99999.99
11/11/2021 8:00:00 PM 11.8 53.24 0.656 3.67 95.6 -99999.99
11/11/2021 8:15:00 PM 11.81 53.258 0.656 5.63 95.1 -99999.99
11/11/2021 8:30:00 PM 11.82 53.276 0.656 3.6 94.7 -99999.99
11/11/2021 8:45:00 PM 11.83 53.294 0.656 3.5 94.1 -99999.99
11/11/2021 9:00:00 PM 11.86 53.348 0.656 4.23 93.5 -99999.99
11/11/2021 9:15:00 PM 11.88 53.384 0.657 3.2 93.2 -99999.99
11/11/2021 9:30:00 PM 11.91 53.438 0.657 3.37 92.8 -99999.99
11/11/2021 9:45:00 PM 11.94 53.492 0.657 3.06 92.3 -99999.99
11/11/2021 10:00:00 PM 11.96 53.528 0.657 3.06 92.1 -99999.99
11/11/2021 10:15:00 PM 11.98 53.564 0.657 3.03 91.7 -99999.99
11/11/2021 10:30:00 PM 12 53.6 0.657 3.06 91.4 -99999.99
11/11/2021 10:45:00 PM 12.01 53.618 0.657 2.94 91 -99999.99
11/11/2021 11:00:00 PM 12.03 53.654 0.656 2.82 90.9 -99999.99
11/11/2021 11:15:00 PM 12.04 53.672 0.658 3.12 90.6 -99999.99
11/11/2021 11:30:00 PM 12.05 53.69 0.658 2.6 90.3 -99999.99
11/11/2021 11:45:00 PM 12.05 53.69 0.658 2.55 89.9 -99999.99
11/12/2021 12:00:00 AM 12.06 53.708 0.658 2.67 89.7 -99999.99
11/12/2021 12:15:00 AM 12.06 53.708 0.658 2.71 89.4 -99999.99
11/12/2021 12:30:00 AM 12.07 53.726 0.659 2.82 89 -99999.99
11/12/2021 12:45:00 AM 12.07 53.726 0.659 3.35 88.9 -99999.99
11/12/2021 1:00:00 AM 12.07 53.726 0.659 2.78 88.7 -99999.99
11/12/2021 1:15:00 AM 12.07 53.726 0.659 3.28 88.4 -99999.99
11/12/2021 1:30:00 AM 12.08 53.744 0.659 3.45 88.2 -99999.99
11/12/2021 1:45:00 AM 12.09 53.762 0.659 3.53 88 -99999.99
11/12/2021 2:00:00 AM 12.11 53.798 0.659 3.32 88 -99999.99
11/12/2021 2:15:00 AM 12.13 53.834 0.659 3.47 88 -99999.99
11/12/2021 2:30:00 AM 12.15 53.87 0.659 3.35 87.9 -99999.99
11/12/2021 2:45:00 AM 12.17 53.906 0.659 3.45 87.6 -99999.99
11/12/2021 3:00:00 AM 12.2 53.96 0.659 2.79 87.5 -99999.99
11/12/2021 3:15:00 AM 12.21 53.978 0.659 3.26 87.6 -99999.99
11/12/2021 3:30:00 AM 12.23 54.014 0.658 3.37 87.4 -99999.99
11/12/2021 3:45:00 AM 12.26 54.068 0.658 2.62 87.4 -99999.99
11/12/2021 4:00:00 AM 12.28 54.104 0.655 3.42 87.6 -99999.99
11/12/2021 4:15:00 AM 12.31 54.158 0.652 3.11 87.7 -99999.99
11/12/2021 4:30:00 AM 12.34 54.212 0.649 4.25 87.9 -99999.99
11/12/2021 4:45:00 AM 12.37 54.266 0.647 3.85 87.8 -99999.99
11/12/2021 5:00:00 AM 12.39 54.302 0.646 5.23 87.8 -99999.99
11/12/2021 5:15:00 AM 12.42 54.356 0.644 4.65 87.8 -99999.99
11/12/2021 5:30:00 AM 12.45 54.41 0.643 4.59 87.6 -99999.99
11/12/2021 5:45:00 AM 12.48 54.464 0.64 5.22 87.6 -99999.99
11/12/2021 6:00:00 AM 12.5 54.5 0.638 5.66 87.5 -99999.99
11/12/2021 6:15:00 AM 12.53 54.554 0.636 6.46 87.4 -99999.99
11/12/2021 6:30:00 AM 12.54 54.572 0.633 6.9 87.2 -99999.99
11/12/2021 6:45:00 AM 12.58 54.644 0.625 7.19 88 -99999.99
11/12/2021 7:00:00 AM 12.6 54.68 0.62 8.3 88 -99999.99
11/12/2021 7:15:00 AM 12.6 54.68 0.618 11.74 87.7 -99999.99
11/12/2021 7:30:00 AM 12.6 54.68 0.613 19.26 87.3 -99999.99
11/12/2021 7:45:00 AM 12.59 54.662 0.607 26.75 86.9 -99999.99
11/12/2021 8:00:00 AM 12.58 54.644 0.601 25.25 86.9 -99999.99
11/12/2021 8:15:00 AM 12.57 54.626 0.593 25.4 87.3 -99999.99
11/12/2021 8:30:00 AM 12.56 54.608 0.588 24.46 87.7 -99999.99
11/12/2021 8:45:00 AM 12.57 54.626 0.587 17.92 87.9 -99999.99
11/12/2021 9:00:00 AM 12.6 54.68 0.583 17.28 88.1 -99999.99
11/12/2021 9:15:00 AM 12.62 54.716 0.58 14.64 88 -99999.99
11/12/2021 9:30:00 AM 12.66 54.788 0.58 15.38 87.6 -99999.99
11/12/2021 9:45:00 AM 12.71 54.878 0.576 13.55 87 -99999.99
11/12/2021 10:00:00 AM 12.75 54.95 0.569 18.94 86.3 -99999.99
11/12/2021 10:15:00 AM 12.81 55.058 0.566 17.16 85.7 -99999.99
11/12/2021 10:30:00 AM 12.88 55.184 0.564 21.88 85.8 -99999.99
11/12/2021 10:45:00 AM 12.97 55.346 0.562 26.37 86.1 -99999.99
11/12/2021 11:00:00 AM 13.07 55.526 0.553 23.47 86.3 -99999.99
11/12/2021 11:15:00 AM 13.16 55.688 0.548 24.43 86.5 -99999.99
11/12/2021 11:30:00 AM 13.24 55.832 0.55 22.88 86.2 -99999.99
11/12/2021 11:45:00 AM 13.34 56.012 0.547 32.53 86.3 -99999.99
11/12/2021 12:00:00 PM 13.43 56.174 0.545 33.9 86.1 -99999.99
11/12/2021 12:15:00 PM 13.52 56.336 0.546 31.3 86.1 -99999.99
11/12/2021 12:30:00 PM 13.6 56.48 0.532 44.1 85.5 -99999.99
11/12/2021 12:45:00 PM 13.69 56.642 0.493 49.79 84.7 -99999.99
11/12/2021 1:00:00 PM 13.75 56.75 0.443 37.69 83.9 -99999.99
11/12/2021 1:15:00 PM 13.84 56.912 0.399 37.04 83.4 -99999.99
11/12/2021 1:30:00 PM 13.92 57.056 0.365 41.44 83.4 -99999.99
11/12/2021 1:45:00 PM 13.99 57.182 0.343 39.41 83.6 -99999.99
11/12/2021 2:00:00 PM 14.04 57.272 0.338 28.6 84.3 -99999.99
11/12/2021 2:15:00 PM 14.02 57.236 0.337 24.16 85.1 -99999.99
11/12/2021 2:30:00 PM 13.97 57.146 0.334 28.22 85.5 -99999.99
11/12/2021 2:45:00 PM 13.94 57.092 0.333 29.99 85.8 -99999.99
11/12/2021 3:00:00 PM 13.91 57.038 0.335 24.78 85.7 -99999.99
11/12/2021 3:15:00 PM 13.87 56.966 0.337 21.52 85.4 -99999.99
11/12/2021 3:30:00 PM 13.83 56.894 0.341 23.45 85.3 -99999.99
11/12/2021 3:45:00 PM 13.79 56.822 0.343 27.85 84.7 -99999.99
11/12/2021 4:00:00 PM 13.75 56.75 0.345 24.99 84.3 -99999.99
11/12/2021 4:15:00 PM 13.71 56.678 0.349 27.04 83.7 -99999.99
11/12/2021 4:30:00 PM 13.65 56.57 0.354 28.54 83.5 -99999.99
11/12/2021 4:45:00 PM 13.59 56.462 0.36 23.89 83.1 -99999.99
11/12/2021 5:00:00 PM 13.53 56.354 0.365 32.24 82.9 -99999.99
11/12/2021 5:15:00 PM 13.47 56.246 0.37 29.13 82.7 -99999.99
11/12/2021 5:30:00 PM 13.41 56.138 0.375 28.38 82.4 -99999.99
11/12/2021 5:45:00 PM 13.36 56.048 0.38 29.09 82 -99999.99
11/12/2021 6:00:00 PM 13.31 55.958 0.386 30.08 82 -99999.99
11/12/2021 6:15:00 PM 13.26 55.868 0.391 27.01 82.1 -99999.99
11/12/2021 6:30:00 PM 13.21 55.778 0.397 28.15 82 -99999.99
11/12/2021 6:45:00 PM 13.16 55.688 0.402 25.27 82.1 -99999.99
11/12/2021 7:00:00 PM 13.11 55.598 0.408 24.52 82.1 -99999.99
11/12/2021 7:15:00 PM 13.06 55.508 0.413 27.21 82.1 -99999.99
11/12/2021 7:30:00 PM 13.01 55.418 0.419 24.16 82.3 -99999.99
11/12/2021 7:45:00 PM 12.96 55.328 0.426 22.85 82.2 -99999.99
11/12/2021 8:00:00 PM 12.91 55.238 0.433 26.15 82.3 -99999.99
11/12/2021 8:15:00 PM 12.85 55.13 0.441 22.46 82.4 -99999.99
11/12/2021 8:30:00 PM 12.79 55.022 0.448 26.18 82.4 -99999.99
11/12/2021 8:45:00 PM 12.74 54.932 0.456 18.47 82.4 -99999.99
11/12/2021 9:00:00 PM 12.68 54.824 0.463 24.74 82.6 -99999.99
11/12/2021 9:15:00 PM 12.62 54.716 0.469 21.15 82.6 -99999.99
11/12/2021 9:30:00 PM 12.55 54.59 0.474 22.79 82.5 -99999.99
11/12/2021 9:45:00 PM 12.49 54.482 0.478 18.27 82.5 -99999.99
11/12/2021 10:00:00 PM 12.43 54.374 0.482 16.62 82.4 -99999.99
11/12/2021 10:15:00 PM 12.37 54.266 0.486 16.78 82.5 -99999.99
11/12/2021 10:30:00 PM 12.32 54.176 0.489 14.93 82.3 -99999.99
11/12/2021 10:45:00 PM 12.27 54.086 0.493 17.8 82.6 -99999.99
11/12/2021 11:00:00 PM 12.21 53.978 0.495 15.05 82.5 -99999.99
11/12/2021 11:15:00 PM 12.16 53.888 0.498 19.09 82.5 -99999.99
11/12/2021 11:30:00 PM 12.11 53.798 0.5 14.95 82.5 -99999.99
11/12/2021 11:45:00 PM 12.06 53.708 0.503 16.17 82.7 -99999.99
11/13/2021 12:00:00 AM 12 53.6 0.505 19.72 82.5 -99999.99
11/13/2021 12:15:00 AM 11.95 53.51 0.507 14.33 82.7 -99999.99
11/13/2021 12:30:00 AM 11.9 53.42 0.509 14.75 83 -99999.99
11/13/2021 12:45:00 AM 11.85 53.33 0.511 14.29 82.9 -99999.99
11/13/2021 1:00:00 AM 11.8 53.24 0.513 15.07 82.9 -99999.99
11/13/2021 1:15:00 AM 11.76 53.168 0.514 14 83 -99999.99
11/13/2021 1:30:00 AM 11.71 53.078 0.516 14.01 83.3 -99999.99
11/13/2021 1:45:00 AM 11.67 53.006 0.518 12.84 83.5 -99999.99
11/13/2021 2:00:00 AM 11.62 52.916 0.52 14.59 83.8 -99999.99
11/13/2021 2:15:00 AM 11.57 52.826 0.521 12.77 84 -99999.99
11/13/2021 2:30:00 AM 11.52 52.736 0.522 12.45 84.2 -99999.99
11/13/2021 2:45:00 AM 11.46 52.628 0.524 12.29 84.3 -99999.99
11/13/2021 3:00:00 AM 11.41 52.538 0.528 12.48 84.4 -99999.99
11/13/2021 3:15:00 AM 11.36 52.448 0.532 13.96 84.4 -99999.99
11/13/2021 3:30:00 AM 11.32 52.376 0.536 14.62 84.8 -99999.99
11/13/2021 3:45:00 AM 11.28 52.304 0.539 12.99 84.8 -99999.99
11/13/2021 4:00:00 AM 11.25 52.25 0.542 14.47 85 -99999.99
11/13/2021 4:15:00 AM 11.21 52.178 0.544 11.78 85.1 -99999.99
11/13/2021 4:30:00 AM 11.18 52.124 0.546 14.25 85.2 -99999.99
11/13/2021 4:45:00 AM 11.15 52.07 0.548 12.36 85.5 -99999.99
11/13/2021 5:00:00 AM 11.12 52.016 0.55 12.71 85.6 -99999.99
11/13/2021 5:15:00 AM 11.09 51.962 0.552 13 85.8 -99999.99
11/13/2021 5:30:00 AM 11.06 51.908 0.554 12.48 85.9 -99999.99
11/13/2021 5:45:00 AM 11.03 51.854 0.556 13.32 86.1 -99999.99
11/13/2021 6:00:00 AM 11 51.8 0.558 12.67 86 -99999.99
11/13/2021 6:15:00 AM 10.98 51.764 0.56 12.8 86.2 -99999.99
11/13/2021 6:30:00 AM 10.96 51.728 0.562 12.77 86.3 -99999.99
11/13/2021 6:45:00 AM 10.94 51.692 0.564 12.21 86.5 -99999.99
11/13/2021 7:00:00 AM 10.92 51.656 0.566 13.49 86.4 -99999.99
11/13/2021 7:15:00 AM 10.91 51.638 0.567 11.63 86.9 -99999.99
11/13/2021 7:30:00 AM 10.91 51.638 0.569 12.66 87.3 -99999.99
11/13/2021 7:45:00 AM 10.92 51.656 0.571 11.05 88.1 -99999.99
11/13/2021 8:00:00 AM 10.93 51.674 0.572 10.9 88.3 -99999.99
11/13/2021 8:15:00 AM 10.94 51.692 0.574 9.97 89 -99999.99
11/13/2021 8:30:00 AM 10.97 51.746 0.575 8.82 89.6 -99999.99
11/13/2021 8:45:00 AM 10.99 51.782 0.576 8.17 90.3 -99999.99
11/13/2021 9:00:00 AM 11.02 51.836 0.577 8.35 91.2 -99999.99
11/13/2021 9:15:00 AM 11.04 51.872 0.578 9.19 91.8 -99999.99
11/13/2021 9:30:00 AM 11.05 51.89 0.579 8.51 92 -99999.99
11/13/2021 9:45:00 AM 11.06 51.908 0.58 7.15 92.1 -99999.99
11/13/2021 10:00:00 AM 11.07 51.926 0.58 9.65 92.4 -99999.99
11/13/2021 10:15:00 AM 11.07 51.926 0.581 6.44 92.2 -99999.99
11/13/2021 10:30:00 AM 11.07 51.926 0.582 6.55 92.5 -99999.99
11/13/2021 10:45:00 AM 11.09 51.962 0.582 6.32 93.1 -99999.99
11/13/2021 11:00:00 AM 11.09 51.962 0.583 6.7 93.4 -99999.99
11/13/2021 11:15:00 AM 11.11 51.998 0.584 5.83 93.8 -99999.99
11/13/2021 11:30:00 AM 11.11 51.998 0.584 5.63 94 -99999.99
11/13/2021 11:45:00 AM 11.1 51.98 0.585 5.91 93.9 -99999.99
11/13/2021 12:00:00 PM 11.08 51.944 0.585 6.31 94 -99999.99
11/13/2021 12:15:00 PM 11.04 51.872 0.585 7.12 94.1 -99999.99
11/13/2021 12:30:00 PM 11 51.8 0.585 5.52 94 -99999.99
11/13/2021 12:45:00 PM 10.97 51.746 0.585 4.76 94.2 -99999.99
11/13/2021 1:00:00 PM 10.95 51.71 0.586 5.62 94 -99999.99
11/13/2021 1:15:00 PM 10.94 51.692 0.586 6.1 94.6 -99999.99
11/13/2021 1:30:00 PM 10.95 51.71 0.587 6.52 95.3 -99999.99
11/13/2021 1:45:00 PM 11 51.8 0.588 6.26 96.4 -99999.99
11/13/2021 2:00:00 PM 11.04 51.872 0.589 5.56 97.6 -99999.99
11/13/2021 2:15:00 PM 11.04 51.872 0.59 6.11 97.9 -99999.99
11/13/2021 2:30:00 PM 11.07 51.926 0.592 5.62 98.1 -99999.99
11/13/2021 2:45:00 PM 11.1 51.98 0.593 6.04 98.5 -99999.99
11/13/2021 3:00:00 PM 11.09 51.962 0.595 6.38 98.6 -99999.99
11/13/2021 3:15:00 PM 11.09 51.962 0.598 5.38 99 -99999.99
11/13/2021 3:30:00 PM 11.07 51.926 0.602 5.28 98.6 -99999.99
11/13/2021 3:45:00 PM 11.04 51.872 0.606 6.04 98.3 -99999.99
11/13/2021 4:00:00 PM 11 51.8 0.608 6.9 97.7 -99999.99
11/13/2021 4:15:00 PM 10.97 51.746 0.608 5.6 97.2 -99999.99
11/13/2021 4:30:00 PM 10.95 51.71 0.609 4.57 96.8 -99999.99
11/13/2021 4:45:00 PM 10.92 51.656 0.609 5.44 96.4 -99999.99
11/13/2021 5:00:00 PM 10.9 51.62 0.609 5.54 95.9 -99999.99
11/13/2021 5:15:00 PM 10.86 51.548 0.608 5.58 95.3 -99999.99
11/13/2021 5:30:00 PM 10.84 51.512 0.607 5.53 94.7 -99999.99
11/13/2021 5:45:00 PM 10.81 51.458 0.606 7.11 94.3 -99999.99
11/13/2021 6:00:00 PM 10.79 51.422 0.605 6.2 94.1 -99999.99
11/13/2021 6:15:00 PM 10.77 51.386 0.605 5.55 93.6 -99999.99
11/13/2021 6:30:00 PM 10.75 51.35 0.605 5.48 93.5 -99999.99
11/13/2021 6:45:00 PM 10.73 51.314 0.607 6.96 93.4 -99999.99
11/13/2021 7:00:00 PM 10.71 51.278 0.608 5.45 93.2 -99999.99
11/13/2021 7:15:00 PM 10.68 51.224 0.609 6.6 93.1 -99999.99
11/13/2021 7:30:00 PM 10.64 51.152 0.611 5.76 92.6 -99999.99
11/13/2021 7:45:00 PM 10.6 51.08 0.612 7.29 92.1 -99999.99
11/13/2021 8:00:00 PM 10.56 51.008 0.611 6.18 92 -99999.99
11/13/2021 8:15:00 PM 10.53 50.954 0.61 7.32 91.8 -99999.99
11/13/2021 8:30:00 PM 10.5 50.9 0.61 7.35 91.9 -99999.99
11/13/2021 8:45:00 PM 10.47 50.846 0.609 8.73 91.7 -99999.99
11/13/2021 9:00:00 PM 10.45 50.81 0.609 7.42 91.6 -99999.99
11/13/2021 9:15:00 PM 10.44 50.792 0.609 5.61 91.4 -99999.99
11/13/2021 9:30:00 PM 10.42 50.756 0.609 6.38 91.2 -99999.99
11/13/2021 9:45:00 PM 10.4 50.72 0.609 6.22 91 -99999.99
11/13/2021 10:00:00 PM 10.38 50.684 0.609 8.6 90.8 -99999.99
11/13/2021 10:15:00 PM 10.36 50.648 0.609 6.3 90.9 -99999.99
11/13/2021 10:30:00 PM 10.34 50.612 0.609 8.39 90.8 -99999.99
11/13/2021 10:45:00 PM 10.33 50.594 0.61 5.23 90.6 -99999.99
11/13/2021 11:00:00 PM 10.31 50.558 0.611 5.51 90.7 -99999.99
11/13/2021 11:15:00 PM 10.29 50.522 0.612 6.37 90.5 -99999.99
11/13/2021 11:30:00 PM 10.28 50.504 0.613 4.88 90.5 -99999.99
11/13/2021 11:45:00 PM 10.26 50.468 0.613 6.95 90.5 -99999.99
11/14/2021 12:00:00 AM 10.23 50.414 0.614 6.05 90.2 -99999.99
11/14/2021 12:15:00 AM 10.21 50.378 0.614 9.16 90.3 -99999.99
11/14/2021 12:30:00 AM 10.18 50.324 0.613 6.54 90.1 -99999.99
11/14/2021 12:45:00 AM 10.15 50.27 0.612 5.6 90.1 -99999.99
11/14/2021 1:00:00 AM 10.12 50.216 0.61 5.58 90.1 -99999.99
11/14/2021 1:15:00 AM 10.09 50.162 0.607 5.06 89.9 -99999.99
11/14/2021 1:30:00 AM 10.06 50.108 0.604 7.1 89.7 -99999.99
11/14/2021 1:45:00 AM 10.02 50.036 0.6 7.14 89.6 -99999.99
11/14/2021 2:00:00 AM 9.99 49.982 0.597 12.76 89.3 -99999.99
11/14/2021 2:15:00 AM 9.95 49.91 0.593 7.14 89.3 -99999.99
11/14/2021 2:30:00 AM 9.92 49.856 0.59 7.58 89.2 -99999.99
11/14/2021 2:45:00 AM 9.89 49.802 0.588 5.82 89.1 -99999.99
11/14/2021 3:00:00 AM 9.86 49.748 0.586 8.07 89.1 -99999.99
11/14/2021 3:15:00 AM 9.83 49.694 0.585 7.71 89.1 -99999.99
11/14/2021 3:30:00 AM 9.8 49.64 0.585 6.45 88.8 -99999.99
11/14/2021 4:00:00 AM 9.74 49.532 0.586 5.87 89.1 -99999.99
11/14/2021 4:15:00 AM 9.71 49.478 0.588 6.74 89.2 -99999.99
11/14/2021 4:30:00 AM 9.68 49.424 0.589 7.02 89.2 -99999.99
11/14/2021 4:45:00 AM 9.66 49.388 0.59 5.94 89.4 -99999.99
11/14/2021 5:00:00 AM 9.62 49.316 0.591 6.49 89.5 -99999.99
11/14/2021 5:15:00 AM 9.6 49.28 0.593 8.27 89.4 -99999.99
11/14/2021 5:30:00 AM 9.57 49.226 0.594 6.71 89.5 -99999.99
11/14/2021 5:45:00 AM 9.54 49.172 0.595 7.11 89.5 -99999.99
11/14/2021 6:00:00 AM 9.52 49.136 0.596 6.69 89.7 -99999.99
11/14/2021 6:15:00 AM 9.5 49.1 0.597 6.09 89.8 -99999.99
11/14/2021 6:30:00 AM 9.47 49.046 0.599 4.96 89.9 -99999.99
11/14/2021 6:45:00 AM 9.45 49.01 0.6 6.47 89.9 -99999.99
11/14/2021 7:00:00 AM 9.44 48.992 0.601 5.89 90.1 -99999.99
11/14/2021 7:15:00 AM 9.41 48.938 0.602 5.22 90.4 -99999.99
11/14/2021 7:30:00 AM 9.39 48.902 0.603 5.25 90.6 -99999.99
11/14/2021 7:45:00 AM 9.37 48.866 0.605 5.38 90.9 -99999.99
11/14/2021 8:00:00 AM 9.35 48.83 0.606 5.43 91.3 -99999.99
11/14/2021 8:15:00 AM 9.35 48.83 0.608 5.03 91.7 -99999.99
11/14/2021 8:30:00 AM 9.35 48.83 0.61 4.88 92.2 -99999.99
11/14/2021 8:45:00 AM 9.37 48.866 0.611 6.1 93.1 -99999.99
11/14/2021 9:00:00 AM 9.4 48.92 0.613 7.29 93.9 -99999.99
11/14/2021 9:15:00 AM 9.44 48.992 0.614 7.58 94.9 -99999.99
11/14/2021 9:30:00 AM 9.49 49.082 0.615 6.69 96 -99999.99
11/14/2021 9:45:00 AM 9.53 49.154 0.616 4.32 96.8 -99999.99
11/14/2021 10:00:00 AM 9.58 49.244 0.617 4.49 97.6 -99999.99
11/14/2021 10:15:00 AM 9.65 49.37 0.618 4.37 98.4 -99999.99
11/14/2021 10:30:00 AM 9.73 49.514 0.618 5.04 99.8 -99999.99
11/14/2021 10:45:00 AM 9.79 49.622 0.619 4.86 100.8 -99999.99
11/14/2021 11:00:00 AM 9.86 49.748 0.619 4.14 101.8 -99999.99
11/14/2021 11:15:00 AM 9.9 49.82 0.619 6.24 102.7 -99999.99
11/14/2021 11:30:00 AM 9.92 49.856 0.62 4.11 103.3 -99999.99
11/14/2021 11:45:00 AM 9.95 49.91 0.62 5.54 103.9 -99999.99
11/14/2021 12:00:00 PM 9.99 49.982 0.62 3.98 104.4 -99999.99
11/14/2021 12:15:00 PM 10.02 50.036 0.62 5.26 105 -99999.99
11/14/2021 12:30:00 PM 10.05 50.09 0.62 5.21 105.4 -99999.99
11/14/2021 12:45:00 PM 10.07 50.126 0.62 5.57 105.2 -99999.99
11/14/2021 1:00:00 PM 10.09 50.162 0.62 4.02 105.6 -99999.99
11/14/2021 1:15:00 PM 10.12 50.216 0.621 5.38 105.7 -99999.99
11/14/2021 1:30:00 PM 10.15 50.27 0.621 5.25 106.2 -99999.99
11/14/2021 1:45:00 PM 10.21 50.378 0.621 4.36 107.2 -99999.99
11/14/2021 2:00:00 PM 10.26 50.468 0.621 4.33 107.9 -99999.99
11/14/2021 2:15:00 PM 10.28 50.504 0.621 5.86 107.9 -99999.99
11/14/2021 2:30:00 PM 10.28 50.504 0.621 4.63 107.7 -99999.99
11/14/2021 2:45:00 PM 10.3 50.54 0.621 5.04 107.4 -99999.99
11/14/2021 3:00:00 PM 10.31 50.558 0.622 4.17 107.6 -99999.99
11/14/2021 3:15:00 PM 10.3 50.54 0.622 5.1 107.2 -99999.99
11/14/2021 3:30:00 PM 10.29 50.522 0.622 3.76 106.8 -99999.99
11/14/2021 3:45:00 PM 10.29 50.522 0.622 3.85 105.9 -99999.99
11/14/2021 4:00:00 PM 10.3 50.54 0.623 3.39 105.1 -99999.99
11/14/2021 4:15:00 PM 10.3 50.54 0.623 4.38 103.9 -99999.99
11/14/2021 4:30:00 PM 10.3 50.54 0.624 5.71 103 -99999.99
11/14/2021 4:45:00 PM 10.3 50.54 0.624 3.41 102.2 -99999.99
11/14/2021 5:00:00 PM 10.29 50.522 0.624 9.21 101.4 -99999.99
11/14/2021 5:15:00 PM 10.28 50.504 0.624 3.54 100.4 -99999.99
11/14/2021 5:30:00 PM 10.27 50.486 0.625 4.36 99.7 -99999.99
11/14/2021 5:45:00 PM 10.26 50.468 0.625 4.2 99.2 -99999.99
11/14/2021 6:00:00 PM 10.26 50.468 0.625 3.65 98.4 -99999.99
11/14/2021 6:15:00 PM 10.24 50.432 0.626 7.41 97.8 -99999.99
11/14/2021 6:30:00 PM 10.23 50.414 0.626 4.43 97.5 -99999.99
11/14/2021 6:45:00 PM 10.22 50.396 0.626 4.08 97.1 -99999.99
11/14/2021 7:00:00 PM 10.21 50.378 0.627 5.1 96.6 -99999.99
11/14/2021 7:15:00 PM 10.19 50.342 0.627 4.45 96.3 -99999.99
11/14/2021 7:30:00 PM 10.17 50.306 0.627 5.35 95.9 -99999.99
11/14/2021 7:45:00 PM 10.18 50.324 0.628 4.39 95.7 -99999.99
11/14/2021 8:00:00 PM 10.17 50.306 0.628 5.12 95.2 -99999.99
11/14/2021 8:15:00 PM 10.17 50.306 0.628 4.46 95 -99999.99
11/14/2021 8:30:00 PM 10.17 50.306 0.628 4.21 94.8 -99999.99
11/14/2021 8:45:00 PM 10.17 50.306 0.629 5.33 94.5 -99999.99
11/14/2021 9:00:00 PM 10.16 50.288 0.629 4.43 94.1 -99999.99
11/14/2021 9:15:00 PM 10.16 50.288 0.629 4.16 93.9 -99999.99
11/14/2021 9:30:00 PM 10.16 50.288 0.629 4.69 93.7 -99999.99
11/14/2021 9:45:00 PM 10.17 50.306 0.63 5.11 93.4 -99999.99
11/14/2021 10:00:00 PM 10.17 50.306 0.63 4.99 93.1 -99999.99
11/14/2021 10:15:00 PM 10.18 50.324 0.63 4.33 92.9 -99999.99
11/14/2021 10:30:00 PM 10.18 50.324 0.63 3.96 92.8 -99999.99
11/14/2021 10:45:00 PM 10.19 50.342 0.63 3.82 92.4 -99999.99
11/14/2021 11:00:00 PM 10.2 50.36 0.631 4.14 92.2 -99999.99
11/14/2021 11:15:00 PM 10.2 50.36 0.631 3.65 92.2 -99999.99
11/14/2021 11:30:00 PM 10.21 50.378 0.632 4.13 91.9 -99999.99
11/14/2021 11:45:00 PM 10.22 50.396 0.632 5.04 91.8 -99999.99
11/15/2021 12:00:00 AM 10.21 50.378 0.633 4.29 91.5 -99999.99
11/15/2021 12:15:00 AM 10.21 50.378 0.632 4.21 91.7 -99999.99
11/15/2021 12:30:00 AM 10.23 50.414 0.632 4.17 91.9 -99999.99
11/15/2021 12:45:00 AM 10.23 50.414 0.636 4.11 91.9 -99999.99
11/15/2021 1:00:00 AM 10.22 50.396 0.642 4.47 91.9 -99999.99
11/15/2021 1:15:00 AM 10.22 50.396 0.646 4.91 91.7 -99999.99
11/15/2021 1:30:00 AM 10.21 50.378 0.648 4.29 91.7 -99999.99
11/15/2021 1:45:00 AM 10.2 50.36 0.649 4.83 91.7 -99999.99
11/15/2021 2:00:00 AM 10.19 50.342 0.649 4.67 91.6 -99999.99
11/15/2021 2:15:00 AM 10.19 50.342 0.65 4.68 91.4 -99999.99
11/15/2021 2:30:00 AM 10.19 50.342 0.65 4.52 91.5 -99999.99
11/15/2021 2:45:00 AM 10.18 50.324 0.651 4.16 91.2 -99999.99
11/15/2021 3:00:00 AM 10.18 50.324 0.651 5.02 91.3 -99999.99
11/15/2021 3:15:00 AM 10.19 50.342 0.651 4.72 91.3 -99999.99
11/15/2021 3:30:00 AM 10.19 50.342 0.651 4.51 91.2 -99999.99
11/15/2021 3:45:00 AM 10.18 50.324 0.652 4.6 91.2 -99999.99
11/15/2021 4:00:00 AM 10.18 50.324 0.652 4.08 91 -99999.99
11/15/2021 4:15:00 AM 10.17 50.306<